<?xml version="1.0" encoding="UTF-8" standalone="no" ?>
<gpx xmlns="http://www.topografix.com/GPX/1/1" xmlns:xsi="http://www.w3.org/2001/XMLSchema-instance" xsi:schemaLocation="http://www.topografix.com/GPX/1/1 http://www.topografix.com/GPX/1/1/gpx.xsd" version="1.1" creator="VisuGPX - https://www.visugpx.com">
  <metadata>
    <name>Roc de Toulau plateau d'Ambel</name>
    <desc><![CDATA[File with points/tracks from Locus Map/3.26.2]]></desc>
  </metadata>
  <trk>
    <name><![CDATA[F26400 col Bataille roc Toulau scialet 4 gorges JPT LT]]></name>
    <trkseg>
      <trkpt lat="44.89776" lon="5.23373">
        <ele>1302.95</ele>
        <time>2017-10-31T11:11:26.000Z</time>
      </trkpt>
      <trkpt lat="44.89778" lon="5.2337">
        <ele>1302.32</ele>
        <time>2017-10-31T11:11:36.000Z</time>
      </trkpt>
      <trkpt lat="44.89784" lon="5.23368">
        <ele>1301.51</ele>
        <time>2017-10-31T11:11:46.000Z</time>
      </trkpt>
      <trkpt lat="44.89785" lon="5.23367">
        <ele>1301.33</ele>
        <time>2017-10-31T11:11:57.000Z</time>
      </trkpt>
      <trkpt lat="44.89787" lon="5.23365">
        <ele>1301.01</ele>
        <time>2017-10-31T11:12:07.000Z</time>
      </trkpt>
      <trkpt lat="44.89788" lon="5.23363">
        <ele>1300.75</ele>
        <time>2017-10-31T11:12:17.000Z</time>
      </trkpt>
      <trkpt lat="44.8979" lon="5.2336">
        <ele>1300.41</ele>
        <time>2017-10-31T11:12:56.000Z</time>
      </trkpt>
      <trkpt lat="44.89791" lon="5.2336">
        <ele>1300.29</ele>
        <time>2017-10-31T11:13:06.000Z</time>
      </trkpt>
      <trkpt lat="44.89794" lon="5.23362">
        <ele>1300.13</ele>
        <time>2017-10-31T11:15:57.000Z</time>
      </trkpt>
      <trkpt lat="44.89798" lon="5.23367">
        <ele>1299.68</ele>
        <time>2017-10-31T11:16:07.000Z</time>
      </trkpt>
      <trkpt lat="44.89797" lon="5.2336">
        <ele>1299.7</ele>
        <time>2017-10-31T11:16:17.000Z</time>
      </trkpt>
      <trkpt lat="44.89796" lon="5.23357">
        <ele>1299.72</ele>
        <time>2017-10-31T11:16:27.000Z</time>
      </trkpt>
      <trkpt lat="44.89799" lon="5.23353">
        <ele>1299.44</ele>
        <time>2017-10-31T11:16:37.000Z</time>
      </trkpt>
      <trkpt lat="44.89799" lon="5.23351">
        <ele>1299.45</ele>
        <time>2017-10-31T11:16:47.000Z</time>
      </trkpt>
      <trkpt lat="44.89799" lon="5.23351">
        <ele>1299.39</ele>
        <time>2017-10-31T11:17:09.000Z</time>
      </trkpt>
      <trkpt lat="44.898" lon="5.23351">
        <ele>1299.31</ele>
        <time>2017-10-31T11:18:02.000Z</time>
      </trkpt>
      <trkpt lat="44.89804" lon="5.23358">
        <ele>1298.93</ele>
        <time>2017-10-31T11:18:16.000Z</time>
      </trkpt>
      <trkpt lat="44.89799" lon="5.23358">
        <ele>1299.44</ele>
        <time>2017-10-31T11:18:56.000Z</time>
      </trkpt>
      <trkpt lat="44.89794" lon="5.23362">
        <ele>1300.13</ele>
        <time>2017-10-31T11:19:06.000Z</time>
      </trkpt>
      <trkpt lat="44.89788" lon="5.23369">
        <ele>1301.1</ele>
        <time>2017-10-31T11:19:16.000Z</time>
      </trkpt>
      <trkpt lat="44.89782" lon="5.23381">
        <ele>1302.75</ele>
        <time>2017-10-31T11:19:26.000Z</time>
      </trkpt>
      <trkpt lat="44.89777" lon="5.23387">
        <ele>1304.27</ele>
        <time>2017-10-31T11:19:36.000Z</time>
      </trkpt>
      <trkpt lat="44.89775" lon="5.2339">
        <ele>1304.84</ele>
        <time>2017-10-31T11:19:46.000Z</time>
      </trkpt>
      <trkpt lat="44.89775" lon="5.23388">
        <ele>1304.73</ele>
        <time>2017-10-31T11:19:56.000Z</time>
      </trkpt>
      <trkpt lat="44.89774" lon="5.2339">
        <ele>1305.11</ele>
        <time>2017-10-31T11:20:17.000Z</time>
      </trkpt>
      <trkpt lat="44.89767" lon="5.23399">
        <ele>1307.47</ele>
        <time>2017-10-31T11:20:27.000Z</time>
      </trkpt>
      <trkpt lat="44.89766" lon="5.23401">
        <ele>1307.97</ele>
        <time>2017-10-31T11:20:37.000Z</time>
      </trkpt>
      <trkpt lat="44.89766" lon="5.23404">
        <ele>1308.35</ele>
        <time>2017-10-31T11:20:47.000Z</time>
      </trkpt>
      <trkpt lat="44.89767" lon="5.23411">
        <ele>1309.28</ele>
        <time>2017-10-31T11:20:57.000Z</time>
      </trkpt>
      <trkpt lat="44.89764" lon="5.23414">
        <ele>1310.59</ele>
        <time>2017-10-31T11:21:26.000Z</time>
      </trkpt>
      <trkpt lat="44.89762" lon="5.23423">
        <ele>1312.44</ele>
        <time>2017-10-31T11:21:37.000Z</time>
      </trkpt>
      <trkpt lat="44.8976" lon="5.2344">
        <ele>1315.77</ele>
        <time>2017-10-31T11:21:47.000Z</time>
      </trkpt>
      <trkpt lat="44.89759" lon="5.23448">
        <ele>1317.83</ele>
        <time>2017-10-31T11:21:57.000Z</time>
      </trkpt>
      <trkpt lat="44.89758" lon="5.23454">
        <ele>1319.06</ele>
        <time>2017-10-31T11:22:07.000Z</time>
      </trkpt>
      <trkpt lat="44.89756" lon="5.23458">
        <ele>1320.61</ele>
        <time>2017-10-31T11:22:17.000Z</time>
      </trkpt>
      <trkpt lat="44.89753" lon="5.23463">
        <ele>1322.63</ele>
        <time>2017-10-31T11:22:27.000Z</time>
      </trkpt>
      <trkpt lat="44.89746" lon="5.23467">
        <ele>1326.25</ele>
        <time>2017-10-31T11:22:37.000Z</time>
      </trkpt>
      <trkpt lat="44.89741" lon="5.23469">
        <ele>1328.15</ele>
        <time>2017-10-31T11:22:47.000Z</time>
      </trkpt>
      <trkpt lat="44.89742" lon="5.23473">
        <ele>1328.97</ele>
        <time>2017-10-31T11:22:57.000Z</time>
      </trkpt>
      <trkpt lat="44.89738" lon="5.23472">
        <ele>1329.91</ele>
        <time>2017-10-31T11:23:07.000Z</time>
      </trkpt>
      <trkpt lat="44.89734" lon="5.23473">
        <ele>1331.4</ele>
        <time>2017-10-31T11:23:17.000Z</time>
      </trkpt>
      <trkpt lat="44.89732" lon="5.23476">
        <ele>1332.62</ele>
        <time>2017-10-31T11:23:27.000Z</time>
      </trkpt>
      <trkpt lat="44.89732" lon="5.23474">
        <ele>1332.27</ele>
        <time>2017-10-31T11:23:37.000Z</time>
      </trkpt>
      <trkpt lat="44.89732" lon="5.23475">
        <ele>1332.71</ele>
        <time>2017-10-31T11:24:06.000Z</time>
      </trkpt>
      <trkpt lat="44.89729" lon="5.23481">
        <ele>1335.04</ele>
        <time>2017-10-31T11:24:16.000Z</time>
      </trkpt>
      <trkpt lat="44.8973" lon="5.23479">
        <ele>1334.41</ele>
        <time>2017-10-31T11:24:27.000Z</time>
      </trkpt>
      <trkpt lat="44.89726" lon="5.23479">
        <ele>1335.45</ele>
        <time>2017-10-31T11:24:37.000Z</time>
      </trkpt>
      <trkpt lat="44.89728" lon="5.23483">
        <ele>1335.99</ele>
        <time>2017-10-31T11:24:47.000Z</time>
      </trkpt>
      <trkpt lat="44.89729" lon="5.23488">
        <ele>1337.02</ele>
        <time>2017-10-31T11:24:57.000Z</time>
      </trkpt>
      <trkpt lat="44.89726" lon="5.23493">
        <ele>1339.27</ele>
        <time>2017-10-31T11:25:07.000Z</time>
      </trkpt>
      <trkpt lat="44.89724" lon="5.23499">
        <ele>1341.33</ele>
        <time>2017-10-31T11:25:17.000Z</time>
      </trkpt>
      <trkpt lat="44.89722" lon="5.23498">
        <ele>1341.69</ele>
        <time>2017-10-31T11:25:27.000Z</time>
      </trkpt>
      <trkpt lat="44.89719" lon="5.235">
        <ele>1343.2</ele>
        <time>2017-10-31T11:25:37.000Z</time>
      </trkpt>
      <trkpt lat="44.89715" lon="5.23501">
        <ele>1344.43</ele>
        <time>2017-10-31T11:25:47.000Z</time>
      </trkpt>
      <trkpt lat="44.89717" lon="5.23508">
        <ele>1345.86</ele>
        <time>2017-10-31T11:25:57.000Z</time>
      </trkpt>
      <trkpt lat="44.89718" lon="5.2351">
        <ele>1346.19</ele>
        <time>2017-10-31T11:26:07.000Z</time>
      </trkpt>
      <trkpt lat="44.89715" lon="5.23508">
        <ele>1346.41</ele>
        <time>2017-10-31T11:26:17.000Z</time>
      </trkpt>
      <trkpt lat="44.89713" lon="5.23512">
        <ele>1348.25</ele>
        <time>2017-10-31T11:26:27.000Z</time>
      </trkpt>
      <trkpt lat="44.89712" lon="5.23511">
        <ele>1348.19</ele>
        <time>2017-10-31T11:26:37.000Z</time>
      </trkpt>
      <trkpt lat="44.89711" lon="5.23511">
        <ele>1348.47</ele>
        <time>2017-10-31T11:26:47.000Z</time>
      </trkpt>
      <trkpt lat="44.8971" lon="5.23519">
        <ele>1351.17</ele>
        <time>2017-10-31T11:26:57.000Z</time>
      </trkpt>
      <trkpt lat="44.89709" lon="5.23517">
        <ele>1350.82</ele>
        <time>2017-10-31T11:27:07.000Z</time>
      </trkpt>
      <trkpt lat="44.89707" lon="5.23522">
        <ele>1353</ele>
        <time>2017-10-31T11:27:37.000Z</time>
      </trkpt>
      <trkpt lat="44.89704" lon="5.23527">
        <ele>1355.21</ele>
        <time>2017-10-31T11:27:47.000Z</time>
      </trkpt>
      <trkpt lat="44.89704" lon="5.23528">
        <ele>1355.71</ele>
        <time>2017-10-31T11:27:57.000Z</time>
      </trkpt>
      <trkpt lat="44.897" lon="5.2353">
        <ele>1357.28</ele>
        <time>2017-10-31T11:28:17.000Z</time>
      </trkpt>
      <trkpt lat="44.89699" lon="5.23534">
        <ele>1359.12</ele>
        <time>2017-10-31T11:28:27.000Z</time>
      </trkpt>
      <trkpt lat="44.89699" lon="5.23537">
        <ele>1359.83</ele>
        <time>2017-10-31T11:28:57.000Z</time>
      </trkpt>
      <trkpt lat="44.89698" lon="5.2354">
        <ele>1361.02</ele>
        <time>2017-10-31T11:29:07.000Z</time>
      </trkpt>
      <trkpt lat="44.89697" lon="5.2355">
        <ele>1364.06</ele>
        <time>2017-10-31T11:29:26.000Z</time>
      </trkpt>
      <trkpt lat="44.89693" lon="5.23556">
        <ele>1366.84</ele>
        <time>2017-10-31T11:29:36.000Z</time>
      </trkpt>
      <trkpt lat="44.89688" lon="5.23557">
        <ele>1368.55</ele>
        <time>2017-10-31T11:29:46.000Z</time>
      </trkpt>
      <trkpt lat="44.89687" lon="5.23555">
        <ele>1368.52</ele>
        <time>2017-10-31T11:29:57.000Z</time>
      </trkpt>
      <trkpt lat="44.89686" lon="5.23557">
        <ele>1369.46</ele>
        <time>2017-10-31T11:30:07.000Z</time>
      </trkpt>
      <trkpt lat="44.89682" lon="5.23567">
        <ele>1373.2</ele>
        <time>2017-10-31T11:30:17.000Z</time>
      </trkpt>
      <trkpt lat="44.89679" lon="5.23571">
        <ele>1375.38</ele>
        <time>2017-10-31T11:30:27.000Z</time>
      </trkpt>
      <trkpt lat="44.89676" lon="5.23576">
        <ele>1377.44</ele>
        <time>2017-10-31T11:30:37.000Z</time>
      </trkpt>
      <trkpt lat="44.89672" lon="5.2358">
        <ele>1379.59</ele>
        <time>2017-10-31T11:30:47.000Z</time>
      </trkpt>
      <trkpt lat="44.89671" lon="5.23581">
        <ele>1380.17</ele>
        <time>2017-10-31T11:30:57.000Z</time>
      </trkpt>
      <trkpt lat="44.89669" lon="5.23584">
        <ele>1381.36</ele>
        <time>2017-10-31T11:31:07.000Z</time>
      </trkpt>
      <trkpt lat="44.89662" lon="5.23588">
        <ele>1384.4</ele>
        <time>2017-10-31T11:32:12.000Z</time>
      </trkpt>
      <trkpt lat="44.8966" lon="5.23601">
        <ele>1387.56</ele>
        <time>2017-10-31T11:32:26.000Z</time>
      </trkpt>
      <trkpt lat="44.89659" lon="5.23605">
        <ele>1388.44</ele>
        <time>2017-10-31T11:32:37.000Z</time>
      </trkpt>
      <trkpt lat="44.89659" lon="5.23604">
        <ele>1388.53</ele>
        <time>2017-10-31T11:32:47.000Z</time>
      </trkpt>
      <trkpt lat="44.89653" lon="5.23609">
        <ele>1391.32</ele>
        <time>2017-10-31T11:32:57.000Z</time>
      </trkpt>
      <trkpt lat="44.8965" lon="5.23607">
        <ele>1391.74</ele>
        <time>2017-10-31T11:33:07.000Z</time>
      </trkpt>
      <trkpt lat="44.89643" lon="5.23616">
        <ele>1396.23</ele>
        <time>2017-10-31T11:33:18.000Z</time>
      </trkpt>
      <trkpt lat="44.8964" lon="5.23619">
        <ele>1397.66</ele>
        <time>2017-10-31T11:33:28.000Z</time>
      </trkpt>
      <trkpt lat="44.8964" lon="5.23618">
        <ele>1397.83</ele>
        <time>2017-10-31T11:33:39.000Z</time>
      </trkpt>
      <trkpt lat="44.89637" lon="5.2362">
        <ele>1399</ele>
        <time>2017-10-31T11:33:49.000Z</time>
      </trkpt>
      <trkpt lat="44.8963" lon="5.23627">
        <ele>1403.01</ele>
        <time>2017-10-31T11:33:59.000Z</time>
      </trkpt>
      <trkpt lat="44.89624" lon="5.23629">
        <ele>1405.9</ele>
        <time>2017-10-31T11:34:09.000Z</time>
      </trkpt>
      <trkpt lat="44.89621" lon="5.2363">
        <ele>1406.99</ele>
        <time>2017-10-31T11:34:19.000Z</time>
      </trkpt>
      <trkpt lat="44.89621" lon="5.2363">
        <ele>1407.48</ele>
        <time>2017-10-31T11:34:29.000Z</time>
      </trkpt>
      <trkpt lat="44.8962" lon="5.23631">
        <ele>1407.92</ele>
        <time>2017-10-31T11:34:39.000Z</time>
      </trkpt>
      <trkpt lat="44.89616" lon="5.23633">
        <ele>1409.91</ele>
        <time>2017-10-31T11:34:49.000Z</time>
      </trkpt>
      <trkpt lat="44.89615" lon="5.23636">
        <ele>1411.2</ele>
        <time>2017-10-31T11:34:59.000Z</time>
      </trkpt>
      <trkpt lat="44.89613" lon="5.2364">
        <ele>1413.37</ele>
        <time>2017-10-31T11:35:09.000Z</time>
      </trkpt>
      <trkpt lat="44.89612" lon="5.23641">
        <ele>1413.95</ele>
        <time>2017-10-31T11:35:19.000Z</time>
      </trkpt>
      <trkpt lat="44.89607" lon="5.23645">
        <ele>1417.37</ele>
        <time>2017-10-31T11:35:29.000Z</time>
      </trkpt>
      <trkpt lat="44.89606" lon="5.23647">
        <ele>1418.21</ele>
        <time>2017-10-31T11:35:39.000Z</time>
      </trkpt>
      <trkpt lat="44.89604" lon="5.23654">
        <ele>1421.28</ele>
        <time>2017-10-31T11:35:49.000Z</time>
      </trkpt>
      <trkpt lat="44.89598" lon="5.23655">
        <ele>1423.86</ele>
        <time>2017-10-31T11:35:59.000Z</time>
      </trkpt>
      <trkpt lat="44.89596" lon="5.23657">
        <ele>1425.53</ele>
        <time>2017-10-31T11:36:09.000Z</time>
      </trkpt>
      <trkpt lat="44.89596" lon="5.2366">
        <ele>1426.4</ele>
        <time>2017-10-31T11:36:19.000Z</time>
      </trkpt>
      <trkpt lat="44.89595" lon="5.23662">
        <ele>1427.4</ele>
        <time>2017-10-31T11:36:29.000Z</time>
      </trkpt>
      <trkpt lat="44.89594" lon="5.23665">
        <ele>1428.73</ele>
        <time>2017-10-31T11:36:39.000Z</time>
      </trkpt>
      <trkpt lat="44.89593" lon="5.23665">
        <ele>1428.86</ele>
        <time>2017-10-31T11:36:57.000Z</time>
      </trkpt>
      <trkpt lat="44.89592" lon="5.23668">
        <ele>1430.4</ele>
        <time>2017-10-31T11:37:14.000Z</time>
      </trkpt>
      <trkpt lat="44.89591" lon="5.2367">
        <ele>1431.28</ele>
        <time>2017-10-31T11:37:27.000Z</time>
      </trkpt>
      <trkpt lat="44.89587" lon="5.23675">
        <ele>1434.04</ele>
        <time>2017-10-31T11:37:38.000Z</time>
      </trkpt>
      <trkpt lat="44.89585" lon="5.23679">
        <ele>1435.9</ele>
        <time>2017-10-31T11:37:48.000Z</time>
      </trkpt>
      <trkpt lat="44.89584" lon="5.23686">
        <ele>1438.08</ele>
        <time>2017-10-31T11:37:58.000Z</time>
      </trkpt>
      <trkpt lat="44.89579" lon="5.23687">
        <ele>1440.15</ele>
        <time>2017-10-31T11:38:08.000Z</time>
      </trkpt>
      <trkpt lat="44.89576" lon="5.2369">
        <ele>1441.95</ele>
        <time>2017-10-31T11:38:18.000Z</time>
      </trkpt>
      <trkpt lat="44.89574" lon="5.23693">
        <ele>1443.18</ele>
        <time>2017-10-31T11:38:28.000Z</time>
      </trkpt>
      <trkpt lat="44.89572" lon="5.23696">
        <ele>1444.94</ele>
        <time>2017-10-31T11:38:38.000Z</time>
      </trkpt>
      <trkpt lat="44.89568" lon="5.237">
        <ele>1447.08</ele>
        <time>2017-10-31T11:38:48.000Z</time>
      </trkpt>
      <trkpt lat="44.89565" lon="5.23704">
        <ele>1449.25</ele>
        <time>2017-10-31T11:38:58.000Z</time>
      </trkpt>
      <trkpt lat="44.89563" lon="5.23705">
        <ele>1450.12</ele>
        <time>2017-10-31T11:39:08.000Z</time>
      </trkpt>
      <trkpt lat="44.89559" lon="5.23709">
        <ele>1452.5</ele>
        <time>2017-10-31T11:39:18.000Z</time>
      </trkpt>
      <trkpt lat="44.89554" lon="5.23715">
        <ele>1455.35</ele>
        <time>2017-10-31T11:39:28.000Z</time>
      </trkpt>
      <trkpt lat="44.89552" lon="5.23716">
        <ele>1456.78</ele>
        <time>2017-10-31T11:39:38.000Z</time>
      </trkpt>
      <trkpt lat="44.89548" lon="5.23717">
        <ele>1458.18</ele>
        <time>2017-10-31T11:39:48.000Z</time>
      </trkpt>
      <trkpt lat="44.89545" lon="5.23718">
        <ele>1459.48</ele>
        <time>2017-10-31T11:39:58.000Z</time>
      </trkpt>
      <trkpt lat="44.89544" lon="5.23718">
        <ele>1460.12</ele>
        <time>2017-10-31T11:40:08.000Z</time>
      </trkpt>
      <trkpt lat="44.89542" lon="5.2372">
        <ele>1460.99</ele>
        <time>2017-10-31T11:40:28.000Z</time>
      </trkpt>
      <trkpt lat="44.8954" lon="5.23715">
        <ele>1460.33</ele>
        <time>2017-10-31T11:40:38.000Z</time>
      </trkpt>
      <trkpt lat="44.89535" lon="5.23722">
        <ele>1463.94</ele>
        <time>2017-10-31T11:40:56.000Z</time>
      </trkpt>
      <trkpt lat="44.89531" lon="5.23724">
        <ele>1465.7</ele>
        <time>2017-10-31T11:41:08.000Z</time>
      </trkpt>
      <trkpt lat="44.89528" lon="5.23728">
        <ele>1467.73</ele>
        <time>2017-10-31T11:41:28.000Z</time>
      </trkpt>
      <trkpt lat="44.89527" lon="5.23728">
        <ele>1468.13</ele>
        <time>2017-10-31T11:41:38.000Z</time>
      </trkpt>
      <trkpt lat="44.89525" lon="5.23732">
        <ele>1470.01</ele>
        <time>2017-10-31T11:42:58.000Z</time>
      </trkpt>
      <trkpt lat="44.89516" lon="5.23747">
        <ele>1477.23</ele>
        <time>2017-10-31T11:43:08.000Z</time>
      </trkpt>
      <trkpt lat="44.89514" lon="5.23747">
        <ele>1478.2</ele>
        <time>2017-10-31T11:43:18.000Z</time>
      </trkpt>
      <trkpt lat="44.89513" lon="5.23748">
        <ele>1478.93</ele>
        <time>2017-10-31T11:43:38.000Z</time>
      </trkpt>
      <trkpt lat="44.8951" lon="5.23753">
        <ele>1481.47</ele>
        <time>2017-10-31T11:43:48.000Z</time>
      </trkpt>
      <trkpt lat="44.89505" lon="5.23753">
        <ele>1482.89</ele>
        <time>2017-10-31T11:43:58.000Z</time>
      </trkpt>
      <trkpt lat="44.89504" lon="5.23752">
        <ele>1482.61</ele>
        <time>2017-10-31T11:44:18.000Z</time>
      </trkpt>
      <trkpt lat="44.89501" lon="5.23754">
        <ele>1484.26</ele>
        <time>2017-10-31T11:44:28.000Z</time>
      </trkpt>
      <trkpt lat="44.89499" lon="5.23755">
        <ele>1485.12</ele>
        <time>2017-10-31T11:44:40.000Z</time>
      </trkpt>
      <trkpt lat="44.89495" lon="5.23757">
        <ele>1486.59</ele>
        <time>2017-10-31T11:44:50.000Z</time>
      </trkpt>
      <trkpt lat="44.89492" lon="5.23763">
        <ele>1489.42</ele>
        <time>2017-10-31T11:45:00.000Z</time>
      </trkpt>
      <trkpt lat="44.8949" lon="5.23765">
        <ele>1490.79</ele>
        <time>2017-10-31T11:45:38.000Z</time>
      </trkpt>
      <trkpt lat="44.89488" lon="5.23766">
        <ele>1491.44</ele>
        <time>2017-10-31T11:45:49.000Z</time>
      </trkpt>
      <trkpt lat="44.89485" lon="5.23769">
        <ele>1493.14</ele>
        <time>2017-10-31T11:46:09.000Z</time>
      </trkpt>
      <trkpt lat="44.89483" lon="5.23776">
        <ele>1496.08</ele>
        <time>2017-10-31T11:46:19.000Z</time>
      </trkpt>
      <trkpt lat="44.89482" lon="5.23778">
        <ele>1497.21</ele>
        <time>2017-10-31T11:46:29.000Z</time>
      </trkpt>
      <trkpt lat="44.89478" lon="5.23785">
        <ele>1500.38</ele>
        <time>2017-10-31T11:46:39.000Z</time>
      </trkpt>
      <trkpt lat="44.89477" lon="5.23784">
        <ele>1500.1</ele>
        <time>2017-10-31T11:46:49.000Z</time>
      </trkpt>
      <trkpt lat="44.89472" lon="5.23786">
        <ele>1500.93</ele>
        <time>2017-10-31T11:46:59.000Z</time>
      </trkpt>
      <trkpt lat="44.89468" lon="5.23791">
        <ele>1503.06</ele>
        <time>2017-10-31T11:47:09.000Z</time>
      </trkpt>
      <trkpt lat="44.89468" lon="5.23786">
        <ele>1501.45</ele>
        <time>2017-10-31T11:47:19.000Z</time>
      </trkpt>
      <trkpt lat="44.89467" lon="5.2379">
        <ele>1502.66</ele>
        <time>2017-10-31T11:47:29.000Z</time>
      </trkpt>
      <trkpt lat="44.89466" lon="5.23788">
        <ele>1502.28</ele>
        <time>2017-10-31T11:47:39.000Z</time>
      </trkpt>
      <trkpt lat="44.89465" lon="5.23789">
        <ele>1502.48</ele>
        <time>2017-10-31T11:47:49.000Z</time>
      </trkpt>
      <trkpt lat="44.89464" lon="5.23793">
        <ele>1503.94</ele>
        <time>2017-10-31T11:48:09.000Z</time>
      </trkpt>
      <trkpt lat="44.89459" lon="5.23794">
        <ele>1504.43</ele>
        <time>2017-10-31T11:48:19.000Z</time>
      </trkpt>
      <trkpt lat="44.89451" lon="5.23793">
        <ele>1503.77</ele>
        <time>2017-10-31T11:48:30.000Z</time>
      </trkpt>
      <trkpt lat="44.89445" lon="5.23797">
        <ele>1505.25</ele>
        <time>2017-10-31T11:48:40.000Z</time>
      </trkpt>
      <trkpt lat="44.89436" lon="5.238">
        <ele>1506.34</ele>
        <time>2017-10-31T11:48:50.000Z</time>
      </trkpt>
      <trkpt lat="44.89426" lon="5.23798">
        <ele>1505.43</ele>
        <time>2017-10-31T11:49:00.000Z</time>
      </trkpt>
      <trkpt lat="44.89415" lon="5.23794">
        <ele>1504.57</ele>
        <time>2017-10-31T11:49:10.000Z</time>
      </trkpt>
      <trkpt lat="44.89407" lon="5.23801">
        <ele>1507.89</ele>
        <time>2017-10-31T11:49:20.000Z</time>
      </trkpt>
      <trkpt lat="44.89401" lon="5.23803">
        <ele>1509.03</ele>
        <time>2017-10-31T11:49:30.000Z</time>
      </trkpt>
      <trkpt lat="44.89396" lon="5.23804">
        <ele>1509.98</ele>
        <time>2017-10-31T11:49:40.000Z</time>
      </trkpt>
      <trkpt lat="44.8939" lon="5.2381">
        <ele>1512.99</ele>
        <time>2017-10-31T11:49:50.000Z</time>
      </trkpt>
      <trkpt lat="44.89382" lon="5.23807">
        <ele>1512.67</ele>
        <time>2017-10-31T11:50:00.000Z</time>
      </trkpt>
      <trkpt lat="44.89378" lon="5.23811">
        <ele>1514.58</ele>
        <time>2017-10-31T11:50:10.000Z</time>
      </trkpt>
      <trkpt lat="44.89375" lon="5.23811">
        <ele>1515.07</ele>
        <time>2017-10-31T11:50:20.000Z</time>
      </trkpt>
      <trkpt lat="44.89368" lon="5.23809">
        <ele>1514.88</ele>
        <time>2017-10-31T11:50:30.000Z</time>
      </trkpt>
      <trkpt lat="44.89365" lon="5.23812">
        <ele>1516.5</ele>
        <time>2017-10-31T11:50:40.000Z</time>
      </trkpt>
      <trkpt lat="44.89357" lon="5.23813">
        <ele>1517.91</ele>
        <time>2017-10-31T11:50:50.000Z</time>
      </trkpt>
      <trkpt lat="44.89356" lon="5.23814">
        <ele>1518.58</ele>
        <time>2017-10-31T11:51:00.000Z</time>
      </trkpt>
      <trkpt lat="44.89347" lon="5.23818">
        <ele>1520.67</ele>
        <time>2017-10-31T11:51:10.000Z</time>
      </trkpt>
      <trkpt lat="44.8934" lon="5.23818">
        <ele>1521.44</ele>
        <time>2017-10-31T11:51:20.000Z</time>
      </trkpt>
      <trkpt lat="44.89338" lon="5.2382">
        <ele>1522.37</ele>
        <time>2017-10-31T11:51:30.000Z</time>
      </trkpt>
      <trkpt lat="44.89333" lon="5.23827">
        <ele>1525.04</ele>
        <time>2017-10-31T11:51:40.000Z</time>
      </trkpt>
      <trkpt lat="44.89323" lon="5.23828">
        <ele>1526.12</ele>
        <time>2017-10-31T11:51:50.000Z</time>
      </trkpt>
      <trkpt lat="44.89312" lon="5.23823">
        <ele>1525.23</ele>
        <time>2017-10-31T11:52:00.000Z</time>
      </trkpt>
      <trkpt lat="44.89304" lon="5.23829">
        <ele>1527.46</ele>
        <time>2017-10-31T11:52:10.000Z</time>
      </trkpt>
      <trkpt lat="44.89293" lon="5.2383">
        <ele>1528.24</ele>
        <time>2017-10-31T11:52:20.000Z</time>
      </trkpt>
      <trkpt lat="44.89285" lon="5.2383">
        <ele>1528.68</ele>
        <time>2017-10-31T11:52:30.000Z</time>
      </trkpt>
      <trkpt lat="44.89274" lon="5.23831">
        <ele>1529.2</ele>
        <time>2017-10-31T11:52:40.000Z</time>
      </trkpt>
      <trkpt lat="44.89265" lon="5.23834">
        <ele>1529.96</ele>
        <time>2017-10-31T11:52:50.000Z</time>
      </trkpt>
      <trkpt lat="44.89258" lon="5.23836">
        <ele>1530.44</ele>
        <time>2017-10-31T11:53:00.000Z</time>
      </trkpt>
      <trkpt lat="44.89248" lon="5.23833">
        <ele>1530</ele>
        <time>2017-10-31T11:53:10.000Z</time>
      </trkpt>
      <trkpt lat="44.89244" lon="5.23837">
        <ele>1530.82</ele>
        <time>2017-10-31T11:53:20.000Z</time>
      </trkpt>
      <trkpt lat="44.89242" lon="5.23837">
        <ele>1530.74</ele>
        <time>2017-10-31T11:53:30.000Z</time>
      </trkpt>
      <trkpt lat="44.8924" lon="5.23837">
        <ele>1530.83</ele>
        <time>2017-10-31T11:53:45.000Z</time>
      </trkpt>
      <trkpt lat="44.89232" lon="5.23841">
        <ele>1531.64</ele>
        <time>2017-10-31T11:53:56.000Z</time>
      </trkpt>
      <trkpt lat="44.89222" lon="5.23842">
        <ele>1531.57</ele>
        <time>2017-10-31T11:54:08.000Z</time>
      </trkpt>
      <trkpt lat="44.89219" lon="5.23832">
        <ele>1528.99</ele>
        <time>2017-10-31T11:54:20.000Z</time>
      </trkpt>
      <trkpt lat="44.89217" lon="5.23822">
        <ele>1525.89</ele>
        <time>2017-10-31T11:54:30.000Z</time>
      </trkpt>
      <trkpt lat="44.89213" lon="5.23815">
        <ele>1523.36</ele>
        <time>2017-10-31T11:54:40.000Z</time>
      </trkpt>
      <trkpt lat="44.89212" lon="5.23806">
        <ele>1520.14</ele>
        <time>2017-10-31T11:54:50.000Z</time>
      </trkpt>
      <trkpt lat="44.89209" lon="5.23797">
        <ele>1516.75</ele>
        <time>2017-10-31T11:55:00.000Z</time>
      </trkpt>
      <trkpt lat="44.89208" lon="5.23795">
        <ele>1516.03</ele>
        <time>2017-10-31T11:55:10.000Z</time>
      </trkpt>
      <trkpt lat="44.89206" lon="5.23796">
        <ele>1516.19</ele>
        <time>2017-10-31T11:57:31.000Z</time>
      </trkpt>
      <trkpt lat="44.89193" lon="5.23799">
        <ele>1516.91</ele>
        <time>2017-10-31T11:57:41.000Z</time>
      </trkpt>
      <trkpt lat="44.89189" lon="5.23799">
        <ele>1516.88</ele>
        <time>2017-10-31T11:57:51.000Z</time>
      </trkpt>
      <trkpt lat="44.89188" lon="5.23798">
        <ele>1516.26</ele>
        <time>2017-10-31T11:59:40.000Z</time>
      </trkpt>
      <trkpt lat="44.89176" lon="5.23791">
        <ele>1513.82</ele>
        <time>2017-10-31T11:59:50.000Z</time>
      </trkpt>
      <trkpt lat="44.89165" lon="5.23792">
        <ele>1514.47</ele>
        <time>2017-10-31T12:00:00.000Z</time>
      </trkpt>
      <trkpt lat="44.89154" lon="5.23787">
        <ele>1513.95</ele>
        <time>2017-10-31T12:00:10.000Z</time>
      </trkpt>
      <trkpt lat="44.89146" lon="5.2379">
        <ele>1516.14</ele>
        <time>2017-10-31T12:00:20.000Z</time>
      </trkpt>
      <trkpt lat="44.89145" lon="5.2379">
        <ele>1516.01</ele>
        <time>2017-10-31T12:00:30.000Z</time>
      </trkpt>
      <trkpt lat="44.89146" lon="5.23794">
        <ele>1517.23</ele>
        <time>2017-10-31T12:01:03.000Z</time>
      </trkpt>
      <trkpt lat="44.89139" lon="5.23815">
        <ele>1523.65</ele>
        <time>2017-10-31T12:01:13.000Z</time>
      </trkpt>
      <trkpt lat="44.89139" lon="5.23824">
        <ele>1526.17</ele>
        <time>2017-10-31T12:01:30.000Z</time>
      </trkpt>
      <trkpt lat="44.89139" lon="5.23836">
        <ele>1529.6</ele>
        <time>2017-10-31T12:01:40.000Z</time>
      </trkpt>
      <trkpt lat="44.89141" lon="5.23845">
        <ele>1532.59</ele>
        <time>2017-10-31T12:01:50.000Z</time>
      </trkpt>
      <trkpt lat="44.89139" lon="5.23855">
        <ele>1535.83</ele>
        <time>2017-10-31T12:02:00.000Z</time>
      </trkpt>
      <trkpt lat="44.89135" lon="5.23861">
        <ele>1537.81</ele>
        <time>2017-10-31T12:02:10.000Z</time>
      </trkpt>
      <trkpt lat="44.89131" lon="5.23878">
        <ele>1543.32</ele>
        <time>2017-10-31T12:02:20.000Z</time>
      </trkpt>
      <trkpt lat="44.89126" lon="5.23886">
        <ele>1545.86</ele>
        <time>2017-10-31T12:02:31.000Z</time>
      </trkpt>
      <trkpt lat="44.89121" lon="5.23894">
        <ele>1548.32</ele>
        <time>2017-10-31T12:02:41.000Z</time>
      </trkpt>
      <trkpt lat="44.89119" lon="5.23892">
        <ele>1548.09</ele>
        <time>2017-10-31T12:02:51.000Z</time>
      </trkpt>
      <trkpt lat="44.89112" lon="5.23889">
        <ele>1547.46</ele>
        <time>2017-10-31T12:03:01.000Z</time>
      </trkpt>
      <trkpt lat="44.8911" lon="5.2389">
        <ele>1547.82</ele>
        <time>2017-10-31T12:03:11.000Z</time>
      </trkpt>
      <trkpt lat="44.89112" lon="5.23888">
        <ele>1547.18</ele>
        <time>2017-10-31T12:03:21.000Z</time>
      </trkpt>
      <trkpt lat="44.89109" lon="5.23886">
        <ele>1546.94</ele>
        <time>2017-10-31T12:03:31.000Z</time>
      </trkpt>
      <trkpt lat="44.89108" lon="5.23885">
        <ele>1546.62</ele>
        <time>2017-10-31T12:03:41.000Z</time>
      </trkpt>
      <trkpt lat="44.89108" lon="5.23887">
        <ele>1547.29</ele>
        <time>2017-10-31T12:03:56.000Z</time>
      </trkpt>
      <trkpt lat="44.89106" lon="5.2389">
        <ele>1548.06</ele>
        <time>2017-10-31T12:04:06.000Z</time>
      </trkpt>
      <trkpt lat="44.89102" lon="5.23887">
        <ele>1547.66</ele>
        <time>2017-10-31T12:04:16.000Z</time>
      </trkpt>
      <trkpt lat="44.89097" lon="5.23886">
        <ele>1547.36</ele>
        <time>2017-10-31T12:04:30.000Z</time>
      </trkpt>
      <trkpt lat="44.89096" lon="5.23884">
        <ele>1547</ele>
        <time>2017-10-31T12:04:40.000Z</time>
      </trkpt>
      <trkpt lat="44.89095" lon="5.23885">
        <ele>1547.35</ele>
        <time>2017-10-31T12:05:22.000Z</time>
      </trkpt>
      <trkpt lat="44.89092" lon="5.23898">
        <ele>1551.02</ele>
        <time>2017-10-31T12:05:32.000Z</time>
      </trkpt>
      <trkpt lat="44.89091" lon="5.23893">
        <ele>1549.75</ele>
        <time>2017-10-31T12:05:42.000Z</time>
      </trkpt>
      <trkpt lat="44.89089" lon="5.23895">
        <ele>1550.29</ele>
        <time>2017-10-31T12:05:52.000Z</time>
      </trkpt>
      <trkpt lat="44.89084" lon="5.23902">
        <ele>1552.23</ele>
        <time>2017-10-31T12:06:02.000Z</time>
      </trkpt>
      <trkpt lat="44.89076" lon="5.23905">
        <ele>1553.02</ele>
        <time>2017-10-31T12:06:12.000Z</time>
      </trkpt>
      <trkpt lat="44.89075" lon="5.23907">
        <ele>1553.49</ele>
        <time>2017-10-31T12:06:22.000Z</time>
      </trkpt>
      <trkpt lat="44.89075" lon="5.23908">
        <ele>1553.7</ele>
        <time>2017-10-31T12:06:41.000Z</time>
      </trkpt>
      <trkpt lat="44.89074" lon="5.23909">
        <ele>1553.84</ele>
        <time>2017-10-31T12:06:59.000Z</time>
      </trkpt>
      <trkpt lat="44.8907" lon="5.23904">
        <ele>1552.75</ele>
        <time>2017-10-31T12:07:11.000Z</time>
      </trkpt>
      <trkpt lat="44.8907" lon="5.23902">
        <ele>1552.4</ele>
        <time>2017-10-31T12:07:21.000Z</time>
      </trkpt>
      <trkpt lat="44.89058" lon="5.23893">
        <ele>1549.88</ele>
        <time>2017-10-31T12:07:31.000Z</time>
      </trkpt>
      <trkpt lat="44.89052" lon="5.23886">
        <ele>1547.54</ele>
        <time>2017-10-31T12:07:41.000Z</time>
      </trkpt>
      <trkpt lat="44.89052" lon="5.23876">
        <ele>1544.46</ele>
        <time>2017-10-31T12:08:31.000Z</time>
      </trkpt>
      <trkpt lat="44.89054" lon="5.23874">
        <ele>1543.62</ele>
        <time>2017-10-31T12:09:21.000Z</time>
      </trkpt>
      <trkpt lat="44.89052" lon="5.2387">
        <ele>1542.41</ele>
        <time>2017-10-31T12:09:31.000Z</time>
      </trkpt>
      <trkpt lat="44.89051" lon="5.2387">
        <ele>1542.32</ele>
        <time>2017-10-31T12:09:51.000Z</time>
      </trkpt>
      <trkpt lat="44.8905" lon="5.23869">
        <ele>1541.79</ele>
        <time>2017-10-31T12:10:11.000Z</time>
      </trkpt>
      <trkpt lat="44.89052" lon="5.23868">
        <ele>1541.75</ele>
        <time>2017-10-31T12:10:21.000Z</time>
      </trkpt>
      <trkpt lat="44.89051" lon="5.2387">
        <ele>1542.38</ele>
        <time>2017-10-31T12:10:48.000Z</time>
      </trkpt>
      <trkpt lat="44.89049" lon="5.23871">
        <ele>1542.69</ele>
        <time>2017-10-31T12:10:58.000Z</time>
      </trkpt>
      <trkpt lat="44.89047" lon="5.2387">
        <ele>1542.09</ele>
        <time>2017-10-31T12:11:11.000Z</time>
      </trkpt>
      <trkpt lat="44.89045" lon="5.23871">
        <ele>1542.3</ele>
        <time>2017-10-31T12:11:51.000Z</time>
      </trkpt>
      <trkpt lat="44.89042" lon="5.23879">
        <ele>1545.14</ele>
        <time>2017-10-31T12:12:01.000Z</time>
      </trkpt>
      <trkpt lat="44.89037" lon="5.23887">
        <ele>1547.23</ele>
        <time>2017-10-31T12:12:11.000Z</time>
      </trkpt>
      <trkpt lat="44.89031" lon="5.23895">
        <ele>1549.47</ele>
        <time>2017-10-31T12:12:21.000Z</time>
      </trkpt>
      <trkpt lat="44.89025" lon="5.23902">
        <ele>1550.96</ele>
        <time>2017-10-31T12:12:31.000Z</time>
      </trkpt>
      <trkpt lat="44.8902" lon="5.23909">
        <ele>1552.33</ele>
        <time>2017-10-31T12:12:41.000Z</time>
      </trkpt>
      <trkpt lat="44.89012" lon="5.239">
        <ele>1549.94</ele>
        <time>2017-10-31T12:12:51.000Z</time>
      </trkpt>
      <trkpt lat="44.89009" lon="5.2389">
        <ele>1546.99</ele>
        <time>2017-10-31T12:13:01.000Z</time>
      </trkpt>
      <trkpt lat="44.8901" lon="5.23889">
        <ele>1546.69</ele>
        <time>2017-10-31T12:13:41.000Z</time>
      </trkpt>
      <trkpt lat="44.8901" lon="5.23892">
        <ele>1547.55</ele>
        <time>2017-10-31T12:13:51.000Z</time>
      </trkpt>
      <trkpt lat="44.89008" lon="5.23891">
        <ele>1547.18</ele>
        <time>2017-10-31T12:14:19.000Z</time>
      </trkpt>
      <trkpt lat="44.89007" lon="5.2389">
        <ele>1546.98</ele>
        <time>2017-10-31T12:14:31.000Z</time>
      </trkpt>
      <trkpt lat="44.89007" lon="5.23888">
        <ele>1546.45</ele>
        <time>2017-10-31T12:15:22.000Z</time>
      </trkpt>
      <trkpt lat="44.89009" lon="5.2389">
        <ele>1547.01</ele>
        <time>2017-10-31T12:15:58.000Z</time>
      </trkpt>
      <trkpt lat="44.89009" lon="5.23891">
        <ele>1547.42</ele>
        <time>2017-10-31T12:16:58.000Z</time>
      </trkpt>
      <trkpt lat="44.89011" lon="5.23892">
        <ele>1547.81</ele>
        <time>2017-10-31T12:17:08.000Z</time>
      </trkpt>
      <trkpt lat="44.8901" lon="5.23892">
        <ele>1547.71</ele>
        <time>2017-10-31T12:17:30.000Z</time>
      </trkpt>
      <trkpt lat="44.8901" lon="5.23891">
        <ele>1547.31</ele>
        <time>2017-10-31T12:17:40.000Z</time>
      </trkpt>
      <trkpt lat="44.89011" lon="5.23892">
        <ele>1547.61</ele>
        <time>2017-10-31T12:17:50.000Z</time>
      </trkpt>
      <trkpt lat="44.89012" lon="5.23893">
        <ele>1548.11</ele>
        <time>2017-10-31T12:19:34.000Z</time>
      </trkpt>
      <trkpt lat="44.89012" lon="5.23894">
        <ele>1548.39</ele>
        <time>2017-10-31T12:19:44.000Z</time>
      </trkpt>
      <trkpt lat="44.89011" lon="5.23895">
        <ele>1548.44</ele>
        <time>2017-10-31T12:21:19.000Z</time>
      </trkpt>
      <trkpt lat="44.89009" lon="5.23892">
        <ele>1547.64</ele>
        <time>2017-10-31T12:21:56.000Z</time>
      </trkpt>
      <trkpt lat="44.8901" lon="5.23891">
        <ele>1547.23</ele>
        <time>2017-10-31T12:22:13.000Z</time>
      </trkpt>
      <trkpt lat="44.89009" lon="5.2389">
        <ele>1546.96</ele>
        <time>2017-10-31T12:24:01.000Z</time>
      </trkpt>
      <trkpt lat="44.89003" lon="5.23891">
        <ele>1547.12</ele>
        <time>2017-10-31T12:25:13.000Z</time>
      </trkpt>
      <trkpt lat="44.88992" lon="5.23891">
        <ele>1546.71</ele>
        <time>2017-10-31T12:25:24.000Z</time>
      </trkpt>
      <trkpt lat="44.88981" lon="5.23894">
        <ele>1547.57</ele>
        <time>2017-10-31T12:25:34.000Z</time>
      </trkpt>
      <trkpt lat="44.88976" lon="5.23908">
        <ele>1550.58</ele>
        <time>2017-10-31T12:25:44.000Z</time>
      </trkpt>
      <trkpt lat="44.88946" lon="5.23906">
        <ele>1549.37</ele>
        <time>2017-10-31T12:26:13.000Z</time>
      </trkpt>
      <trkpt lat="44.8894" lon="5.23906">
        <ele>1549.08</ele>
        <time>2017-10-31T12:26:23.000Z</time>
      </trkpt>
      <trkpt lat="44.88932" lon="5.23894">
        <ele>1546.01</ele>
        <time>2017-10-31T12:26:34.000Z</time>
      </trkpt>
      <trkpt lat="44.88931" lon="5.23893">
        <ele>1545.59</ele>
        <time>2017-10-31T12:26:44.000Z</time>
      </trkpt>
      <trkpt lat="44.88932" lon="5.23894">
        <ele>1545.95</ele>
        <time>2017-10-31T12:26:58.000Z</time>
      </trkpt>
      <trkpt lat="44.88932" lon="5.23895">
        <ele>1546.23</ele>
        <time>2017-10-31T12:27:13.000Z</time>
      </trkpt>
      <trkpt lat="44.88925" lon="5.23895">
        <ele>1545.51</ele>
        <time>2017-10-31T12:27:24.000Z</time>
      </trkpt>
      <trkpt lat="44.88915" lon="5.23892">
        <ele>1543.76</ele>
        <time>2017-10-31T12:27:34.000Z</time>
      </trkpt>
      <trkpt lat="44.88902" lon="5.23893">
        <ele>1541.75</ele>
        <time>2017-10-31T12:27:44.000Z</time>
      </trkpt>
      <trkpt lat="44.88892" lon="5.23896">
        <ele>1540.38</ele>
        <time>2017-10-31T12:27:54.000Z</time>
      </trkpt>
      <trkpt lat="44.88887" lon="5.23895">
        <ele>1539.05</ele>
        <time>2017-10-31T12:28:04.000Z</time>
      </trkpt>
      <trkpt lat="44.88885" lon="5.23896">
        <ele>1538.7</ele>
        <time>2017-10-31T12:28:14.000Z</time>
      </trkpt>
      <trkpt lat="44.88882" lon="5.23897">
        <ele>1538.23</ele>
        <time>2017-10-31T12:28:24.000Z</time>
      </trkpt>
      <trkpt lat="44.88881" lon="5.23899">
        <ele>1538.3</ele>
        <time>2017-10-31T12:28:35.000Z</time>
      </trkpt>
      <trkpt lat="44.88875" lon="5.23907">
        <ele>1537.79</ele>
        <time>2017-10-31T12:28:45.000Z</time>
      </trkpt>
      <trkpt lat="44.88867" lon="5.23917">
        <ele>1536.53</ele>
        <time>2017-10-31T12:28:55.000Z</time>
      </trkpt>
      <trkpt lat="44.88859" lon="5.23921">
        <ele>1534.46</ele>
        <time>2017-10-31T12:29:05.000Z</time>
      </trkpt>
      <trkpt lat="44.88851" lon="5.23923">
        <ele>1532.42</ele>
        <time>2017-10-31T12:29:15.000Z</time>
      </trkpt>
      <trkpt lat="44.88848" lon="5.23921">
        <ele>1531.29</ele>
        <time>2017-10-31T12:29:25.000Z</time>
      </trkpt>
      <trkpt lat="44.88841" lon="5.23915">
        <ele>1528.97</ele>
        <time>2017-10-31T12:29:35.000Z</time>
      </trkpt>
      <trkpt lat="44.8884" lon="5.23914">
        <ele>1528.56</ele>
        <time>2017-10-31T12:29:45.000Z</time>
      </trkpt>
      <trkpt lat="44.88839" lon="5.23913">
        <ele>1528.13</ele>
        <time>2017-10-31T12:30:16.000Z</time>
      </trkpt>
      <trkpt lat="44.88819" lon="5.23918">
        <ele>1523.36</ele>
        <time>2017-10-31T12:30:34.000Z</time>
      </trkpt>
      <trkpt lat="44.88808" lon="5.23917">
        <ele>1520.52</ele>
        <time>2017-10-31T12:30:44.000Z</time>
      </trkpt>
      <trkpt lat="44.88795" lon="5.2392">
        <ele>1517.29</ele>
        <time>2017-10-31T12:30:54.000Z</time>
      </trkpt>
      <trkpt lat="44.88783" lon="5.23925">
        <ele>1514.38</ele>
        <time>2017-10-31T12:31:04.000Z</time>
      </trkpt>
      <trkpt lat="44.88773" lon="5.23933">
        <ele>1512.08</ele>
        <time>2017-10-31T12:31:14.000Z</time>
      </trkpt>
      <trkpt lat="44.88764" lon="5.2394">
        <ele>1509.37</ele>
        <time>2017-10-31T12:31:24.000Z</time>
      </trkpt>
      <trkpt lat="44.8876" lon="5.23944">
        <ele>1508.01</ele>
        <time>2017-10-31T12:31:34.000Z</time>
      </trkpt>
      <trkpt lat="44.8876" lon="5.23942">
        <ele>1507.89</ele>
        <time>2017-10-31T12:31:45.000Z</time>
      </trkpt>
      <trkpt lat="44.88759" lon="5.2394">
        <ele>1507.71</ele>
        <time>2017-10-31T12:33:01.000Z</time>
      </trkpt>
      <trkpt lat="44.88752" lon="5.23923">
        <ele>1504.47</ele>
        <time>2017-10-31T12:33:15.000Z</time>
      </trkpt>
      <trkpt lat="44.88751" lon="5.23922">
        <ele>1504.06</ele>
        <time>2017-10-31T12:33:31.000Z</time>
      </trkpt>
      <trkpt lat="44.88745" lon="5.23928">
        <ele>1502.28</ele>
        <time>2017-10-31T12:35:35.000Z</time>
      </trkpt>
      <trkpt lat="44.88746" lon="5.23926">
        <ele>1502.45</ele>
        <time>2017-10-31T12:35:45.000Z</time>
      </trkpt>
      <trkpt lat="44.88748" lon="5.23921">
        <ele>1502.56</ele>
        <time>2017-10-31T12:36:25.000Z</time>
      </trkpt>
      <trkpt lat="44.88746" lon="5.2392">
        <ele>1501.76</ele>
        <time>2017-10-31T12:36:35.000Z</time>
      </trkpt>
      <trkpt lat="44.88747" lon="5.2392">
        <ele>1502.12</ele>
        <time>2017-10-31T12:36:45.000Z</time>
      </trkpt>
      <trkpt lat="44.88745" lon="5.23919">
        <ele>1501.52</ele>
        <time>2017-10-31T12:36:55.000Z</time>
      </trkpt>
      <trkpt lat="44.88743" lon="5.23918">
        <ele>1500.56</ele>
        <time>2017-10-31T12:37:06.000Z</time>
      </trkpt>
      <trkpt lat="44.88742" lon="5.23918">
        <ele>1499.74</ele>
        <time>2017-10-31T12:37:17.000Z</time>
      </trkpt>
      <trkpt lat="44.88735" lon="5.23919">
        <ele>1496.92</ele>
        <time>2017-10-31T12:37:27.000Z</time>
      </trkpt>
      <trkpt lat="44.88716" lon="5.23922">
        <ele>1488.36</ele>
        <time>2017-10-31T12:38:04.000Z</time>
      </trkpt>
      <trkpt lat="44.8871" lon="5.23921">
        <ele>1485</ele>
        <time>2017-10-31T12:38:14.000Z</time>
      </trkpt>
      <trkpt lat="44.88705" lon="5.23925">
        <ele>1483.1</ele>
        <time>2017-10-31T12:38:25.000Z</time>
      </trkpt>
      <trkpt lat="44.88703" lon="5.23936">
        <ele>1482.86</ele>
        <time>2017-10-31T12:38:35.000Z</time>
      </trkpt>
      <trkpt lat="44.88695" lon="5.23936">
        <ele>1478.76</ele>
        <time>2017-10-31T12:38:45.000Z</time>
      </trkpt>
      <trkpt lat="44.8869" lon="5.23943">
        <ele>1476.16</ele>
        <time>2017-10-31T12:38:55.000Z</time>
      </trkpt>
      <trkpt lat="44.88684" lon="5.23944">
        <ele>1473.37</ele>
        <time>2017-10-31T12:39:05.000Z</time>
      </trkpt>
      <trkpt lat="44.88676" lon="5.23946">
        <ele>1469.67</ele>
        <time>2017-10-31T12:39:15.000Z</time>
      </trkpt>
      <trkpt lat="44.88669" lon="5.23951">
        <ele>1466.36</ele>
        <time>2017-10-31T12:39:25.000Z</time>
      </trkpt>
      <trkpt lat="44.88662" lon="5.2396">
        <ele>1462.86</ele>
        <time>2017-10-31T12:39:35.000Z</time>
      </trkpt>
      <trkpt lat="44.88658" lon="5.23968">
        <ele>1460.3</ele>
        <time>2017-10-31T12:39:45.000Z</time>
      </trkpt>
      <trkpt lat="44.88654" lon="5.23968">
        <ele>1459.01</ele>
        <time>2017-10-31T12:39:55.000Z</time>
      </trkpt>
      <trkpt lat="44.88647" lon="5.23968">
        <ele>1456.09</ele>
        <time>2017-10-31T12:40:05.000Z</time>
      </trkpt>
      <trkpt lat="44.8864" lon="5.2397">
        <ele>1453.74</ele>
        <time>2017-10-31T12:40:15.000Z</time>
      </trkpt>
      <trkpt lat="44.88637" lon="5.23971">
        <ele>1452.34</ele>
        <time>2017-10-31T12:40:25.000Z</time>
      </trkpt>
      <trkpt lat="44.88631" lon="5.23974">
        <ele>1450.17</ele>
        <time>2017-10-31T12:40:35.000Z</time>
      </trkpt>
      <trkpt lat="44.88626" lon="5.23976">
        <ele>1448.38</ele>
        <time>2017-10-31T12:40:45.000Z</time>
      </trkpt>
      <trkpt lat="44.88617" lon="5.23978">
        <ele>1445.25</ele>
        <time>2017-10-31T12:40:55.000Z</time>
      </trkpt>
      <trkpt lat="44.8861" lon="5.23979">
        <ele>1442.77</ele>
        <time>2017-10-31T12:41:05.000Z</time>
      </trkpt>
      <trkpt lat="44.88604" lon="5.23978">
        <ele>1440.72</ele>
        <time>2017-10-31T12:41:15.000Z</time>
      </trkpt>
      <trkpt lat="44.88598" lon="5.23978">
        <ele>1438.55</ele>
        <time>2017-10-31T12:41:25.000Z</time>
      </trkpt>
      <trkpt lat="44.88591" lon="5.23979">
        <ele>1436.18</ele>
        <time>2017-10-31T12:41:35.000Z</time>
      </trkpt>
      <trkpt lat="44.88585" lon="5.23976">
        <ele>1433.99</ele>
        <time>2017-10-31T12:41:45.000Z</time>
      </trkpt>
      <trkpt lat="44.88577" lon="5.23976">
        <ele>1431.11</ele>
        <time>2017-10-31T12:41:56.000Z</time>
      </trkpt>
      <trkpt lat="44.88571" lon="5.23979">
        <ele>1428.49</ele>
        <time>2017-10-31T12:42:06.000Z</time>
      </trkpt>
      <trkpt lat="44.88568" lon="5.23978">
        <ele>1427.5</ele>
        <time>2017-10-31T12:42:16.000Z</time>
      </trkpt>
      <trkpt lat="44.88569" lon="5.23981">
        <ele>1427.65</ele>
        <time>2017-10-31T12:42:26.000Z</time>
      </trkpt>
      <trkpt lat="44.88567" lon="5.2399">
        <ele>1426.75</ele>
        <time>2017-10-31T12:42:36.000Z</time>
      </trkpt>
      <trkpt lat="44.88566" lon="5.2399">
        <ele>1426.25</ele>
        <time>2017-10-31T12:42:46.000Z</time>
      </trkpt>
      <trkpt lat="44.88561" lon="5.23996">
        <ele>1423.83</ele>
        <time>2017-10-31T12:42:56.000Z</time>
      </trkpt>
      <trkpt lat="44.88553" lon="5.23995">
        <ele>1420.67</ele>
        <time>2017-10-31T12:43:06.000Z</time>
      </trkpt>
      <trkpt lat="44.88533" lon="5.23979">
        <ele>1413.35</ele>
        <time>2017-10-31T12:43:39.000Z</time>
      </trkpt>
      <trkpt lat="44.88524" lon="5.23996">
        <ele>1408.86</ele>
        <time>2017-10-31T12:43:54.000Z</time>
      </trkpt>
      <trkpt lat="44.88516" lon="5.23997">
        <ele>1405.29</ele>
        <time>2017-10-31T12:44:06.000Z</time>
      </trkpt>
      <trkpt lat="44.8849" lon="5.24">
        <ele>1395.27</ele>
        <time>2017-10-31T12:44:34.000Z</time>
      </trkpt>
      <trkpt lat="44.88494" lon="5.24009">
        <ele>1395.8</ele>
        <time>2017-10-31T12:44:44.000Z</time>
      </trkpt>
      <trkpt lat="44.88493" lon="5.2401">
        <ele>1395.43</ele>
        <time>2017-10-31T12:45:03.000Z</time>
      </trkpt>
      <trkpt lat="44.88492" lon="5.24008">
        <ele>1395.32</ele>
        <time>2017-10-31T12:45:16.000Z</time>
      </trkpt>
      <trkpt lat="44.88491" lon="5.24008">
        <ele>1394.91</ele>
        <time>2017-10-31T12:45:26.000Z</time>
      </trkpt>
      <trkpt lat="44.88492" lon="5.24016">
        <ele>1394.25</ele>
        <time>2017-10-31T12:45:36.000Z</time>
      </trkpt>
      <trkpt lat="44.88487" lon="5.24021">
        <ele>1391.87</ele>
        <time>2017-10-31T12:45:46.000Z</time>
      </trkpt>
      <trkpt lat="44.88479" lon="5.2402">
        <ele>1389.02</ele>
        <time>2017-10-31T12:45:56.000Z</time>
      </trkpt>
      <trkpt lat="44.88473" lon="5.24022">
        <ele>1386.48</ele>
        <time>2017-10-31T12:46:06.000Z</time>
      </trkpt>
      <trkpt lat="44.88466" lon="5.24022">
        <ele>1383.86</ele>
        <time>2017-10-31T12:46:16.000Z</time>
      </trkpt>
      <trkpt lat="44.88463" lon="5.24032">
        <ele>1381.59</ele>
        <time>2017-10-31T12:46:26.000Z</time>
      </trkpt>
      <trkpt lat="44.88457" lon="5.24033">
        <ele>1379.58</ele>
        <time>2017-10-31T12:46:36.000Z</time>
      </trkpt>
      <trkpt lat="44.88451" lon="5.24034">
        <ele>1377.32</ele>
        <time>2017-10-31T12:46:46.000Z</time>
      </trkpt>
      <trkpt lat="44.88443" lon="5.2404">
        <ele>1374.39</ele>
        <time>2017-10-31T12:46:56.000Z</time>
      </trkpt>
      <trkpt lat="44.88436" lon="5.24043">
        <ele>1371.91</ele>
        <time>2017-10-31T12:47:06.000Z</time>
      </trkpt>
      <trkpt lat="44.88428" lon="5.24046">
        <ele>1369.52</ele>
        <time>2017-10-31T12:47:16.000Z</time>
      </trkpt>
      <trkpt lat="44.88426" lon="5.24057">
        <ele>1367.63</ele>
        <time>2017-10-31T12:47:26.000Z</time>
      </trkpt>
      <trkpt lat="44.88423" lon="5.24067">
        <ele>1365.53</ele>
        <time>2017-10-31T12:47:36.000Z</time>
      </trkpt>
      <trkpt lat="44.88423" lon="5.24071">
        <ele>1364.78</ele>
        <time>2017-10-31T12:47:46.000Z</time>
      </trkpt>
      <trkpt lat="44.88422" lon="5.24072">
        <ele>1364.42</ele>
        <time>2017-10-31T12:47:57.000Z</time>
      </trkpt>
      <trkpt lat="44.88427" lon="5.24083">
        <ele>1363.33</ele>
        <time>2017-10-31T12:48:07.000Z</time>
      </trkpt>
      <trkpt lat="44.88432" lon="5.24088">
        <ele>1362.93</ele>
        <time>2017-10-31T12:48:17.000Z</time>
      </trkpt>
      <trkpt lat="44.88434" lon="5.24095">
        <ele>1361.36</ele>
        <time>2017-10-31T12:48:27.000Z</time>
      </trkpt>
      <trkpt lat="44.88428" lon="5.241">
        <ele>1358.61</ele>
        <time>2017-10-31T12:48:37.000Z</time>
      </trkpt>
      <trkpt lat="44.88428" lon="5.2411">
        <ele>1354.85</ele>
        <time>2017-10-31T12:48:47.000Z</time>
      </trkpt>
      <trkpt lat="44.88419" lon="5.24115">
        <ele>1351.28</ele>
        <time>2017-10-31T12:48:57.000Z</time>
      </trkpt>
      <trkpt lat="44.88407" lon="5.24117">
        <ele>1348.73</ele>
        <time>2017-10-31T12:49:07.000Z</time>
      </trkpt>
      <trkpt lat="44.88404" lon="5.24118">
        <ele>1348.07</ele>
        <time>2017-10-31T12:49:17.000Z</time>
      </trkpt>
      <trkpt lat="44.88402" lon="5.24121">
        <ele>1346.68</ele>
        <time>2017-10-31T12:49:27.000Z</time>
      </trkpt>
      <trkpt lat="44.88392" lon="5.24126">
        <ele>1344.1</ele>
        <time>2017-10-31T12:49:37.000Z</time>
      </trkpt>
      <trkpt lat="44.88394" lon="5.24125">
        <ele>1344.46</ele>
        <time>2017-10-31T12:49:47.000Z</time>
      </trkpt>
      <trkpt lat="44.88393" lon="5.24126">
        <ele>1344.03</ele>
        <time>2017-10-31T12:49:57.000Z</time>
      </trkpt>
      <trkpt lat="44.88394" lon="5.24143">
        <ele>1337.68</ele>
        <time>2017-10-31T12:50:07.000Z</time>
      </trkpt>
      <trkpt lat="44.88401" lon="5.24151">
        <ele>1335.29</ele>
        <time>2017-10-31T12:50:17.000Z</time>
      </trkpt>
      <trkpt lat="44.88406" lon="5.24158">
        <ele>1332.85</ele>
        <time>2017-10-31T12:50:27.000Z</time>
      </trkpt>
      <trkpt lat="44.88412" lon="5.24161">
        <ele>1332.53</ele>
        <time>2017-10-31T12:50:37.000Z</time>
      </trkpt>
      <trkpt lat="44.88414" lon="5.24164">
        <ele>1331.63</ele>
        <time>2017-10-31T12:50:47.000Z</time>
      </trkpt>
      <trkpt lat="44.88414" lon="5.24162">
        <ele>1332.31</ele>
        <time>2017-10-31T12:50:57.000Z</time>
      </trkpt>
      <trkpt lat="44.88401" lon="5.24163">
        <ele>1330.91</ele>
        <time>2017-10-31T12:51:07.000Z</time>
      </trkpt>
      <trkpt lat="44.88395" lon="5.24168">
        <ele>1328.93</ele>
        <time>2017-10-31T12:51:17.000Z</time>
      </trkpt>
      <trkpt lat="44.88394" lon="5.24169">
        <ele>1328.62</ele>
        <time>2017-10-31T12:51:27.000Z</time>
      </trkpt>
      <trkpt lat="44.88392" lon="5.2417">
        <ele>1328.45</ele>
        <time>2017-10-31T12:51:48.000Z</time>
      </trkpt>
      <trkpt lat="44.88378" lon="5.2417">
        <ele>1328.4</ele>
        <time>2017-10-31T12:51:58.000Z</time>
      </trkpt>
      <trkpt lat="44.88367" lon="5.24175">
        <ele>1327.3</ele>
        <time>2017-10-31T12:52:08.000Z</time>
      </trkpt>
      <trkpt lat="44.88357" lon="5.2418">
        <ele>1326.11</ele>
        <time>2017-10-31T12:52:18.000Z</time>
      </trkpt>
      <trkpt lat="44.88356" lon="5.24179">
        <ele>1326.37</ele>
        <time>2017-10-31T12:52:28.000Z</time>
      </trkpt>
      <trkpt lat="44.88356" lon="5.24181">
        <ele>1325.72</ele>
        <time>2017-10-31T12:52:53.000Z</time>
      </trkpt>
      <trkpt lat="44.88351" lon="5.24189">
        <ele>1323.37</ele>
        <time>2017-10-31T12:53:03.000Z</time>
      </trkpt>
      <trkpt lat="44.88357" lon="5.2419">
        <ele>1322.84</ele>
        <time>2017-10-31T12:53:13.000Z</time>
      </trkpt>
      <trkpt lat="44.88356" lon="5.2419">
        <ele>1322.95</ele>
        <time>2017-10-31T12:53:56.000Z</time>
      </trkpt>
      <trkpt lat="44.88351" lon="5.24199">
        <ele>1320.01</ele>
        <time>2017-10-31T12:54:07.000Z</time>
      </trkpt>
      <trkpt lat="44.88358" lon="5.24212">
        <ele>1315.5</ele>
        <time>2017-10-31T12:54:17.000Z</time>
      </trkpt>
      <trkpt lat="44.88362" lon="5.24217">
        <ele>1313.72</ele>
        <time>2017-10-31T12:54:27.000Z</time>
      </trkpt>
      <trkpt lat="44.88357" lon="5.2422">
        <ele>1312.85</ele>
        <time>2017-10-31T12:54:37.000Z</time>
      </trkpt>
      <trkpt lat="44.88351" lon="5.24229">
        <ele>1310.03</ele>
        <time>2017-10-31T12:54:47.000Z</time>
      </trkpt>
      <trkpt lat="44.88344" lon="5.24241">
        <ele>1305.9</ele>
        <time>2017-10-31T12:54:57.000Z</time>
      </trkpt>
      <trkpt lat="44.88347" lon="5.2425">
        <ele>1303.09</ele>
        <time>2017-10-31T12:55:07.000Z</time>
      </trkpt>
      <trkpt lat="44.88349" lon="5.24255">
        <ele>1301.62</ele>
        <time>2017-10-31T12:55:17.000Z</time>
      </trkpt>
      <trkpt lat="44.88351" lon="5.24268">
        <ele>1297.52</ele>
        <time>2017-10-31T12:55:27.000Z</time>
      </trkpt>
      <trkpt lat="44.88352" lon="5.24273">
        <ele>1295.67</ele>
        <time>2017-10-31T12:55:37.000Z</time>
      </trkpt>
      <trkpt lat="44.88356" lon="5.24286">
        <ele>1291.97</ele>
        <time>2017-10-31T12:55:47.000Z</time>
      </trkpt>
      <trkpt lat="44.88352" lon="5.243">
        <ele>1287.36</ele>
        <time>2017-10-31T12:55:57.000Z</time>
      </trkpt>
      <trkpt lat="44.88354" lon="5.24308">
        <ele>1285.16</ele>
        <time>2017-10-31T12:56:07.000Z</time>
      </trkpt>
      <trkpt lat="44.88355" lon="5.24306">
        <ele>1285.8</ele>
        <time>2017-10-31T12:56:17.000Z</time>
      </trkpt>
      <trkpt lat="44.88354" lon="5.24308">
        <ele>1285.03</ele>
        <time>2017-10-31T12:56:37.000Z</time>
      </trkpt>
      <trkpt lat="44.88345" lon="5.24316">
        <ele>1282.45</ele>
        <time>2017-10-31T12:56:47.000Z</time>
      </trkpt>
      <trkpt lat="44.88345" lon="5.24317">
        <ele>1282.08</ele>
        <time>2017-10-31T12:56:59.000Z</time>
      </trkpt>
      <trkpt lat="44.88344" lon="5.24319">
        <ele>1281.49</ele>
        <time>2017-10-31T12:57:09.000Z</time>
      </trkpt>
      <trkpt lat="44.88342" lon="5.24337">
        <ele>1276.16</ele>
        <time>2017-10-31T12:57:19.000Z</time>
      </trkpt>
      <trkpt lat="44.88348" lon="5.2435">
        <ele>1272.89</ele>
        <time>2017-10-31T12:57:29.000Z</time>
      </trkpt>
      <trkpt lat="44.88345" lon="5.24359">
        <ele>1270.12</ele>
        <time>2017-10-31T12:57:39.000Z</time>
      </trkpt>
      <trkpt lat="44.88339" lon="5.2436">
        <ele>1269.76</ele>
        <time>2017-10-31T12:57:49.000Z</time>
      </trkpt>
      <trkpt lat="44.88334" lon="5.24373">
        <ele>1266.38</ele>
        <time>2017-10-31T12:57:59.000Z</time>
      </trkpt>
      <trkpt lat="44.88327" lon="5.24388">
        <ele>1262.71</ele>
        <time>2017-10-31T12:58:09.000Z</time>
      </trkpt>
      <trkpt lat="44.88323" lon="5.244">
        <ele>1260.06</ele>
        <time>2017-10-31T12:58:19.000Z</time>
      </trkpt>
      <trkpt lat="44.88313" lon="5.24415">
        <ele>1257.26</ele>
        <time>2017-10-31T12:58:29.000Z</time>
      </trkpt>
      <trkpt lat="44.88311" lon="5.24432">
        <ele>1253.68</ele>
        <time>2017-10-31T12:58:39.000Z</time>
      </trkpt>
      <trkpt lat="44.88303" lon="5.2444">
        <ele>1252.73</ele>
        <time>2017-10-31T12:58:49.000Z</time>
      </trkpt>
      <trkpt lat="44.88308" lon="5.24454">
        <ele>1249.55</ele>
        <time>2017-10-31T12:58:59.000Z</time>
      </trkpt>
      <trkpt lat="44.88307" lon="5.24469">
        <ele>1246.8</ele>
        <time>2017-10-31T12:59:09.000Z</time>
      </trkpt>
      <trkpt lat="44.88302" lon="5.24483">
        <ele>1244.41</ele>
        <time>2017-10-31T12:59:19.000Z</time>
      </trkpt>
      <trkpt lat="44.88296" lon="5.24497">
        <ele>1242.59</ele>
        <time>2017-10-31T12:59:29.000Z</time>
      </trkpt>
      <trkpt lat="44.88298" lon="5.24547">
        <ele>1236.47</ele>
        <time>2017-10-31T13:00:06.000Z</time>
      </trkpt>
      <trkpt lat="44.8829" lon="5.2456">
        <ele>1235.53</ele>
        <time>2017-10-31T13:00:17.000Z</time>
      </trkpt>
      <trkpt lat="44.88282" lon="5.24566">
        <ele>1235.23</ele>
        <time>2017-10-31T13:00:27.000Z</time>
      </trkpt>
      <trkpt lat="44.88273" lon="5.24571">
        <ele>1235.24</ele>
        <time>2017-10-31T13:00:38.000Z</time>
      </trkpt>
      <trkpt lat="44.88265" lon="5.24575">
        <ele>1235.2</ele>
        <time>2017-10-31T13:00:48.000Z</time>
      </trkpt>
      <trkpt lat="44.88254" lon="5.24584">
        <ele>1234.59</ele>
        <time>2017-10-31T13:00:58.000Z</time>
      </trkpt>
      <trkpt lat="44.88246" lon="5.24592">
        <ele>1233.81</ele>
        <time>2017-10-31T13:01:08.000Z</time>
      </trkpt>
      <trkpt lat="44.88237" lon="5.24592">
        <ele>1234.61</ele>
        <time>2017-10-31T13:01:18.000Z</time>
      </trkpt>
      <trkpt lat="44.88226" lon="5.24592">
        <ele>1235.67</ele>
        <time>2017-10-31T13:01:28.000Z</time>
      </trkpt>
      <trkpt lat="44.88216" lon="5.24596">
        <ele>1235.84</ele>
        <time>2017-10-31T13:01:38.000Z</time>
      </trkpt>
      <trkpt lat="44.88204" lon="5.24592">
        <ele>1238.01</ele>
        <time>2017-10-31T13:01:48.000Z</time>
      </trkpt>
      <trkpt lat="44.88193" lon="5.24594">
        <ele>1238.71</ele>
        <time>2017-10-31T13:01:58.000Z</time>
      </trkpt>
      <trkpt lat="44.88198" lon="5.24611">
        <ele>1233.55</ele>
        <time>2017-10-31T13:02:08.000Z</time>
      </trkpt>
      <trkpt lat="44.88195" lon="5.24616">
        <ele>1232.37</ele>
        <time>2017-10-31T13:02:18.000Z</time>
      </trkpt>
      <trkpt lat="44.88187" lon="5.24624">
        <ele>1230.69</ele>
        <time>2017-10-31T13:02:28.000Z</time>
      </trkpt>
      <trkpt lat="44.88187" lon="5.24638">
        <ele>1226.46</ele>
        <time>2017-10-31T13:02:38.000Z</time>
      </trkpt>
      <trkpt lat="44.88177" lon="5.24643">
        <ele>1225.31</ele>
        <time>2017-10-31T13:02:48.000Z</time>
      </trkpt>
      <trkpt lat="44.88163" lon="5.24648">
        <ele>1223.58</ele>
        <time>2017-10-31T13:02:58.000Z</time>
      </trkpt>
      <trkpt lat="44.88151" lon="5.24655">
        <ele>1220.97</ele>
        <time>2017-10-31T13:03:08.000Z</time>
      </trkpt>
      <trkpt lat="44.88143" lon="5.24668">
        <ele>1216.92</ele>
        <time>2017-10-31T13:03:18.000Z</time>
      </trkpt>
      <trkpt lat="44.88141" lon="5.24685">
        <ele>1213.51</ele>
        <time>2017-10-31T13:03:28.000Z</time>
      </trkpt>
      <trkpt lat="44.88131" lon="5.24695">
        <ele>1211.11</ele>
        <time>2017-10-31T13:03:38.000Z</time>
      </trkpt>
      <trkpt lat="44.88132" lon="5.24706">
        <ele>1210.12</ele>
        <time>2017-10-31T13:03:48.000Z</time>
      </trkpt>
      <trkpt lat="44.88133" lon="5.24706">
        <ele>1210.29</ele>
        <time>2017-10-31T13:03:58.000Z</time>
      </trkpt>
      <trkpt lat="44.88134" lon="5.24716">
        <ele>1209.74</ele>
        <time>2017-10-31T13:04:26.000Z</time>
      </trkpt>
      <trkpt lat="44.88135" lon="5.24737">
        <ele>1208.57</ele>
        <time>2017-10-31T13:04:38.000Z</time>
      </trkpt>
      <trkpt lat="44.88138" lon="5.24749">
        <ele>1207.81</ele>
        <time>2017-10-31T13:04:48.000Z</time>
      </trkpt>
      <trkpt lat="44.88141" lon="5.24761">
        <ele>1206.85</ele>
        <time>2017-10-31T13:04:58.000Z</time>
      </trkpt>
      <trkpt lat="44.88143" lon="5.24774">
        <ele>1205.89</ele>
        <time>2017-10-31T13:05:08.000Z</time>
      </trkpt>
      <trkpt lat="44.88145" lon="5.24784">
        <ele>1205.15</ele>
        <time>2017-10-31T13:05:18.000Z</time>
      </trkpt>
      <trkpt lat="44.88151" lon="5.24785">
        <ele>1205.17</ele>
        <time>2017-10-31T13:05:28.000Z</time>
      </trkpt>
      <trkpt lat="44.88147" lon="5.24796">
        <ele>1204.26</ele>
        <time>2017-10-31T13:05:38.000Z</time>
      </trkpt>
      <trkpt lat="44.88137" lon="5.24806">
        <ele>1203.64</ele>
        <time>2017-10-31T13:05:48.000Z</time>
      </trkpt>
      <trkpt lat="44.88126" lon="5.24819">
        <ele>1203.18</ele>
        <time>2017-10-31T13:05:58.000Z</time>
      </trkpt>
      <trkpt lat="44.8812" lon="5.24832">
        <ele>1202.86</ele>
        <time>2017-10-31T13:06:08.000Z</time>
      </trkpt>
      <trkpt lat="44.88114" lon="5.24848">
        <ele>1202.55</ele>
        <time>2017-10-31T13:06:18.000Z</time>
      </trkpt>
      <trkpt lat="44.88111" lon="5.24865">
        <ele>1202.32</ele>
        <time>2017-10-31T13:06:28.000Z</time>
      </trkpt>
      <trkpt lat="44.88102" lon="5.24881">
        <ele>1203.02</ele>
        <time>2017-10-31T13:06:38.000Z</time>
      </trkpt>
      <trkpt lat="44.88097" lon="5.24898">
        <ele>1203.54</ele>
        <time>2017-10-31T13:06:48.000Z</time>
      </trkpt>
      <trkpt lat="44.88094" lon="5.24917">
        <ele>1203.59</ele>
        <time>2017-10-31T13:06:58.000Z</time>
      </trkpt>
      <trkpt lat="44.88089" lon="5.24934">
        <ele>1203.74</ele>
        <time>2017-10-31T13:07:08.000Z</time>
      </trkpt>
      <trkpt lat="44.88082" lon="5.24949">
        <ele>1203.78</ele>
        <time>2017-10-31T13:07:18.000Z</time>
      </trkpt>
      <trkpt lat="44.88074" lon="5.24963">
        <ele>1203.66</ele>
        <time>2017-10-31T13:07:28.000Z</time>
      </trkpt>
      <trkpt lat="44.8807" lon="5.24974">
        <ele>1203.31</ele>
        <time>2017-10-31T13:07:38.000Z</time>
      </trkpt>
      <trkpt lat="44.88072" lon="5.24976">
        <ele>1203.11</ele>
        <time>2017-10-31T13:07:48.000Z</time>
      </trkpt>
      <trkpt lat="44.88069" lon="5.24987">
        <ele>1202.88</ele>
        <time>2017-10-31T13:08:18.000Z</time>
      </trkpt>
      <trkpt lat="44.88063" lon="5.25005">
        <ele>1203.04</ele>
        <time>2017-10-31T13:08:28.000Z</time>
      </trkpt>
      <trkpt lat="44.88058" lon="5.25023">
        <ele>1203.71</ele>
        <time>2017-10-31T13:08:38.000Z</time>
      </trkpt>
      <trkpt lat="44.88054" lon="5.25037">
        <ele>1204.62</ele>
        <time>2017-10-31T13:08:48.000Z</time>
      </trkpt>
      <trkpt lat="44.88047" lon="5.25088">
        <ele>1209.39</ele>
        <time>2017-10-31T13:09:20.000Z</time>
      </trkpt>
      <trkpt lat="44.88043" lon="5.25089">
        <ele>1209.85</ele>
        <time>2017-10-31T13:09:30.000Z</time>
      </trkpt>
      <trkpt lat="44.88042" lon="5.25108">
        <ele>1212.35</ele>
        <time>2017-10-31T13:09:40.000Z</time>
      </trkpt>
      <trkpt lat="44.88044" lon="5.25123">
        <ele>1214.3</ele>
        <time>2017-10-31T13:09:50.000Z</time>
      </trkpt>
      <trkpt lat="44.88048" lon="5.25142">
        <ele>1216.24</ele>
        <time>2017-10-31T13:10:00.000Z</time>
      </trkpt>
      <trkpt lat="44.88052" lon="5.25158">
        <ele>1218</ele>
        <time>2017-10-31T13:10:10.000Z</time>
      </trkpt>
      <trkpt lat="44.88053" lon="5.25169">
        <ele>1219.11</ele>
        <time>2017-10-31T13:10:20.000Z</time>
      </trkpt>
      <trkpt lat="44.88053" lon="5.25177">
        <ele>1220.22</ele>
        <time>2017-10-31T13:10:30.000Z</time>
      </trkpt>
      <trkpt lat="44.88055" lon="5.25182">
        <ele>1220.6</ele>
        <time>2017-10-31T13:10:40.000Z</time>
      </trkpt>
      <trkpt lat="44.88058" lon="5.25186">
        <ele>1220.37</ele>
        <time>2017-10-31T13:11:00.000Z</time>
      </trkpt>
      <trkpt lat="44.88064" lon="5.25194">
        <ele>1220.11</ele>
        <time>2017-10-31T13:11:10.000Z</time>
      </trkpt>
      <trkpt lat="44.88063" lon="5.25206">
        <ele>1221.73</ele>
        <time>2017-10-31T13:11:20.000Z</time>
      </trkpt>
      <trkpt lat="44.88061" lon="5.25209">
        <ele>1222.65</ele>
        <time>2017-10-31T13:11:30.000Z</time>
      </trkpt>
      <trkpt lat="44.88054" lon="5.25218">
        <ele>1225.49</ele>
        <time>2017-10-31T13:11:40.000Z</time>
      </trkpt>
      <trkpt lat="44.88059" lon="5.25219">
        <ele>1224.59</ele>
        <time>2017-10-31T13:11:50.000Z</time>
      </trkpt>
      <trkpt lat="44.88065" lon="5.25225">
        <ele>1223.84</ele>
        <time>2017-10-31T13:12:50.000Z</time>
      </trkpt>
      <trkpt lat="44.88072" lon="5.25239">
        <ele>1224.52</ele>
        <time>2017-10-31T13:13:00.000Z</time>
      </trkpt>
      <trkpt lat="44.8807" lon="5.25249">
        <ele>1226.64</ele>
        <time>2017-10-31T13:13:10.000Z</time>
      </trkpt>
      <trkpt lat="44.88076" lon="5.25265">
        <ele>1228.17</ele>
        <time>2017-10-31T13:13:20.000Z</time>
      </trkpt>
      <trkpt lat="44.88081" lon="5.25278">
        <ele>1229.69</ele>
        <time>2017-10-31T13:13:30.000Z</time>
      </trkpt>
      <trkpt lat="44.88086" lon="5.2529">
        <ele>1231.1</ele>
        <time>2017-10-31T13:13:40.000Z</time>
      </trkpt>
      <trkpt lat="44.88091" lon="5.25303">
        <ele>1232.88</ele>
        <time>2017-10-31T13:13:50.000Z</time>
      </trkpt>
      <trkpt lat="44.88098" lon="5.25314">
        <ele>1234.08</ele>
        <time>2017-10-31T13:14:00.000Z</time>
      </trkpt>
      <trkpt lat="44.881" lon="5.25326">
        <ele>1236.23</ele>
        <time>2017-10-31T13:14:10.000Z</time>
      </trkpt>
      <trkpt lat="44.88104" lon="5.25336">
        <ele>1237.79</ele>
        <time>2017-10-31T13:14:20.000Z</time>
      </trkpt>
      <trkpt lat="44.88115" lon="5.25352">
        <ele>1239.46</ele>
        <time>2017-10-31T13:14:30.000Z</time>
      </trkpt>
      <trkpt lat="44.88122" lon="5.25369">
        <ele>1242.14</ele>
        <time>2017-10-31T13:14:40.000Z</time>
      </trkpt>
      <trkpt lat="44.88128" lon="5.2538">
        <ele>1243.58</ele>
        <time>2017-10-31T13:14:50.000Z</time>
      </trkpt>
      <trkpt lat="44.88135" lon="5.25388">
        <ele>1244.22</ele>
        <time>2017-10-31T13:15:00.000Z</time>
      </trkpt>
      <trkpt lat="44.88144" lon="5.254">
        <ele>1244.9</ele>
        <time>2017-10-31T13:15:10.000Z</time>
      </trkpt>
      <trkpt lat="44.88152" lon="5.25406">
        <ele>1244.67</ele>
        <time>2017-10-31T13:15:20.000Z</time>
      </trkpt>
      <trkpt lat="44.88155" lon="5.25423">
        <ele>1247.79</ele>
        <time>2017-10-31T13:15:30.000Z</time>
      </trkpt>
      <trkpt lat="44.88162" lon="5.2543">
        <ele>1247.87</ele>
        <time>2017-10-31T13:15:40.000Z</time>
      </trkpt>
      <trkpt lat="44.88174" lon="5.25435">
        <ele>1246.69</ele>
        <time>2017-10-31T13:15:50.000Z</time>
      </trkpt>
      <trkpt lat="44.88185" lon="5.25443">
        <ele>1246.2</ele>
        <time>2017-10-31T13:16:00.000Z</time>
      </trkpt>
      <trkpt lat="44.88191" lon="5.25452">
        <ele>1247.32</ele>
        <time>2017-10-31T13:16:10.000Z</time>
      </trkpt>
      <trkpt lat="44.88192" lon="5.25462">
        <ele>1249.82</ele>
        <time>2017-10-31T13:16:20.000Z</time>
      </trkpt>
      <trkpt lat="44.88202" lon="5.25469">
        <ele>1249.32</ele>
        <time>2017-10-31T13:16:30.000Z</time>
      </trkpt>
      <trkpt lat="44.88204" lon="5.25477">
        <ele>1251.15</ele>
        <time>2017-10-31T13:16:40.000Z</time>
      </trkpt>
      <trkpt lat="44.88207" lon="5.25489">
        <ele>1253.37</ele>
        <time>2017-10-31T13:16:50.000Z</time>
      </trkpt>
      <trkpt lat="44.88212" lon="5.25498">
        <ele>1254.41</ele>
        <time>2017-10-31T13:17:00.000Z</time>
      </trkpt>
      <trkpt lat="44.88211" lon="5.25512">
        <ele>1257.15</ele>
        <time>2017-10-31T13:17:10.000Z</time>
      </trkpt>
      <trkpt lat="44.88216" lon="5.25522">
        <ele>1258.41</ele>
        <time>2017-10-31T13:17:20.000Z</time>
      </trkpt>
      <trkpt lat="44.88215" lon="5.25534">
        <ele>1260.68</ele>
        <time>2017-10-31T13:17:30.000Z</time>
      </trkpt>
      <trkpt lat="44.8822" lon="5.25544">
        <ele>1261.88</ele>
        <time>2017-10-31T13:17:40.000Z</time>
      </trkpt>
      <trkpt lat="44.88218" lon="5.25548">
        <ele>1262.58</ele>
        <time>2017-10-31T13:17:50.000Z</time>
      </trkpt>
      <trkpt lat="44.88222" lon="5.25564">
        <ele>1264.6</ele>
        <time>2017-10-31T13:18:00.000Z</time>
      </trkpt>
      <trkpt lat="44.88221" lon="5.25574">
        <ele>1265.86</ele>
        <time>2017-10-31T13:18:10.000Z</time>
      </trkpt>
      <trkpt lat="44.88223" lon="5.25585">
        <ele>1266.72</ele>
        <time>2017-10-31T13:18:20.000Z</time>
      </trkpt>
      <trkpt lat="44.88221" lon="5.25599">
        <ele>1267.37</ele>
        <time>2017-10-31T13:18:30.000Z</time>
      </trkpt>
      <trkpt lat="44.88218" lon="5.25611">
        <ele>1267.37</ele>
        <time>2017-10-31T13:18:40.000Z</time>
      </trkpt>
      <trkpt lat="44.88219" lon="5.25615">
        <ele>1267.26</ele>
        <time>2017-10-31T13:18:50.000Z</time>
      </trkpt>
      <trkpt lat="44.8822" lon="5.25615">
        <ele>1267.21</ele>
        <time>2017-10-31T13:19:07.000Z</time>
      </trkpt>
      <trkpt lat="44.88216" lon="5.25637">
        <ele>1266.45</ele>
        <time>2017-10-31T13:19:17.000Z</time>
      </trkpt>
      <trkpt lat="44.88207" lon="5.25643">
        <ele>1266.35</ele>
        <time>2017-10-31T13:19:30.000Z</time>
      </trkpt>
      <trkpt lat="44.88199" lon="5.25645">
        <ele>1266.36</ele>
        <time>2017-10-31T13:19:40.000Z</time>
      </trkpt>
      <trkpt lat="44.88185" lon="5.25641">
        <ele>1266.86</ele>
        <time>2017-10-31T13:19:50.000Z</time>
      </trkpt>
      <trkpt lat="44.88177" lon="5.25648">
        <ele>1266.8</ele>
        <time>2017-10-31T13:20:00.000Z</time>
      </trkpt>
      <trkpt lat="44.88167" lon="5.25662">
        <ele>1266.97</ele>
        <time>2017-10-31T13:20:10.000Z</time>
      </trkpt>
      <trkpt lat="44.88162" lon="5.25677">
        <ele>1267.46</ele>
        <time>2017-10-31T13:20:20.000Z</time>
      </trkpt>
      <trkpt lat="44.88162" lon="5.25698">
        <ele>1268.21</ele>
        <time>2017-10-31T13:20:30.000Z</time>
      </trkpt>
      <trkpt lat="44.88164" lon="5.25711">
        <ele>1269.02</ele>
        <time>2017-10-31T13:20:40.000Z</time>
      </trkpt>
      <trkpt lat="44.88171" lon="5.25721">
        <ele>1269.61</ele>
        <time>2017-10-31T13:20:50.000Z</time>
      </trkpt>
      <trkpt lat="44.88172" lon="5.25728">
        <ele>1270.39</ele>
        <time>2017-10-31T13:21:01.000Z</time>
      </trkpt>
      <trkpt lat="44.88175" lon="5.25735">
        <ele>1271.28</ele>
        <time>2017-10-31T13:21:11.000Z</time>
      </trkpt>
      <trkpt lat="44.88184" lon="5.25741">
        <ele>1272.24</ele>
        <time>2017-10-31T13:21:21.000Z</time>
      </trkpt>
      <trkpt lat="44.8819" lon="5.25745">
        <ele>1272.91</ele>
        <time>2017-10-31T13:21:31.000Z</time>
      </trkpt>
      <trkpt lat="44.88195" lon="5.2575">
        <ele>1273.81</ele>
        <time>2017-10-31T13:21:41.000Z</time>
      </trkpt>
      <trkpt lat="44.88198" lon="5.25757">
        <ele>1275.33</ele>
        <time>2017-10-31T13:21:51.000Z</time>
      </trkpt>
      <trkpt lat="44.88202" lon="5.25765">
        <ele>1277.25</ele>
        <time>2017-10-31T13:22:01.000Z</time>
      </trkpt>
      <trkpt lat="44.88202" lon="5.25767">
        <ele>1277.93</ele>
        <time>2017-10-31T13:22:11.000Z</time>
      </trkpt>
      <trkpt lat="44.88204" lon="5.25765">
        <ele>1277.41</ele>
        <time>2017-10-31T13:22:21.000Z</time>
      </trkpt>
      <trkpt lat="44.88206" lon="5.25774">
        <ele>1279.8</ele>
        <time>2017-10-31T13:22:31.000Z</time>
      </trkpt>
      <trkpt lat="44.88205" lon="5.25778">
        <ele>1280.96</ele>
        <time>2017-10-31T13:22:41.000Z</time>
      </trkpt>
      <trkpt lat="44.88209" lon="5.25783">
        <ele>1282.44</ele>
        <time>2017-10-31T13:22:51.000Z</time>
      </trkpt>
      <trkpt lat="44.88216" lon="5.25797">
        <ele>1286.83</ele>
        <time>2017-10-31T13:23:01.000Z</time>
      </trkpt>
      <trkpt lat="44.88228" lon="5.25807">
        <ele>1289.22</ele>
        <time>2017-10-31T13:23:11.000Z</time>
      </trkpt>
      <trkpt lat="44.88246" lon="5.25805">
        <ele>1287.8</ele>
        <time>2017-10-31T13:23:21.000Z</time>
      </trkpt>
      <trkpt lat="44.88255" lon="5.25801">
        <ele>1285.98</ele>
        <time>2017-10-31T13:23:31.000Z</time>
      </trkpt>
      <trkpt lat="44.88255" lon="5.25811">
        <ele>1288.53</ele>
        <time>2017-10-31T13:23:41.000Z</time>
      </trkpt>
      <trkpt lat="44.88259" lon="5.25822">
        <ele>1290.8</ele>
        <time>2017-10-31T13:23:51.000Z</time>
      </trkpt>
      <trkpt lat="44.88266" lon="5.25831">
        <ele>1291.9</ele>
        <time>2017-10-31T13:24:01.000Z</time>
      </trkpt>
      <trkpt lat="44.88266" lon="5.25844">
        <ele>1293.97</ele>
        <time>2017-10-31T13:24:11.000Z</time>
      </trkpt>
      <trkpt lat="44.88269" lon="5.25855">
        <ele>1295.15</ele>
        <time>2017-10-31T13:24:21.000Z</time>
      </trkpt>
      <trkpt lat="44.88272" lon="5.25866">
        <ele>1295.98</ele>
        <time>2017-10-31T13:24:31.000Z</time>
      </trkpt>
      <trkpt lat="44.88271" lon="5.25882">
        <ele>1297.79</ele>
        <time>2017-10-31T13:24:41.000Z</time>
      </trkpt>
      <trkpt lat="44.8828" lon="5.25895">
        <ele>1297.76</ele>
        <time>2017-10-31T13:24:51.000Z</time>
      </trkpt>
      <trkpt lat="44.88287" lon="5.25907">
        <ele>1298.2</ele>
        <time>2017-10-31T13:25:01.000Z</time>
      </trkpt>
      <trkpt lat="44.88295" lon="5.25918">
        <ele>1298.58</ele>
        <time>2017-10-31T13:25:11.000Z</time>
      </trkpt>
      <trkpt lat="44.88303" lon="5.2593">
        <ele>1299.25</ele>
        <time>2017-10-31T13:25:21.000Z</time>
      </trkpt>
      <trkpt lat="44.88311" lon="5.2594">
        <ele>1300</ele>
        <time>2017-10-31T13:25:31.000Z</time>
      </trkpt>
      <trkpt lat="44.88319" lon="5.25954">
        <ele>1301.6</ele>
        <time>2017-10-31T13:25:41.000Z</time>
      </trkpt>
      <trkpt lat="44.88327" lon="5.25962">
        <ele>1301.89</ele>
        <time>2017-10-31T13:25:51.000Z</time>
      </trkpt>
      <trkpt lat="44.88338" lon="5.25968">
        <ele>1301.47</ele>
        <time>2017-10-31T13:26:01.000Z</time>
      </trkpt>
      <trkpt lat="44.88354" lon="5.25981">
        <ele>1301.64</ele>
        <time>2017-10-31T13:26:11.000Z</time>
      </trkpt>
      <trkpt lat="44.88366" lon="5.25987">
        <ele>1300.87</ele>
        <time>2017-10-31T13:26:21.000Z</time>
      </trkpt>
      <trkpt lat="44.88367" lon="5.25997">
        <ele>1302.9</ele>
        <time>2017-10-31T13:26:31.000Z</time>
      </trkpt>
      <trkpt lat="44.88373" lon="5.26009">
        <ele>1304.34</ele>
        <time>2017-10-31T13:26:41.000Z</time>
      </trkpt>
      <trkpt lat="44.88383" lon="5.26013">
        <ele>1303.51</ele>
        <time>2017-10-31T13:26:51.000Z</time>
      </trkpt>
      <trkpt lat="44.88388" lon="5.26027">
        <ele>1305.82</ele>
        <time>2017-10-31T13:27:01.000Z</time>
      </trkpt>
      <trkpt lat="44.88396" lon="5.26038">
        <ele>1307.22</ele>
        <time>2017-10-31T13:27:11.000Z</time>
      </trkpt>
      <trkpt lat="44.88403" lon="5.26047">
        <ele>1308.32</ele>
        <time>2017-10-31T13:27:21.000Z</time>
      </trkpt>
      <trkpt lat="44.88415" lon="5.26055">
        <ele>1308.35</ele>
        <time>2017-10-31T13:27:31.000Z</time>
      </trkpt>
      <trkpt lat="44.88423" lon="5.26064">
        <ele>1308.96</ele>
        <time>2017-10-31T13:27:41.000Z</time>
      </trkpt>
      <trkpt lat="44.88429" lon="5.26081">
        <ele>1311.07</ele>
        <time>2017-10-31T13:27:51.000Z</time>
      </trkpt>
      <trkpt lat="44.88436" lon="5.26091">
        <ele>1311.53</ele>
        <time>2017-10-31T13:28:01.000Z</time>
      </trkpt>
      <trkpt lat="44.88443" lon="5.26104">
        <ele>1311.8</ele>
        <time>2017-10-31T13:28:11.000Z</time>
      </trkpt>
      <trkpt lat="44.8845" lon="5.26115">
        <ele>1311.79</ele>
        <time>2017-10-31T13:28:21.000Z</time>
      </trkpt>
      <trkpt lat="44.8846" lon="5.26121">
        <ele>1310.13</ele>
        <time>2017-10-31T13:28:31.000Z</time>
      </trkpt>
      <trkpt lat="44.88462" lon="5.26132">
        <ele>1311.14</ele>
        <time>2017-10-31T13:28:41.000Z</time>
      </trkpt>
      <trkpt lat="44.88468" lon="5.26142">
        <ele>1310.92</ele>
        <time>2017-10-31T13:28:51.000Z</time>
      </trkpt>
      <trkpt lat="44.8847" lon="5.26155">
        <ele>1312.14</ele>
        <time>2017-10-31T13:29:01.000Z</time>
      </trkpt>
      <trkpt lat="44.88474" lon="5.26174">
        <ele>1313.93</ele>
        <time>2017-10-31T13:29:11.000Z</time>
      </trkpt>
      <trkpt lat="44.88479" lon="5.26183">
        <ele>1313.7</ele>
        <time>2017-10-31T13:29:21.000Z</time>
      </trkpt>
      <trkpt lat="44.88483" lon="5.26201">
        <ele>1315.18</ele>
        <time>2017-10-31T13:29:31.000Z</time>
      </trkpt>
      <trkpt lat="44.88491" lon="5.26216">
        <ele>1314.64</ele>
        <time>2017-10-31T13:29:41.000Z</time>
      </trkpt>
      <trkpt lat="44.88499" lon="5.26233">
        <ele>1314.31</ele>
        <time>2017-10-31T13:29:51.000Z</time>
      </trkpt>
      <trkpt lat="44.88502" lon="5.26248">
        <ele>1315.18</ele>
        <time>2017-10-31T13:30:01.000Z</time>
      </trkpt>
      <trkpt lat="44.88506" lon="5.26258">
        <ele>1315.49</ele>
        <time>2017-10-31T13:30:11.000Z</time>
      </trkpt>
      <trkpt lat="44.88507" lon="5.26272">
        <ele>1316.67</ele>
        <time>2017-10-31T13:30:21.000Z</time>
      </trkpt>
      <trkpt lat="44.88507" lon="5.26285">
        <ele>1318.04</ele>
        <time>2017-10-31T13:30:31.000Z</time>
      </trkpt>
      <trkpt lat="44.88508" lon="5.26298">
        <ele>1319.21</ele>
        <time>2017-10-31T13:30:41.000Z</time>
      </trkpt>
      <trkpt lat="44.88511" lon="5.2631">
        <ele>1319.84</ele>
        <time>2017-10-31T13:30:51.000Z</time>
      </trkpt>
      <trkpt lat="44.88518" lon="5.26323">
        <ele>1319.4</ele>
        <time>2017-10-31T13:31:01.000Z</time>
      </trkpt>
      <trkpt lat="44.88525" lon="5.26334">
        <ele>1318.92</ele>
        <time>2017-10-31T13:31:11.000Z</time>
      </trkpt>
      <trkpt lat="44.88526" lon="5.26349">
        <ele>1320.26</ele>
        <time>2017-10-31T13:31:21.000Z</time>
      </trkpt>
      <trkpt lat="44.88538" lon="5.26351">
        <ele>1317.82</ele>
        <time>2017-10-31T13:31:31.000Z</time>
      </trkpt>
      <trkpt lat="44.88537" lon="5.26364">
        <ele>1319.7</ele>
        <time>2017-10-31T13:31:41.000Z</time>
      </trkpt>
      <trkpt lat="44.88542" lon="5.2637">
        <ele>1319.45</ele>
        <time>2017-10-31T13:31:51.000Z</time>
      </trkpt>
      <trkpt lat="44.88545" lon="5.26381">
        <ele>1320.34</ele>
        <time>2017-10-31T13:32:01.000Z</time>
      </trkpt>
      <trkpt lat="44.88552" lon="5.26396">
        <ele>1321.16</ele>
        <time>2017-10-31T13:32:11.000Z</time>
      </trkpt>
      <trkpt lat="44.88559" lon="5.26406">
        <ele>1321.03</ele>
        <time>2017-10-31T13:32:21.000Z</time>
      </trkpt>
      <trkpt lat="44.88564" lon="5.26417">
        <ele>1321.34</ele>
        <time>2017-10-31T13:32:31.000Z</time>
      </trkpt>
      <trkpt lat="44.88568" lon="5.2643">
        <ele>1321.54</ele>
        <time>2017-10-31T13:32:41.000Z</time>
      </trkpt>
      <trkpt lat="44.88567" lon="5.26442">
        <ele>1322.29</ele>
        <time>2017-10-31T13:32:51.000Z</time>
      </trkpt>
      <trkpt lat="44.88565" lon="5.26451">
        <ele>1322.74</ele>
        <time>2017-10-31T13:33:01.000Z</time>
      </trkpt>
      <trkpt lat="44.88564" lon="5.26454">
        <ele>1322.88</ele>
        <time>2017-10-31T13:33:11.000Z</time>
      </trkpt>
      <trkpt lat="44.88566" lon="5.26456">
        <ele>1322.66</ele>
        <time>2017-10-31T13:33:21.000Z</time>
      </trkpt>
      <trkpt lat="44.88567" lon="5.26459">
        <ele>1322.63</ele>
        <time>2017-10-31T13:33:44.000Z</time>
      </trkpt>
      <trkpt lat="44.88564" lon="5.26476">
        <ele>1322.96</ele>
        <time>2017-10-31T13:33:54.000Z</time>
      </trkpt>
      <trkpt lat="44.8856" lon="5.26489">
        <ele>1323.16</ele>
        <time>2017-10-31T13:34:04.000Z</time>
      </trkpt>
      <trkpt lat="44.88553" lon="5.26502">
        <ele>1323.6</ele>
        <time>2017-10-31T13:34:14.000Z</time>
      </trkpt>
      <trkpt lat="44.88548" lon="5.26522">
        <ele>1323.84</ele>
        <time>2017-10-31T13:34:24.000Z</time>
      </trkpt>
      <trkpt lat="44.88541" lon="5.26528">
        <ele>1324.26</ele>
        <time>2017-10-31T13:34:35.000Z</time>
      </trkpt>
      <trkpt lat="44.88536" lon="5.26536">
        <ele>1324.57</ele>
        <time>2017-10-31T13:34:45.000Z</time>
      </trkpt>
      <trkpt lat="44.88532" lon="5.26549">
        <ele>1324.62</ele>
        <time>2017-10-31T13:34:55.000Z</time>
      </trkpt>
      <trkpt lat="44.88529" lon="5.26555">
        <ele>1324.64</ele>
        <time>2017-10-31T13:35:05.000Z</time>
      </trkpt>
      <trkpt lat="44.88525" lon="5.26564">
        <ele>1324.65</ele>
        <time>2017-10-31T13:35:15.000Z</time>
      </trkpt>
      <trkpt lat="44.88522" lon="5.26572">
        <ele>1324.38</ele>
        <time>2017-10-31T13:35:25.000Z</time>
      </trkpt>
      <trkpt lat="44.88515" lon="5.26585">
        <ele>1323.72</ele>
        <time>2017-10-31T13:35:35.000Z</time>
      </trkpt>
      <trkpt lat="44.88511" lon="5.26596">
        <ele>1322.62</ele>
        <time>2017-10-31T13:35:45.000Z</time>
      </trkpt>
      <trkpt lat="44.8851" lon="5.26599">
        <ele>1322.32</ele>
        <time>2017-10-31T13:35:55.000Z</time>
      </trkpt>
      <trkpt lat="44.88506" lon="5.26604">
        <ele>1321.84</ele>
        <time>2017-10-31T13:36:05.000Z</time>
      </trkpt>
      <trkpt lat="44.8849" lon="5.26619">
        <ele>1320.71</ele>
        <time>2017-10-31T13:36:22.000Z</time>
      </trkpt>
      <trkpt lat="44.88486" lon="5.2662">
        <ele>1320.96</ele>
        <time>2017-10-31T13:36:32.000Z</time>
      </trkpt>
      <trkpt lat="44.88484" lon="5.26621">
        <ele>1321.02</ele>
        <time>2017-10-31T13:36:43.000Z</time>
      </trkpt>
      <trkpt lat="44.88477" lon="5.26629">
        <ele>1320.52</ele>
        <time>2017-10-31T13:36:53.000Z</time>
      </trkpt>
      <trkpt lat="44.88464" lon="5.2664">
        <ele>1320.77</ele>
        <time>2017-10-31T13:37:04.000Z</time>
      </trkpt>
      <trkpt lat="44.88452" lon="5.26648">
        <ele>1321.74</ele>
        <time>2017-10-31T13:37:14.000Z</time>
      </trkpt>
      <trkpt lat="44.88443" lon="5.26661">
        <ele>1321.53</ele>
        <time>2017-10-31T13:37:24.000Z</time>
      </trkpt>
      <trkpt lat="44.88436" lon="5.26675">
        <ele>1320.72</ele>
        <time>2017-10-31T13:37:34.000Z</time>
      </trkpt>
      <trkpt lat="44.88427" lon="5.26687">
        <ele>1319.94</ele>
        <time>2017-10-31T13:37:44.000Z</time>
      </trkpt>
      <trkpt lat="44.88411" lon="5.26695">
        <ele>1320.51</ele>
        <time>2017-10-31T13:37:58.000Z</time>
      </trkpt>
      <trkpt lat="44.88399" lon="5.26705">
        <ele>1319.86</ele>
        <time>2017-10-31T13:38:08.000Z</time>
      </trkpt>
      <trkpt lat="44.88388" lon="5.26715">
        <ele>1319.15</ele>
        <time>2017-10-31T13:38:20.000Z</time>
      </trkpt>
      <trkpt lat="44.88348" lon="5.26748">
        <ele>1319.47</ele>
        <time>2017-10-31T13:38:58.000Z</time>
      </trkpt>
      <trkpt lat="44.88334" lon="5.26755">
        <ele>1320.11</ele>
        <time>2017-10-31T13:39:13.000Z</time>
      </trkpt>
      <trkpt lat="44.88323" lon="5.26756">
        <ele>1321.09</ele>
        <time>2017-10-31T13:39:23.000Z</time>
      </trkpt>
      <trkpt lat="44.88311" lon="5.26755">
        <ele>1322.29</ele>
        <time>2017-10-31T13:39:33.000Z</time>
      </trkpt>
      <trkpt lat="44.88298" lon="5.26756">
        <ele>1323.01</ele>
        <time>2017-10-31T13:39:43.000Z</time>
      </trkpt>
      <trkpt lat="44.88287" lon="5.26763">
        <ele>1322.35</ele>
        <time>2017-10-31T13:39:53.000Z</time>
      </trkpt>
      <trkpt lat="44.88274" lon="5.26765">
        <ele>1322.61</ele>
        <time>2017-10-31T13:40:03.000Z</time>
      </trkpt>
      <trkpt lat="44.88262" lon="5.26762">
        <ele>1323.25</ele>
        <time>2017-10-31T13:40:13.000Z</time>
      </trkpt>
      <trkpt lat="44.88252" lon="5.26766">
        <ele>1322.63</ele>
        <time>2017-10-31T13:40:23.000Z</time>
      </trkpt>
      <trkpt lat="44.88239" lon="5.26774">
        <ele>1320.73</ele>
        <time>2017-10-31T13:40:33.000Z</time>
      </trkpt>
      <trkpt lat="44.88225" lon="5.26775">
        <ele>1319.24</ele>
        <time>2017-10-31T13:40:43.000Z</time>
      </trkpt>
      <trkpt lat="44.88212" lon="5.26778">
        <ele>1317.19</ele>
        <time>2017-10-31T13:40:53.000Z</time>
      </trkpt>
      <trkpt lat="44.88202" lon="5.2678">
        <ele>1315.79</ele>
        <time>2017-10-31T13:41:03.000Z</time>
      </trkpt>
      <trkpt lat="44.8819" lon="5.26784">
        <ele>1314.02</ele>
        <time>2017-10-31T13:41:13.000Z</time>
      </trkpt>
      <trkpt lat="44.88176" lon="5.26789">
        <ele>1312.73</ele>
        <time>2017-10-31T13:41:24.000Z</time>
      </trkpt>
      <trkpt lat="44.88165" lon="5.26786">
        <ele>1312.85</ele>
        <time>2017-10-31T13:41:34.000Z</time>
      </trkpt>
      <trkpt lat="44.88159" lon="5.26789">
        <ele>1312.76</ele>
        <time>2017-10-31T13:41:44.000Z</time>
      </trkpt>
      <trkpt lat="44.88148" lon="5.2679">
        <ele>1313.32</ele>
        <time>2017-10-31T13:41:54.000Z</time>
      </trkpt>
      <trkpt lat="44.88134" lon="5.26796">
        <ele>1313.79</ele>
        <time>2017-10-31T13:42:04.000Z</time>
      </trkpt>
      <trkpt lat="44.88122" lon="5.26797">
        <ele>1314.89</ele>
        <time>2017-10-31T13:42:14.000Z</time>
      </trkpt>
      <trkpt lat="44.8811" lon="5.26797">
        <ele>1316.13</ele>
        <time>2017-10-31T13:42:24.000Z</time>
      </trkpt>
      <trkpt lat="44.88097" lon="5.26798">
        <ele>1317.37</ele>
        <time>2017-10-31T13:42:34.000Z</time>
      </trkpt>
      <trkpt lat="44.88088" lon="5.26806">
        <ele>1316.77</ele>
        <time>2017-10-31T13:42:44.000Z</time>
      </trkpt>
      <trkpt lat="44.88076" lon="5.26806">
        <ele>1318.12</ele>
        <time>2017-10-31T13:42:54.000Z</time>
      </trkpt>
      <trkpt lat="44.88067" lon="5.26804">
        <ele>1319.65</ele>
        <time>2017-10-31T13:43:04.000Z</time>
      </trkpt>
      <trkpt lat="44.88053" lon="5.2681">
        <ele>1320.42</ele>
        <time>2017-10-31T13:43:14.000Z</time>
      </trkpt>
      <trkpt lat="44.88042" lon="5.26821">
        <ele>1319.82</ele>
        <time>2017-10-31T13:43:24.000Z</time>
      </trkpt>
      <trkpt lat="44.88034" lon="5.26828">
        <ele>1319.51</ele>
        <time>2017-10-31T13:43:34.000Z</time>
      </trkpt>
      <trkpt lat="44.88023" lon="5.26831">
        <ele>1320.39</ele>
        <time>2017-10-31T13:43:44.000Z</time>
      </trkpt>
      <trkpt lat="44.88009" lon="5.26841">
        <ele>1320.13</ele>
        <time>2017-10-31T13:43:54.000Z</time>
      </trkpt>
      <trkpt lat="44.88004" lon="5.26849">
        <ele>1319.08</ele>
        <time>2017-10-31T13:44:04.000Z</time>
      </trkpt>
      <trkpt lat="44.87993" lon="5.26857">
        <ele>1318.14</ele>
        <time>2017-10-31T13:44:14.000Z</time>
      </trkpt>
      <trkpt lat="44.8798" lon="5.26864">
        <ele>1316.9</ele>
        <time>2017-10-31T13:44:24.000Z</time>
      </trkpt>
      <trkpt lat="44.87971" lon="5.26875">
        <ele>1314.92</ele>
        <time>2017-10-31T13:44:34.000Z</time>
      </trkpt>
      <trkpt lat="44.87962" lon="5.26878">
        <ele>1313.87</ele>
        <time>2017-10-31T13:44:44.000Z</time>
      </trkpt>
      <trkpt lat="44.87955" lon="5.26893">
        <ele>1311.44</ele>
        <time>2017-10-31T13:44:54.000Z</time>
      </trkpt>
      <trkpt lat="44.87948" lon="5.26901">
        <ele>1310.07</ele>
        <time>2017-10-31T13:45:04.000Z</time>
      </trkpt>
      <trkpt lat="44.87939" lon="5.26918">
        <ele>1307.81</ele>
        <time>2017-10-31T13:45:14.000Z</time>
      </trkpt>
      <trkpt lat="44.87932" lon="5.2693">
        <ele>1306.7</ele>
        <time>2017-10-31T13:45:24.000Z</time>
      </trkpt>
      <trkpt lat="44.87923" lon="5.26944">
        <ele>1306.1</ele>
        <time>2017-10-31T13:45:34.000Z</time>
      </trkpt>
      <trkpt lat="44.87915" lon="5.26956">
        <ele>1306.4</ele>
        <time>2017-10-31T13:45:44.000Z</time>
      </trkpt>
      <trkpt lat="44.87907" lon="5.2697">
        <ele>1307.31</ele>
        <time>2017-10-31T13:45:54.000Z</time>
      </trkpt>
      <trkpt lat="44.87902" lon="5.26983">
        <ele>1308.18</ele>
        <time>2017-10-31T13:46:04.000Z</time>
      </trkpt>
      <trkpt lat="44.87899" lon="5.26989">
        <ele>1308.78</ele>
        <time>2017-10-31T13:46:14.000Z</time>
      </trkpt>
      <trkpt lat="44.87891" lon="5.27005">
        <ele>1310.54</ele>
        <time>2017-10-31T13:46:24.000Z</time>
      </trkpt>
      <trkpt lat="44.87888" lon="5.27016">
        <ele>1311.29</ele>
        <time>2017-10-31T13:46:34.000Z</time>
      </trkpt>
      <trkpt lat="44.87884" lon="5.27031">
        <ele>1312.36</ele>
        <time>2017-10-31T13:46:44.000Z</time>
      </trkpt>
      <trkpt lat="44.87884" lon="5.27046">
        <ele>1312.73</ele>
        <time>2017-10-31T13:46:54.000Z</time>
      </trkpt>
      <trkpt lat="44.87877" lon="5.2706">
        <ele>1313.76</ele>
        <time>2017-10-31T13:47:04.000Z</time>
      </trkpt>
      <trkpt lat="44.87877" lon="5.27076">
        <ele>1313.29</ele>
        <time>2017-10-31T13:47:14.000Z</time>
      </trkpt>
      <trkpt lat="44.87876" lon="5.27087">
        <ele>1312.67</ele>
        <time>2017-10-31T13:47:24.000Z</time>
      </trkpt>
      <trkpt lat="44.87877" lon="5.27098">
        <ele>1311.38</ele>
        <time>2017-10-31T13:47:34.000Z</time>
      </trkpt>
      <trkpt lat="44.87871" lon="5.27111">
        <ele>1309.95</ele>
        <time>2017-10-31T13:47:44.000Z</time>
      </trkpt>
      <trkpt lat="44.87865" lon="5.27118">
        <ele>1309.58</ele>
        <time>2017-10-31T13:47:54.000Z</time>
      </trkpt>
      <trkpt lat="44.87853" lon="5.27114">
        <ele>1311.51</ele>
        <time>2017-10-31T13:48:04.000Z</time>
      </trkpt>
      <trkpt lat="44.87845" lon="5.27113">
        <ele>1312.35</ele>
        <time>2017-10-31T13:48:14.000Z</time>
      </trkpt>
      <trkpt lat="44.87835" lon="5.27118">
        <ele>1312.04</ele>
        <time>2017-10-31T13:48:24.000Z</time>
      </trkpt>
      <trkpt lat="44.87827" lon="5.27127">
        <ele>1310.67</ele>
        <time>2017-10-31T13:48:34.000Z</time>
      </trkpt>
      <trkpt lat="44.87823" lon="5.27139">
        <ele>1308.73</ele>
        <time>2017-10-31T13:48:44.000Z</time>
      </trkpt>
      <trkpt lat="44.87822" lon="5.27152">
        <ele>1307.07</ele>
        <time>2017-10-31T13:48:54.000Z</time>
      </trkpt>
      <trkpt lat="44.87821" lon="5.27163">
        <ele>1305.97</ele>
        <time>2017-10-31T13:49:04.000Z</time>
      </trkpt>
      <trkpt lat="44.87822" lon="5.27172">
        <ele>1305.27</ele>
        <time>2017-10-31T13:49:14.000Z</time>
      </trkpt>
      <trkpt lat="44.87821" lon="5.27182">
        <ele>1304.74</ele>
        <time>2017-10-31T13:49:24.000Z</time>
      </trkpt>
      <trkpt lat="44.8783" lon="5.27195">
        <ele>1303.53</ele>
        <time>2017-10-31T13:49:34.000Z</time>
      </trkpt>
      <trkpt lat="44.87831" lon="5.27202">
        <ele>1303.25</ele>
        <time>2017-10-31T13:49:44.000Z</time>
      </trkpt>
      <trkpt lat="44.87831" lon="5.27204">
        <ele>1303.18</ele>
        <time>2017-10-31T13:49:54.000Z</time>
      </trkpt>
      <trkpt lat="44.87836" lon="5.27212">
        <ele>1302.72</ele>
        <time>2017-10-31T13:50:10.000Z</time>
      </trkpt>
      <trkpt lat="44.87847" lon="5.27228">
        <ele>1302.48</ele>
        <time>2017-10-31T13:50:24.000Z</time>
      </trkpt>
      <trkpt lat="44.87854" lon="5.27238">
        <ele>1302.91</ele>
        <time>2017-10-31T13:50:34.000Z</time>
      </trkpt>
      <trkpt lat="44.87857" lon="5.27247">
        <ele>1303.7</ele>
        <time>2017-10-31T13:50:44.000Z</time>
      </trkpt>
      <trkpt lat="44.87862" lon="5.27259">
        <ele>1305.4</ele>
        <time>2017-10-31T13:50:54.000Z</time>
      </trkpt>
      <trkpt lat="44.87866" lon="5.27269">
        <ele>1307.12</ele>
        <time>2017-10-31T13:51:04.000Z</time>
      </trkpt>
      <trkpt lat="44.87871" lon="5.27278">
        <ele>1308.99</ele>
        <time>2017-10-31T13:51:14.000Z</time>
      </trkpt>
      <trkpt lat="44.87879" lon="5.27282">
        <ele>1309.52</ele>
        <time>2017-10-31T13:51:24.000Z</time>
      </trkpt>
      <trkpt lat="44.87886" lon="5.27289">
        <ele>1310.53</ele>
        <time>2017-10-31T13:51:34.000Z</time>
      </trkpt>
      <trkpt lat="44.87886" lon="5.27299">
        <ele>1312.28</ele>
        <time>2017-10-31T13:51:44.000Z</time>
      </trkpt>
      <trkpt lat="44.87885" lon="5.27301">
        <ele>1312.86</ele>
        <time>2017-10-31T13:51:54.000Z</time>
      </trkpt>
      <trkpt lat="44.87886" lon="5.27307">
        <ele>1313.76</ele>
        <time>2017-10-31T13:52:04.000Z</time>
      </trkpt>
      <trkpt lat="44.87883" lon="5.27311">
        <ele>1315.03</ele>
        <time>2017-10-31T13:52:14.000Z</time>
      </trkpt>
      <trkpt lat="44.87881" lon="5.27315">
        <ele>1315.87</ele>
        <time>2017-10-31T13:52:24.000Z</time>
      </trkpt>
      <trkpt lat="44.87882" lon="5.27318">
        <ele>1316.31</ele>
        <time>2017-10-31T13:52:34.000Z</time>
      </trkpt>
      <trkpt lat="44.87881" lon="5.27318">
        <ele>1316.49</ele>
        <time>2017-10-31T13:52:45.000Z</time>
      </trkpt>
      <trkpt lat="44.87881" lon="5.2732">
        <ele>1316.98</ele>
        <time>2017-10-31T13:53:31.000Z</time>
      </trkpt>
      <trkpt lat="44.87877" lon="5.2733">
        <ele>1319.33</ele>
        <time>2017-10-31T13:53:42.000Z</time>
      </trkpt>
      <trkpt lat="44.87875" lon="5.27332">
        <ele>1319.88</ele>
        <time>2017-10-31T13:53:54.000Z</time>
      </trkpt>
      <trkpt lat="44.87873" lon="5.27334">
        <ele>1320.39</ele>
        <time>2017-10-31T13:54:04.000Z</time>
      </trkpt>
      <trkpt lat="44.87872" lon="5.27334">
        <ele>1320.74</ele>
        <time>2017-10-31T13:54:14.000Z</time>
      </trkpt>
      <trkpt lat="44.87873" lon="5.27336">
        <ele>1320.83</ele>
        <time>2017-10-31T13:54:24.000Z</time>
      </trkpt>
      <trkpt lat="44.87873" lon="5.27335">
        <ele>1320.63</ele>
        <time>2017-10-31T13:54:34.000Z</time>
      </trkpt>
      <trkpt lat="44.87877" lon="5.27336">
        <ele>1319.99</ele>
        <time>2017-10-31T13:54:51.000Z</time>
      </trkpt>
      <trkpt lat="44.87889" lon="5.27335">
        <ele>1317.73</ele>
        <time>2017-10-31T13:55:01.000Z</time>
      </trkpt>
      <trkpt lat="44.87891" lon="5.27335">
        <ele>1317.49</ele>
        <time>2017-10-31T13:55:11.000Z</time>
      </trkpt>
      <trkpt lat="44.87893" lon="5.27335">
        <ele>1317.2</ele>
        <time>2017-10-31T13:55:24.000Z</time>
      </trkpt>
      <trkpt lat="44.87895" lon="5.27335">
        <ele>1316.87</ele>
        <time>2017-10-31T13:55:35.000Z</time>
      </trkpt>
      <trkpt lat="44.87899" lon="5.27331">
        <ele>1315.69</ele>
        <time>2017-10-31T13:55:45.000Z</time>
      </trkpt>
      <trkpt lat="44.87902" lon="5.27329">
        <ele>1315.22</ele>
        <time>2017-10-31T13:55:55.000Z</time>
      </trkpt>
      <trkpt lat="44.87904" lon="5.27328">
        <ele>1314.82</ele>
        <time>2017-10-31T13:56:05.000Z</time>
      </trkpt>
      <trkpt lat="44.87906" lon="5.27329">
        <ele>1314.53</ele>
        <time>2017-10-31T13:56:15.000Z</time>
      </trkpt>
      <trkpt lat="44.87908" lon="5.27329">
        <ele>1314.34</ele>
        <time>2017-10-31T13:56:26.000Z</time>
      </trkpt>
      <trkpt lat="44.87908" lon="5.2733">
        <ele>1314.53</ele>
        <time>2017-10-31T13:59:34.000Z</time>
      </trkpt>
      <trkpt lat="44.87909" lon="5.27333">
        <ele>1314.76</ele>
        <time>2017-10-31T13:59:45.000Z</time>
      </trkpt>
      <trkpt lat="44.87909" lon="5.27335">
        <ele>1314.92</ele>
        <time>2017-10-31T14:00:36.000Z</time>
      </trkpt>
      <trkpt lat="44.87907" lon="5.27336">
        <ele>1315.32</ele>
        <time>2017-10-31T14:00:50.000Z</time>
      </trkpt>
      <trkpt lat="44.87906" lon="5.27336">
        <ele>1315.39</ele>
        <time>2017-10-31T14:01:00.000Z</time>
      </trkpt>
      <trkpt lat="44.87917" lon="5.27356">
        <ele>1315.97</ele>
        <time>2017-10-31T14:01:13.000Z</time>
      </trkpt>
      <trkpt lat="44.87906" lon="5.27336">
        <ele>1315.38</ele>
        <time>2017-10-31T14:05:59.000Z</time>
      </trkpt>
      <trkpt lat="44.87909" lon="5.27329">
        <ele>1314.24</ele>
        <time>2017-10-31T14:06:09.000Z</time>
      </trkpt>
      <trkpt lat="44.8791" lon="5.27329">
        <ele>1314.14</ele>
        <time>2017-10-31T14:06:19.000Z</time>
      </trkpt>
      <trkpt lat="44.87902" lon="5.27325">
        <ele>1314.66</ele>
        <time>2017-10-31T14:06:29.000Z</time>
      </trkpt>
      <trkpt lat="44.87894" lon="5.27321">
        <ele>1315.21</ele>
        <time>2017-10-31T14:06:39.000Z</time>
      </trkpt>
      <trkpt lat="44.87887" lon="5.27323">
        <ele>1316.58</ele>
        <time>2017-10-31T14:06:49.000Z</time>
      </trkpt>
      <trkpt lat="44.87883" lon="5.27324">
        <ele>1317.31</ele>
        <time>2017-10-31T14:06:59.000Z</time>
      </trkpt>
      <trkpt lat="44.87884" lon="5.27323">
        <ele>1316.97</ele>
        <time>2017-10-31T14:07:09.000Z</time>
      </trkpt>
      <trkpt lat="44.87883" lon="5.27322">
        <ele>1317.04</ele>
        <time>2017-10-31T14:09:35.000Z</time>
      </trkpt>
      <trkpt lat="44.87883" lon="5.27324">
        <ele>1317.3</ele>
        <time>2017-10-31T14:09:45.000Z</time>
      </trkpt>
      <trkpt lat="44.87884" lon="5.27325">
        <ele>1317.23</ele>
        <time>2017-10-31T14:21:28.000Z</time>
      </trkpt>
      <trkpt lat="44.87885" lon="5.27324">
        <ele>1316.93</ele>
        <time>2017-10-31T14:21:39.000Z</time>
      </trkpt>
      <trkpt lat="44.87881" lon="5.27326">
        <ele>1317.94</ele>
        <time>2017-10-31T14:21:49.000Z</time>
      </trkpt>
      <trkpt lat="44.8788" lon="5.27325">
        <ele>1318</ele>
        <time>2017-10-31T14:22:00.000Z</time>
      </trkpt>
      <trkpt lat="44.87881" lon="5.27327">
        <ele>1318.04</ele>
        <time>2017-10-31T14:22:13.000Z</time>
      </trkpt>
      <trkpt lat="44.87882" lon="5.27326">
        <ele>1317.78</ele>
        <time>2017-10-31T14:22:23.000Z</time>
      </trkpt>
      <trkpt lat="44.87883" lon="5.27327">
        <ele>1317.72</ele>
        <time>2017-10-31T14:22:40.000Z</time>
      </trkpt>
      <trkpt lat="44.87885" lon="5.27326">
        <ele>1317.3</ele>
        <time>2017-10-31T14:22:50.000Z</time>
      </trkpt>
      <trkpt lat="44.87886" lon="5.27327">
        <ele>1317.28</ele>
        <time>2017-10-31T14:28:49.000Z</time>
      </trkpt>
      <trkpt lat="44.87887" lon="5.27327">
        <ele>1316.99</ele>
        <time>2017-10-31T14:29:00.000Z</time>
      </trkpt>
      <trkpt lat="44.87888" lon="5.27326">
        <ele>1316.77</ele>
        <time>2017-10-31T14:29:10.000Z</time>
      </trkpt>
      <trkpt lat="44.87886" lon="5.27324">
        <ele>1316.83</ele>
        <time>2017-10-31T14:30:14.000Z</time>
      </trkpt>
      <trkpt lat="44.87885" lon="5.27322">
        <ele>1316.72</ele>
        <time>2017-10-31T14:30:24.000Z</time>
      </trkpt>
      <trkpt lat="44.87885" lon="5.27324">
        <ele>1316.91</ele>
        <time>2017-10-31T14:30:34.000Z</time>
      </trkpt>
      <trkpt lat="44.87885" lon="5.27325">
        <ele>1317.1</ele>
        <time>2017-10-31T14:31:17.000Z</time>
      </trkpt>
      <trkpt lat="44.87884" lon="5.27327">
        <ele>1317.59</ele>
        <time>2017-10-31T14:31:27.000Z</time>
      </trkpt>
      <trkpt lat="44.87884" lon="5.27328">
        <ele>1317.71</ele>
        <time>2017-10-31T14:33:12.000Z</time>
      </trkpt>
      <trkpt lat="44.87891" lon="5.27324">
        <ele>1316.07</ele>
        <time>2017-10-31T14:33:22.000Z</time>
      </trkpt>
      <trkpt lat="44.87894" lon="5.27323">
        <ele>1315.48</ele>
        <time>2017-10-31T14:33:32.000Z</time>
      </trkpt>
      <trkpt lat="44.87895" lon="5.27324">
        <ele>1315.33</ele>
        <time>2017-10-31T14:33:42.000Z</time>
      </trkpt>
      <trkpt lat="44.87902" lon="5.27326">
        <ele>1314.84</ele>
        <time>2017-10-31T14:33:52.000Z</time>
      </trkpt>
      <trkpt lat="44.87905" lon="5.27326">
        <ele>1314.39</ele>
        <time>2017-10-31T14:34:02.000Z</time>
      </trkpt>
      <trkpt lat="44.87908" lon="5.27326">
        <ele>1314.07</ele>
        <time>2017-10-31T14:34:12.000Z</time>
      </trkpt>
      <trkpt lat="44.87908" lon="5.27324">
        <ele>1313.83</ele>
        <time>2017-10-31T14:35:26.000Z</time>
      </trkpt>
      <trkpt lat="44.87906" lon="5.27307">
        <ele>1311.84</ele>
        <time>2017-10-31T14:35:36.000Z</time>
      </trkpt>
      <trkpt lat="44.87902" lon="5.27307">
        <ele>1312.26</ele>
        <time>2017-10-31T14:35:46.000Z</time>
      </trkpt>
      <trkpt lat="44.87904" lon="5.27301">
        <ele>1311.21</ele>
        <time>2017-10-31T14:35:56.000Z</time>
      </trkpt>
      <trkpt lat="44.879" lon="5.27296">
        <ele>1310.82</ele>
        <time>2017-10-31T14:36:11.000Z</time>
      </trkpt>
      <trkpt lat="44.87888" lon="5.27276">
        <ele>1308</ele>
        <time>2017-10-31T14:36:21.000Z</time>
      </trkpt>
      <trkpt lat="44.87887" lon="5.27265">
        <ele>1306.22</ele>
        <time>2017-10-31T14:36:31.000Z</time>
      </trkpt>
      <trkpt lat="44.87874" lon="5.27252">
        <ele>1304.28</ele>
        <time>2017-10-31T14:36:41.000Z</time>
      </trkpt>
      <trkpt lat="44.87867" lon="5.27236">
        <ele>1302.59</ele>
        <time>2017-10-31T14:36:51.000Z</time>
      </trkpt>
      <trkpt lat="44.87864" lon="5.27229">
        <ele>1302.1</ele>
        <time>2017-10-31T14:37:01.000Z</time>
      </trkpt>
      <trkpt lat="44.8786" lon="5.2722">
        <ele>1301.71</ele>
        <time>2017-10-31T14:37:11.000Z</time>
      </trkpt>
      <trkpt lat="44.87847" lon="5.272">
        <ele>1302.22</ele>
        <time>2017-10-31T14:37:21.000Z</time>
      </trkpt>
      <trkpt lat="44.87844" lon="5.27193">
        <ele>1302.66</ele>
        <time>2017-10-31T14:37:31.000Z</time>
      </trkpt>
      <trkpt lat="44.87838" lon="5.27184">
        <ele>1303.51</ele>
        <time>2017-10-31T14:37:41.000Z</time>
      </trkpt>
      <trkpt lat="44.8783" lon="5.27172">
        <ele>1304.86</ele>
        <time>2017-10-31T14:37:51.000Z</time>
      </trkpt>
      <trkpt lat="44.87819" lon="5.27162">
        <ele>1306.09</ele>
        <time>2017-10-31T14:38:01.000Z</time>
      </trkpt>
      <trkpt lat="44.87808" lon="5.27153">
        <ele>1307.1</ele>
        <time>2017-10-31T14:38:11.000Z</time>
      </trkpt>
      <trkpt lat="44.87798" lon="5.27149">
        <ele>1307.51</ele>
        <time>2017-10-31T14:38:21.000Z</time>
      </trkpt>
      <trkpt lat="44.87791" lon="5.27137">
        <ele>1308.43</ele>
        <time>2017-10-31T14:38:31.000Z</time>
      </trkpt>
      <trkpt lat="44.87784" lon="5.27121">
        <ele>1309.44</ele>
        <time>2017-10-31T14:38:41.000Z</time>
      </trkpt>
      <trkpt lat="44.87781" lon="5.27104">
        <ele>1310.52</ele>
        <time>2017-10-31T14:38:51.000Z</time>
      </trkpt>
      <trkpt lat="44.87777" lon="5.27096">
        <ele>1310.64</ele>
        <time>2017-10-31T14:39:01.000Z</time>
      </trkpt>
      <trkpt lat="44.87777" lon="5.27087">
        <ele>1311.11</ele>
        <time>2017-10-31T14:39:11.000Z</time>
      </trkpt>
      <trkpt lat="44.8778" lon="5.27081">
        <ele>1311.77</ele>
        <time>2017-10-31T14:39:21.000Z</time>
      </trkpt>
      <trkpt lat="44.87773" lon="5.27074">
        <ele>1311.17</ele>
        <time>2017-10-31T14:39:31.000Z</time>
      </trkpt>
      <trkpt lat="44.87768" lon="5.27069">
        <ele>1310.79</ele>
        <time>2017-10-31T14:39:41.000Z</time>
      </trkpt>
      <trkpt lat="44.87761" lon="5.27056">
        <ele>1310.57</ele>
        <time>2017-10-31T14:39:51.000Z</time>
      </trkpt>
      <trkpt lat="44.87764" lon="5.27048">
        <ele>1311.2</ele>
        <time>2017-10-31T14:40:01.000Z</time>
      </trkpt>
      <trkpt lat="44.8776" lon="5.27037">
        <ele>1311.27</ele>
        <time>2017-10-31T14:40:11.000Z</time>
      </trkpt>
      <trkpt lat="44.87756" lon="5.27032">
        <ele>1311.12</ele>
        <time>2017-10-31T14:40:21.000Z</time>
      </trkpt>
      <trkpt lat="44.87756" lon="5.27031">
        <ele>1311.15</ele>
        <time>2017-10-31T14:40:34.000Z</time>
      </trkpt>
      <trkpt lat="44.87754" lon="5.27027">
        <ele>1311.21</ele>
        <time>2017-10-31T14:41:24.000Z</time>
      </trkpt>
      <trkpt lat="44.8775" lon="5.27006">
        <ele>1311.82</ele>
        <time>2017-10-31T14:41:34.000Z</time>
      </trkpt>
      <trkpt lat="44.87746" lon="5.26991">
        <ele>1312.05</ele>
        <time>2017-10-31T14:41:44.000Z</time>
      </trkpt>
      <trkpt lat="44.87744" lon="5.26984">
        <ele>1312.07</ele>
        <time>2017-10-31T14:41:54.000Z</time>
      </trkpt>
      <trkpt lat="44.87745" lon="5.26982">
        <ele>1312.19</ele>
        <time>2017-10-31T14:42:04.000Z</time>
      </trkpt>
      <trkpt lat="44.87752" lon="5.2697">
        <ele>1312.64</ele>
        <time>2017-10-31T14:42:14.000Z</time>
      </trkpt>
      <trkpt lat="44.87751" lon="5.26953">
        <ele>1312.81</ele>
        <time>2017-10-31T14:42:24.000Z</time>
      </trkpt>
      <trkpt lat="44.87747" lon="5.26935">
        <ele>1313.08</ele>
        <time>2017-10-31T14:42:34.000Z</time>
      </trkpt>
      <trkpt lat="44.87749" lon="5.26928">
        <ele>1313.41</ele>
        <time>2017-10-31T14:42:44.000Z</time>
      </trkpt>
      <trkpt lat="44.8775" lon="5.26916">
        <ele>1314.07</ele>
        <time>2017-10-31T14:42:54.000Z</time>
      </trkpt>
      <trkpt lat="44.87749" lon="5.26908">
        <ele>1314.55</ele>
        <time>2017-10-31T14:43:04.000Z</time>
      </trkpt>
      <trkpt lat="44.87745" lon="5.2689">
        <ele>1315.76</ele>
        <time>2017-10-31T14:43:14.000Z</time>
      </trkpt>
      <trkpt lat="44.87745" lon="5.26877">
        <ele>1316.97</ele>
        <time>2017-10-31T14:43:24.000Z</time>
      </trkpt>
      <trkpt lat="44.87743" lon="5.26868">
        <ele>1317.66</ele>
        <time>2017-10-31T14:43:34.000Z</time>
      </trkpt>
      <trkpt lat="44.87738" lon="5.26853">
        <ele>1318.73</ele>
        <time>2017-10-31T14:43:44.000Z</time>
      </trkpt>
      <trkpt lat="44.87731" lon="5.26846">
        <ele>1318.81</ele>
        <time>2017-10-31T14:43:54.000Z</time>
      </trkpt>
      <trkpt lat="44.87729" lon="5.26836">
        <ele>1319.74</ele>
        <time>2017-10-31T14:44:04.000Z</time>
      </trkpt>
      <trkpt lat="44.87726" lon="5.26825">
        <ele>1320.84</ele>
        <time>2017-10-31T14:44:14.000Z</time>
      </trkpt>
      <trkpt lat="44.87719" lon="5.26811">
        <ele>1322.32</ele>
        <time>2017-10-31T14:44:24.000Z</time>
      </trkpt>
      <trkpt lat="44.87718" lon="5.26803">
        <ele>1323.67</ele>
        <time>2017-10-31T14:44:34.000Z</time>
      </trkpt>
      <trkpt lat="44.87715" lon="5.26794">
        <ele>1325.02</ele>
        <time>2017-10-31T14:44:44.000Z</time>
      </trkpt>
      <trkpt lat="44.87715" lon="5.26792">
        <ele>1325.31</ele>
        <time>2017-10-31T14:44:54.000Z</time>
      </trkpt>
      <trkpt lat="44.87711" lon="5.26774">
        <ele>1328.54</ele>
        <time>2017-10-31T14:45:05.000Z</time>
      </trkpt>
      <trkpt lat="44.87704" lon="5.26759">
        <ele>1331.01</ele>
        <time>2017-10-31T14:45:15.000Z</time>
      </trkpt>
      <trkpt lat="44.87696" lon="5.2675">
        <ele>1332.35</ele>
        <time>2017-10-31T14:45:25.000Z</time>
      </trkpt>
      <trkpt lat="44.87692" lon="5.26736">
        <ele>1334.03</ele>
        <time>2017-10-31T14:45:35.000Z</time>
      </trkpt>
      <trkpt lat="44.87688" lon="5.26724">
        <ele>1335.14</ele>
        <time>2017-10-31T14:45:45.000Z</time>
      </trkpt>
      <trkpt lat="44.87682" lon="5.26714">
        <ele>1335.83</ele>
        <time>2017-10-31T14:45:55.000Z</time>
      </trkpt>
      <trkpt lat="44.87677" lon="5.26701">
        <ele>1336.45</ele>
        <time>2017-10-31T14:46:05.000Z</time>
      </trkpt>
      <trkpt lat="44.87674" lon="5.26686">
        <ele>1337.26</ele>
        <time>2017-10-31T14:46:15.000Z</time>
      </trkpt>
      <trkpt lat="44.8767" lon="5.26673">
        <ele>1337.87</ele>
        <time>2017-10-31T14:46:25.000Z</time>
      </trkpt>
      <trkpt lat="44.87664" lon="5.26671">
        <ele>1337.53</ele>
        <time>2017-10-31T14:46:35.000Z</time>
      </trkpt>
      <trkpt lat="44.87662" lon="5.26657">
        <ele>1338.11</ele>
        <time>2017-10-31T14:46:45.000Z</time>
      </trkpt>
      <trkpt lat="44.87659" lon="5.26642">
        <ele>1338.45</ele>
        <time>2017-10-31T14:46:55.000Z</time>
      </trkpt>
      <trkpt lat="44.87655" lon="5.26631">
        <ele>1338.29</ele>
        <time>2017-10-31T14:47:05.000Z</time>
      </trkpt>
      <trkpt lat="44.87654" lon="5.26619">
        <ele>1338.35</ele>
        <time>2017-10-31T14:47:15.000Z</time>
      </trkpt>
      <trkpt lat="44.87653" lon="5.26609">
        <ele>1338.52</ele>
        <time>2017-10-31T14:47:25.000Z</time>
      </trkpt>
      <trkpt lat="44.87645" lon="5.26602">
        <ele>1337.29</ele>
        <time>2017-10-31T14:47:35.000Z</time>
      </trkpt>
      <trkpt lat="44.87643" lon="5.26584">
        <ele>1337.93</ele>
        <time>2017-10-31T14:47:45.000Z</time>
      </trkpt>
      <trkpt lat="44.8764" lon="5.26571">
        <ele>1338.58</ele>
        <time>2017-10-31T14:47:55.000Z</time>
      </trkpt>
      <trkpt lat="44.8764" lon="5.26553">
        <ele>1340.75</ele>
        <time>2017-10-31T14:48:05.000Z</time>
      </trkpt>
      <trkpt lat="44.87639" lon="5.26544">
        <ele>1341.88</ele>
        <time>2017-10-31T14:48:15.000Z</time>
      </trkpt>
      <trkpt lat="44.87637" lon="5.26534">
        <ele>1343.03</ele>
        <time>2017-10-31T14:48:25.000Z</time>
      </trkpt>
      <trkpt lat="44.87636" lon="5.26524">
        <ele>1344.2</ele>
        <time>2017-10-31T14:48:35.000Z</time>
      </trkpt>
      <trkpt lat="44.87634" lon="5.26516">
        <ele>1344.97</ele>
        <time>2017-10-31T14:48:45.000Z</time>
      </trkpt>
      <trkpt lat="44.87633" lon="5.26515">
        <ele>1344.88</ele>
        <time>2017-10-31T14:48:55.000Z</time>
      </trkpt>
      <trkpt lat="44.87631" lon="5.26506">
        <ele>1345.7</ele>
        <time>2017-10-31T14:49:05.000Z</time>
      </trkpt>
      <trkpt lat="44.87625" lon="5.26492">
        <ele>1346.4</ele>
        <time>2017-10-31T14:49:15.000Z</time>
      </trkpt>
      <trkpt lat="44.87625" lon="5.26485">
        <ele>1347.24</ele>
        <time>2017-10-31T14:49:25.000Z</time>
      </trkpt>
      <trkpt lat="44.87623" lon="5.2648">
        <ele>1347.49</ele>
        <time>2017-10-31T14:49:35.000Z</time>
      </trkpt>
      <trkpt lat="44.87623" lon="5.26479">
        <ele>1347.71</ele>
        <time>2017-10-31T14:49:46.000Z</time>
      </trkpt>
      <trkpt lat="44.87627" lon="5.26472">
        <ele>1349.09</ele>
        <time>2017-10-31T14:49:56.000Z</time>
      </trkpt>
      <trkpt lat="44.87627" lon="5.26461">
        <ele>1350.28</ele>
        <time>2017-10-31T14:50:06.000Z</time>
      </trkpt>
      <trkpt lat="44.87631" lon="5.26453">
        <ele>1351.55</ele>
        <time>2017-10-31T14:50:16.000Z</time>
      </trkpt>
      <trkpt lat="44.87629" lon="5.2644">
        <ele>1352.53</ele>
        <time>2017-10-31T14:50:26.000Z</time>
      </trkpt>
      <trkpt lat="44.87631" lon="5.26429">
        <ele>1353.45</ele>
        <time>2017-10-31T14:50:36.000Z</time>
      </trkpt>
      <trkpt lat="44.87635" lon="5.26416">
        <ele>1354.33</ele>
        <time>2017-10-31T14:50:46.000Z</time>
      </trkpt>
      <trkpt lat="44.87637" lon="5.26403">
        <ele>1354.71</ele>
        <time>2017-10-31T14:50:56.000Z</time>
      </trkpt>
      <trkpt lat="44.87643" lon="5.26395">
        <ele>1355.07</ele>
        <time>2017-10-31T14:51:06.000Z</time>
      </trkpt>
      <trkpt lat="44.87647" lon="5.26381">
        <ele>1355.01</ele>
        <time>2017-10-31T14:51:16.000Z</time>
      </trkpt>
      <trkpt lat="44.87647" lon="5.26367">
        <ele>1354.64</ele>
        <time>2017-10-31T14:51:26.000Z</time>
      </trkpt>
      <trkpt lat="44.87644" lon="5.26353">
        <ele>1354.02</ele>
        <time>2017-10-31T14:51:36.000Z</time>
      </trkpt>
      <trkpt lat="44.8764" lon="5.26346">
        <ele>1353.53</ele>
        <time>2017-10-31T14:51:46.000Z</time>
      </trkpt>
      <trkpt lat="44.87635" lon="5.26335">
        <ele>1352.94</ele>
        <time>2017-10-31T14:51:56.000Z</time>
      </trkpt>
      <trkpt lat="44.87635" lon="5.26334">
        <ele>1352.91</ele>
        <time>2017-10-31T14:52:15.000Z</time>
      </trkpt>
      <trkpt lat="44.87634" lon="5.26324">
        <ele>1352.36</ele>
        <time>2017-10-31T14:52:25.000Z</time>
      </trkpt>
      <trkpt lat="44.87633" lon="5.26318">
        <ele>1352.03</ele>
        <time>2017-10-31T14:52:35.000Z</time>
      </trkpt>
      <trkpt lat="44.87632" lon="5.26316">
        <ele>1351.92</ele>
        <time>2017-10-31T14:52:59.000Z</time>
      </trkpt>
      <trkpt lat="44.87624" lon="5.2631">
        <ele>1351.3</ele>
        <time>2017-10-31T14:53:09.000Z</time>
      </trkpt>
      <trkpt lat="44.87613" lon="5.26302">
        <ele>1350.59</ele>
        <time>2017-10-31T14:53:19.000Z</time>
      </trkpt>
      <trkpt lat="44.87604" lon="5.26302">
        <ele>1350.43</ele>
        <time>2017-10-31T14:53:29.000Z</time>
      </trkpt>
      <trkpt lat="44.87594" lon="5.26293">
        <ele>1349.83</ele>
        <time>2017-10-31T14:53:39.000Z</time>
      </trkpt>
      <trkpt lat="44.8758" lon="5.26283">
        <ele>1349.36</ele>
        <time>2017-10-31T14:53:49.000Z</time>
      </trkpt>
      <trkpt lat="44.87573" lon="5.26274">
        <ele>1348.95</ele>
        <time>2017-10-31T14:53:59.000Z</time>
      </trkpt>
      <trkpt lat="44.87569" lon="5.26258">
        <ele>1348.12</ele>
        <time>2017-10-31T14:54:09.000Z</time>
      </trkpt>
      <trkpt lat="44.87561" lon="5.2625">
        <ele>1348.2</ele>
        <time>2017-10-31T14:54:19.000Z</time>
      </trkpt>
      <trkpt lat="44.87552" lon="5.26232">
        <ele>1347.93</ele>
        <time>2017-10-31T14:54:29.000Z</time>
      </trkpt>
      <trkpt lat="44.87543" lon="5.26222">
        <ele>1348.2</ele>
        <time>2017-10-31T14:54:39.000Z</time>
      </trkpt>
      <trkpt lat="44.87538" lon="5.26212">
        <ele>1348.09</ele>
        <time>2017-10-31T14:54:49.000Z</time>
      </trkpt>
      <trkpt lat="44.87534" lon="5.26198">
        <ele>1347.55</ele>
        <time>2017-10-31T14:54:59.000Z</time>
      </trkpt>
      <trkpt lat="44.87532" lon="5.26194">
        <ele>1347.54</ele>
        <time>2017-10-31T14:55:10.000Z</time>
      </trkpt>
      <trkpt lat="44.87521" lon="5.26179">
        <ele>1347.53</ele>
        <time>2017-10-31T14:55:20.000Z</time>
      </trkpt>
      <trkpt lat="44.87513" lon="5.26162">
        <ele>1347.03</ele>
        <time>2017-10-31T14:55:30.000Z</time>
      </trkpt>
      <trkpt lat="44.87505" lon="5.26147">
        <ele>1346.39</ele>
        <time>2017-10-31T14:55:40.000Z</time>
      </trkpt>
      <trkpt lat="44.87499" lon="5.26133">
        <ele>1345.56</ele>
        <time>2017-10-31T14:55:50.000Z</time>
      </trkpt>
      <trkpt lat="44.87494" lon="5.26117">
        <ele>1344.35</ele>
        <time>2017-10-31T14:56:00.000Z</time>
      </trkpt>
      <trkpt lat="44.87492" lon="5.26102">
        <ele>1343.27</ele>
        <time>2017-10-31T14:56:10.000Z</time>
      </trkpt>
      <trkpt lat="44.87488" lon="5.26087">
        <ele>1342.28</ele>
        <time>2017-10-31T14:56:20.000Z</time>
      </trkpt>
      <trkpt lat="44.87478" lon="5.26072">
        <ele>1341.08</ele>
        <time>2017-10-31T14:56:30.000Z</time>
      </trkpt>
      <trkpt lat="44.87477" lon="5.26053">
        <ele>1339.73</ele>
        <time>2017-10-31T14:56:40.000Z</time>
      </trkpt>
      <trkpt lat="44.87475" lon="5.26038">
        <ele>1338.47</ele>
        <time>2017-10-31T14:56:50.000Z</time>
      </trkpt>
      <trkpt lat="44.87466" lon="5.26026">
        <ele>1336.34</ele>
        <time>2017-10-31T14:57:00.000Z</time>
      </trkpt>
      <trkpt lat="44.87457" lon="5.26009">
        <ele>1333.07</ele>
        <time>2017-10-31T14:57:10.000Z</time>
      </trkpt>
      <trkpt lat="44.87444" lon="5.26007">
        <ele>1330.13</ele>
        <time>2017-10-31T14:57:20.000Z</time>
      </trkpt>
      <trkpt lat="44.87433" lon="5.26005">
        <ele>1327.99</ele>
        <time>2017-10-31T14:57:30.000Z</time>
      </trkpt>
      <trkpt lat="44.87423" lon="5.26005">
        <ele>1326.36</ele>
        <time>2017-10-31T14:57:40.000Z</time>
      </trkpt>
      <trkpt lat="44.87416" lon="5.25995">
        <ele>1324.33</ele>
        <time>2017-10-31T14:57:50.000Z</time>
      </trkpt>
      <trkpt lat="44.87406" lon="5.25997">
        <ele>1323.57</ele>
        <time>2017-10-31T14:58:00.000Z</time>
      </trkpt>
      <trkpt lat="44.87395" lon="5.25988">
        <ele>1321.44</ele>
        <time>2017-10-31T14:58:10.000Z</time>
      </trkpt>
      <trkpt lat="44.87385" lon="5.25988">
        <ele>1320.7</ele>
        <time>2017-10-31T14:58:20.000Z</time>
      </trkpt>
      <trkpt lat="44.87373" lon="5.25981">
        <ele>1319.03</ele>
        <time>2017-10-31T14:58:30.000Z</time>
      </trkpt>
      <trkpt lat="44.87366" lon="5.25972">
        <ele>1317.37</ele>
        <time>2017-10-31T14:58:40.000Z</time>
      </trkpt>
      <trkpt lat="44.87362" lon="5.25969">
        <ele>1316.8</ele>
        <time>2017-10-31T14:58:50.000Z</time>
      </trkpt>
      <trkpt lat="44.87351" lon="5.25959">
        <ele>1314.73</ele>
        <time>2017-10-31T14:59:00.000Z</time>
      </trkpt>
      <trkpt lat="44.87346" lon="5.25955">
        <ele>1313.9</ele>
        <time>2017-10-31T14:59:10.000Z</time>
      </trkpt>
      <trkpt lat="44.87337" lon="5.2595">
        <ele>1312.9</ele>
        <time>2017-10-31T14:59:20.000Z</time>
      </trkpt>
      <trkpt lat="44.87326" lon="5.25945">
        <ele>1312</ele>
        <time>2017-10-31T14:59:30.000Z</time>
      </trkpt>
      <trkpt lat="44.87324" lon="5.25941">
        <ele>1311.57</ele>
        <time>2017-10-31T14:59:40.000Z</time>
      </trkpt>
      <trkpt lat="44.87327" lon="5.25933">
        <ele>1310.81</ele>
        <time>2017-10-31T14:59:50.000Z</time>
      </trkpt>
      <trkpt lat="44.87333" lon="5.25924">
        <ele>1310.28</ele>
        <time>2017-10-31T15:00:00.000Z</time>
      </trkpt>
      <trkpt lat="44.87338" lon="5.25913">
        <ele>1310.08</ele>
        <time>2017-10-31T15:00:10.000Z</time>
      </trkpt>
      <trkpt lat="44.87347" lon="5.25901">
        <ele>1310.59</ele>
        <time>2017-10-31T15:00:20.000Z</time>
      </trkpt>
      <trkpt lat="44.87353" lon="5.25886">
        <ele>1311.47</ele>
        <time>2017-10-31T15:00:30.000Z</time>
      </trkpt>
      <trkpt lat="44.87361" lon="5.2588">
        <ele>1311.69</ele>
        <time>2017-10-31T15:00:40.000Z</time>
      </trkpt>
      <trkpt lat="44.87365" lon="5.25864">
        <ele>1312.02</ele>
        <time>2017-10-31T15:00:50.000Z</time>
      </trkpt>
      <trkpt lat="44.87374" lon="5.25854">
        <ele>1311.29</ele>
        <time>2017-10-31T15:01:00.000Z</time>
      </trkpt>
      <trkpt lat="44.87384" lon="5.25846">
        <ele>1309.85</ele>
        <time>2017-10-31T15:01:10.000Z</time>
      </trkpt>
      <trkpt lat="44.87399" lon="5.25839">
        <ele>1307.87</ele>
        <time>2017-10-31T15:01:20.000Z</time>
      </trkpt>
      <trkpt lat="44.87406" lon="5.25829">
        <ele>1306.58</ele>
        <time>2017-10-31T15:01:30.000Z</time>
      </trkpt>
      <trkpt lat="44.87415" lon="5.25815">
        <ele>1305.07</ele>
        <time>2017-10-31T15:01:40.000Z</time>
      </trkpt>
      <trkpt lat="44.8742" lon="5.25805">
        <ele>1304.45</ele>
        <time>2017-10-31T15:01:50.000Z</time>
      </trkpt>
      <trkpt lat="44.87423" lon="5.25802">
        <ele>1304.31</ele>
        <time>2017-10-31T15:02:00.000Z</time>
      </trkpt>
      <trkpt lat="44.87421" lon="5.25801">
        <ele>1304.1</ele>
        <time>2017-10-31T15:02:10.000Z</time>
      </trkpt>
      <trkpt lat="44.87419" lon="5.25798">
        <ele>1303.67</ele>
        <time>2017-10-31T15:03:54.000Z</time>
      </trkpt>
      <trkpt lat="44.87402" lon="5.25771">
        <ele>1302.17</ele>
        <time>2017-10-31T15:04:04.000Z</time>
      </trkpt>
      <trkpt lat="44.87393" lon="5.25753">
        <ele>1302.64</ele>
        <time>2017-10-31T15:04:14.000Z</time>
      </trkpt>
      <trkpt lat="44.87385" lon="5.25743">
        <ele>1303.9</ele>
        <time>2017-10-31T15:04:24.000Z</time>
      </trkpt>
      <trkpt lat="44.87385" lon="5.25742">
        <ele>1304.06</ele>
        <time>2017-10-31T15:04:34.000Z</time>
      </trkpt>
      <trkpt lat="44.87383" lon="5.2574">
        <ele>1304.47</ele>
        <time>2017-10-31T15:05:01.000Z</time>
      </trkpt>
      <trkpt lat="44.87369" lon="5.25723">
        <ele>1307.69</ele>
        <time>2017-10-31T15:05:11.000Z</time>
      </trkpt>
      <trkpt lat="44.8737" lon="5.25717">
        <ele>1307.86</ele>
        <time>2017-10-31T15:05:21.000Z</time>
      </trkpt>
      <trkpt lat="44.87364" lon="5.25706">
        <ele>1309.63</ele>
        <time>2017-10-31T15:05:31.000Z</time>
      </trkpt>
      <trkpt lat="44.87357" lon="5.25694">
        <ele>1311.47</ele>
        <time>2017-10-31T15:05:41.000Z</time>
      </trkpt>
      <trkpt lat="44.87359" lon="5.25689">
        <ele>1311.57</ele>
        <time>2017-10-31T15:05:51.000Z</time>
      </trkpt>
      <trkpt lat="44.87354" lon="5.2568">
        <ele>1312.7</ele>
        <time>2017-10-31T15:06:23.000Z</time>
      </trkpt>
      <trkpt lat="44.87336" lon="5.25672">
        <ele>1315.59</ele>
        <time>2017-10-31T15:06:33.000Z</time>
      </trkpt>
      <trkpt lat="44.87327" lon="5.25668">
        <ele>1316.63</ele>
        <time>2017-10-31T15:06:43.000Z</time>
      </trkpt>
      <trkpt lat="44.8732" lon="5.25667">
        <ele>1317.24</ele>
        <time>2017-10-31T15:06:53.000Z</time>
      </trkpt>
      <trkpt lat="44.87312" lon="5.25666">
        <ele>1317.85</ele>
        <time>2017-10-31T15:07:03.000Z</time>
      </trkpt>
      <trkpt lat="44.87306" lon="5.25665">
        <ele>1318.33</ele>
        <time>2017-10-31T15:07:13.000Z</time>
      </trkpt>
      <trkpt lat="44.87301" lon="5.25668">
        <ele>1318.59</ele>
        <time>2017-10-31T15:07:23.000Z</time>
      </trkpt>
      <trkpt lat="44.873" lon="5.25665">
        <ele>1318.7</ele>
        <time>2017-10-31T15:07:33.000Z</time>
      </trkpt>
      <trkpt lat="44.87292" lon="5.25662">
        <ele>1319.21</ele>
        <time>2017-10-31T15:07:43.000Z</time>
      </trkpt>
      <trkpt lat="44.87283" lon="5.25656">
        <ele>1319.82</ele>
        <time>2017-10-31T15:07:53.000Z</time>
      </trkpt>
      <trkpt lat="44.87274" lon="5.25656">
        <ele>1320.33</ele>
        <time>2017-10-31T15:08:03.000Z</time>
      </trkpt>
      <trkpt lat="44.87264" lon="5.25658">
        <ele>1320.9</ele>
        <time>2017-10-31T15:08:13.000Z</time>
      </trkpt>
      <trkpt lat="44.87262" lon="5.25661">
        <ele>1321.04</ele>
        <time>2017-10-31T15:08:23.000Z</time>
      </trkpt>
      <trkpt lat="44.87261" lon="5.25661">
        <ele>1321.12</ele>
        <time>2017-10-31T15:08:45.000Z</time>
      </trkpt>
      <trkpt lat="44.87253" lon="5.25654">
        <ele>1321.64</ele>
        <time>2017-10-31T15:08:55.000Z</time>
      </trkpt>
      <trkpt lat="44.87248" lon="5.25648">
        <ele>1322.06</ele>
        <time>2017-10-31T15:09:05.000Z</time>
      </trkpt>
      <trkpt lat="44.87241" lon="5.25639">
        <ele>1322.47</ele>
        <time>2017-10-31T15:09:15.000Z</time>
      </trkpt>
      <trkpt lat="44.87232" lon="5.25636">
        <ele>1322.94</ele>
        <time>2017-10-31T15:09:25.000Z</time>
      </trkpt>
      <trkpt lat="44.87222" lon="5.25631">
        <ele>1323.29</ele>
        <time>2017-10-31T15:09:35.000Z</time>
      </trkpt>
      <trkpt lat="44.87223" lon="5.25633">
        <ele>1323.3</ele>
        <time>2017-10-31T15:09:45.000Z</time>
      </trkpt>
      <trkpt lat="44.87221" lon="5.25631">
        <ele>1323.37</ele>
        <time>2017-10-31T15:10:29.000Z</time>
      </trkpt>
      <trkpt lat="44.87203" lon="5.25619">
        <ele>1323.62</ele>
        <time>2017-10-31T15:10:39.000Z</time>
      </trkpt>
      <trkpt lat="44.87198" lon="5.25621">
        <ele>1323.94</ele>
        <time>2017-10-31T15:10:49.000Z</time>
      </trkpt>
      <trkpt lat="44.87196" lon="5.25619">
        <ele>1323.89</ele>
        <time>2017-10-31T15:10:59.000Z</time>
      </trkpt>
      <trkpt lat="44.87195" lon="5.25619">
        <ele>1323.9</ele>
        <time>2017-10-31T15:11:11.000Z</time>
      </trkpt>
      <trkpt lat="44.8719" lon="5.25616">
        <ele>1323.99</ele>
        <time>2017-10-31T15:11:21.000Z</time>
      </trkpt>
      <trkpt lat="44.87182" lon="5.25614">
        <ele>1324.33</ele>
        <time>2017-10-31T15:11:31.000Z</time>
      </trkpt>
      <trkpt lat="44.87172" lon="5.2561">
        <ele>1324.7</ele>
        <time>2017-10-31T15:11:41.000Z</time>
      </trkpt>
      <trkpt lat="44.87168" lon="5.25609">
        <ele>1325.02</ele>
        <time>2017-10-31T15:11:51.000Z</time>
      </trkpt>
      <trkpt lat="44.87165" lon="5.25605">
        <ele>1325.01</ele>
        <time>2017-10-31T15:12:06.000Z</time>
      </trkpt>
      <trkpt lat="44.87157" lon="5.25601">
        <ele>1325.68</ele>
        <time>2017-10-31T15:12:16.000Z</time>
      </trkpt>
      <trkpt lat="44.87146" lon="5.25586">
        <ele>1326.32</ele>
        <time>2017-10-31T15:12:26.000Z</time>
      </trkpt>
      <trkpt lat="44.87144" lon="5.25575">
        <ele>1326.3</ele>
        <time>2017-10-31T15:12:36.000Z</time>
      </trkpt>
      <trkpt lat="44.87145" lon="5.25576">
        <ele>1326.17</ele>
        <time>2017-10-31T15:12:49.000Z</time>
      </trkpt>
      <trkpt lat="44.87146" lon="5.25578">
        <ele>1326.12</ele>
        <time>2017-10-31T15:13:23.000Z</time>
      </trkpt>
      <trkpt lat="44.87142" lon="5.25575">
        <ele>1326.6</ele>
        <time>2017-10-31T15:13:50.000Z</time>
      </trkpt>
      <trkpt lat="44.87138" lon="5.25575">
        <ele>1327.1</ele>
        <time>2017-10-31T15:14:00.000Z</time>
      </trkpt>
      <trkpt lat="44.87137" lon="5.25576">
        <ele>1327.24</ele>
        <time>2017-10-31T15:14:10.000Z</time>
      </trkpt>
      <trkpt lat="44.87132" lon="5.25573">
        <ele>1327.87</ele>
        <time>2017-10-31T15:14:43.000Z</time>
      </trkpt>
      <trkpt lat="44.87112" lon="5.25561">
        <ele>1330.55</ele>
        <time>2017-10-31T15:14:53.000Z</time>
      </trkpt>
      <trkpt lat="44.87101" lon="5.25544">
        <ele>1331.64</ele>
        <time>2017-10-31T15:15:03.000Z</time>
      </trkpt>
      <trkpt lat="44.87096" lon="5.25544">
        <ele>1332.31</ele>
        <time>2017-10-31T15:15:13.000Z</time>
      </trkpt>
      <trkpt lat="44.87085" lon="5.25532">
        <ele>1333.25</ele>
        <time>2017-10-31T15:15:23.000Z</time>
      </trkpt>
      <trkpt lat="44.87081" lon="5.25524">
        <ele>1333.55</ele>
        <time>2017-10-31T15:15:33.000Z</time>
      </trkpt>
      <trkpt lat="44.87075" lon="5.25511">
        <ele>1333.94</ele>
        <time>2017-10-31T15:15:43.000Z</time>
      </trkpt>
      <trkpt lat="44.87074" lon="5.25508">
        <ele>1333.92</ele>
        <time>2017-10-31T15:15:53.000Z</time>
      </trkpt>
      <trkpt lat="44.87072" lon="5.25505">
        <ele>1334.14</ele>
        <time>2017-10-31T15:16:23.000Z</time>
      </trkpt>
      <trkpt lat="44.87064" lon="5.25493">
        <ele>1334.84</ele>
        <time>2017-10-31T15:16:33.000Z</time>
      </trkpt>
      <trkpt lat="44.87062" lon="5.25475">
        <ele>1335.04</ele>
        <time>2017-10-31T15:16:43.000Z</time>
      </trkpt>
      <trkpt lat="44.87058" lon="5.25467">
        <ele>1335.35</ele>
        <time>2017-10-31T15:16:53.000Z</time>
      </trkpt>
      <trkpt lat="44.87053" lon="5.2545">
        <ele>1335.82</ele>
        <time>2017-10-31T15:17:03.000Z</time>
      </trkpt>
      <trkpt lat="44.8705" lon="5.25435">
        <ele>1336.17</ele>
        <time>2017-10-31T15:17:13.000Z</time>
      </trkpt>
      <trkpt lat="44.87045" lon="5.25423">
        <ele>1336.61</ele>
        <time>2017-10-31T15:17:23.000Z</time>
      </trkpt>
      <trkpt lat="44.87042" lon="5.25405">
        <ele>1337.49</ele>
        <time>2017-10-31T15:17:33.000Z</time>
      </trkpt>
      <trkpt lat="44.87041" lon="5.25396">
        <ele>1338.13</ele>
        <time>2017-10-31T15:17:43.000Z</time>
      </trkpt>
      <trkpt lat="44.87034" lon="5.2538">
        <ele>1339.3</ele>
        <time>2017-10-31T15:17:53.000Z</time>
      </trkpt>
      <trkpt lat="44.87034" lon="5.25368">
        <ele>1340.47</ele>
        <time>2017-10-31T15:18:03.000Z</time>
      </trkpt>
      <trkpt lat="44.87027" lon="5.25355">
        <ele>1341.57</ele>
        <time>2017-10-31T15:18:13.000Z</time>
      </trkpt>
      <trkpt lat="44.87027" lon="5.25343">
        <ele>1342.86</ele>
        <time>2017-10-31T15:18:23.000Z</time>
      </trkpt>
      <trkpt lat="44.87035" lon="5.2533">
        <ele>1344.59</ele>
        <time>2017-10-31T15:18:33.000Z</time>
      </trkpt>
      <trkpt lat="44.87039" lon="5.25324">
        <ele>1345.51</ele>
        <time>2017-10-31T15:18:43.000Z</time>
      </trkpt>
      <trkpt lat="44.87039" lon="5.25311">
        <ele>1347.14</ele>
        <time>2017-10-31T15:18:53.000Z</time>
      </trkpt>
      <trkpt lat="44.87047" lon="5.25304">
        <ele>1348.58</ele>
        <time>2017-10-31T15:19:03.000Z</time>
      </trkpt>
      <trkpt lat="44.87054" lon="5.25298">
        <ele>1349.83</ele>
        <time>2017-10-31T15:19:13.000Z</time>
      </trkpt>
      <trkpt lat="44.87059" lon="5.25291">
        <ele>1351.04</ele>
        <time>2017-10-31T15:19:23.000Z</time>
      </trkpt>
      <trkpt lat="44.87064" lon="5.25284">
        <ele>1352.25</ele>
        <time>2017-10-31T15:19:33.000Z</time>
      </trkpt>
      <trkpt lat="44.87071" lon="5.25278">
        <ele>1353.33</ele>
        <time>2017-10-31T15:19:43.000Z</time>
      </trkpt>
      <trkpt lat="44.87073" lon="5.25272">
        <ele>1354.23</ele>
        <time>2017-10-31T15:19:53.000Z</time>
      </trkpt>
      <trkpt lat="44.87077" lon="5.25263">
        <ele>1355.42</ele>
        <time>2017-10-31T15:20:03.000Z</time>
      </trkpt>
      <trkpt lat="44.8708" lon="5.25253">
        <ele>1356.56</ele>
        <time>2017-10-31T15:20:13.000Z</time>
      </trkpt>
      <trkpt lat="44.87079" lon="5.25244">
        <ele>1357.32</ele>
        <time>2017-10-31T15:20:23.000Z</time>
      </trkpt>
      <trkpt lat="44.87076" lon="5.25235">
        <ele>1357.92</ele>
        <time>2017-10-31T15:20:33.000Z</time>
      </trkpt>
      <trkpt lat="44.87076" lon="5.25228">
        <ele>1358.43</ele>
        <time>2017-10-31T15:20:43.000Z</time>
      </trkpt>
      <trkpt lat="44.87075" lon="5.2522">
        <ele>1358.97</ele>
        <time>2017-10-31T15:20:53.000Z</time>
      </trkpt>
      <trkpt lat="44.87074" lon="5.25209">
        <ele>1359.68</ele>
        <time>2017-10-31T15:21:03.000Z</time>
      </trkpt>
      <trkpt lat="44.87075" lon="5.25198">
        <ele>1360.33</ele>
        <time>2017-10-31T15:21:14.000Z</time>
      </trkpt>
      <trkpt lat="44.87069" lon="5.25189">
        <ele>1360.72</ele>
        <time>2017-10-31T15:21:24.000Z</time>
      </trkpt>
      <trkpt lat="44.87067" lon="5.25178">
        <ele>1361.33</ele>
        <time>2017-10-31T15:21:34.000Z</time>
      </trkpt>
      <trkpt lat="44.87065" lon="5.25169">
        <ele>1361.84</ele>
        <time>2017-10-31T15:21:44.000Z</time>
      </trkpt>
      <trkpt lat="44.87061" lon="5.25152">
        <ele>1362.78</ele>
        <time>2017-10-31T15:21:54.000Z</time>
      </trkpt>
      <trkpt lat="44.87066" lon="5.25135">
        <ele>1363.31</ele>
        <time>2017-10-31T15:22:04.000Z</time>
      </trkpt>
      <trkpt lat="44.8706" lon="5.25117">
        <ele>1364.09</ele>
        <time>2017-10-31T15:22:14.000Z</time>
      </trkpt>
      <trkpt lat="44.87055" lon="5.25099">
        <ele>1364.62</ele>
        <time>2017-10-31T15:22:24.000Z</time>
      </trkpt>
      <trkpt lat="44.87051" lon="5.25082">
        <ele>1364.78</ele>
        <time>2017-10-31T15:22:34.000Z</time>
      </trkpt>
      <trkpt lat="44.87048" lon="5.25066">
        <ele>1364.69</ele>
        <time>2017-10-31T15:22:44.000Z</time>
      </trkpt>
      <trkpt lat="44.87044" lon="5.25055">
        <ele>1364.62</ele>
        <time>2017-10-31T15:22:54.000Z</time>
      </trkpt>
      <trkpt lat="44.87038" lon="5.25039">
        <ele>1364.42</ele>
        <time>2017-10-31T15:23:04.000Z</time>
      </trkpt>
      <trkpt lat="44.87033" lon="5.25026">
        <ele>1364.21</ele>
        <time>2017-10-31T15:23:14.000Z</time>
      </trkpt>
      <trkpt lat="44.87029" lon="5.25005">
        <ele>1363.22</ele>
        <time>2017-10-31T15:23:24.000Z</time>
      </trkpt>
      <trkpt lat="44.87021" lon="5.24992">
        <ele>1362.82</ele>
        <time>2017-10-31T15:23:34.000Z</time>
      </trkpt>
      <trkpt lat="44.87016" lon="5.24976">
        <ele>1361.29</ele>
        <time>2017-10-31T15:23:44.000Z</time>
      </trkpt>
      <trkpt lat="44.8701" lon="5.24961">
        <ele>1359.63</ele>
        <time>2017-10-31T15:23:54.000Z</time>
      </trkpt>
      <trkpt lat="44.87005" lon="5.24949">
        <ele>1358.34</ele>
        <time>2017-10-31T15:24:04.000Z</time>
      </trkpt>
      <trkpt lat="44.87003" lon="5.24932">
        <ele>1356.61</ele>
        <time>2017-10-31T15:24:14.000Z</time>
      </trkpt>
      <trkpt lat="44.87004" lon="5.24915">
        <ele>1355.74</ele>
        <time>2017-10-31T15:24:24.000Z</time>
      </trkpt>
      <trkpt lat="44.87004" lon="5.24898">
        <ele>1356.45</ele>
        <time>2017-10-31T15:24:34.000Z</time>
      </trkpt>
      <trkpt lat="44.87003" lon="5.24883">
        <ele>1358.06</ele>
        <time>2017-10-31T15:24:44.000Z</time>
      </trkpt>
      <trkpt lat="44.87003" lon="5.24871">
        <ele>1359.46</ele>
        <time>2017-10-31T15:24:54.000Z</time>
      </trkpt>
      <trkpt lat="44.87002" lon="5.24858">
        <ele>1360.93</ele>
        <time>2017-10-31T15:25:04.000Z</time>
      </trkpt>
      <trkpt lat="44.87007" lon="5.24842">
        <ele>1361.81</ele>
        <time>2017-10-31T15:25:14.000Z</time>
      </trkpt>
      <trkpt lat="44.87007" lon="5.24831">
        <ele>1361.72</ele>
        <time>2017-10-31T15:25:24.000Z</time>
      </trkpt>
      <trkpt lat="44.87008" lon="5.24827">
        <ele>1361.46</ele>
        <time>2017-10-31T15:25:34.000Z</time>
      </trkpt>
      <trkpt lat="44.87007" lon="5.24816">
        <ele>1360.4</ele>
        <time>2017-10-31T15:25:44.000Z</time>
      </trkpt>
      <trkpt lat="44.87006" lon="5.24811">
        <ele>1359.75</ele>
        <time>2017-10-31T15:25:55.000Z</time>
      </trkpt>
      <trkpt lat="44.87005" lon="5.24809">
        <ele>1359.58</ele>
        <time>2017-10-31T15:26:23.000Z</time>
      </trkpt>
      <trkpt lat="44.87001" lon="5.24792">
        <ele>1356.9</ele>
        <time>2017-10-31T15:26:33.000Z</time>
      </trkpt>
      <trkpt lat="44.86995" lon="5.24772">
        <ele>1353.95</ele>
        <time>2017-10-31T15:26:43.000Z</time>
      </trkpt>
      <trkpt lat="44.86988" lon="5.24758">
        <ele>1353.06</ele>
        <time>2017-10-31T15:26:53.000Z</time>
      </trkpt>
      <trkpt lat="44.86982" lon="5.24742">
        <ele>1353.14</ele>
        <time>2017-10-31T15:27:03.000Z</time>
      </trkpt>
      <trkpt lat="44.86975" lon="5.24736">
        <ele>1354.75</ele>
        <time>2017-10-31T15:27:13.000Z</time>
      </trkpt>
      <trkpt lat="44.86968" lon="5.24723">
        <ele>1356.46</ele>
        <time>2017-10-31T15:27:23.000Z</time>
      </trkpt>
      <trkpt lat="44.86964" lon="5.24716">
        <ele>1357.8</ele>
        <time>2017-10-31T15:27:33.000Z</time>
      </trkpt>
      <trkpt lat="44.86958" lon="5.24707">
        <ele>1359.38</ele>
        <time>2017-10-31T15:27:43.000Z</time>
      </trkpt>
      <trkpt lat="44.86953" lon="5.24694">
        <ele>1360.77</ele>
        <time>2017-10-31T15:27:53.000Z</time>
      </trkpt>
      <trkpt lat="44.86947" lon="5.24678">
        <ele>1362.38</ele>
        <time>2017-10-31T15:28:03.000Z</time>
      </trkpt>
      <trkpt lat="44.86944" lon="5.24662">
        <ele>1362.46</ele>
        <time>2017-10-31T15:28:13.000Z</time>
      </trkpt>
      <trkpt lat="44.86943" lon="5.24647">
        <ele>1362.06</ele>
        <time>2017-10-31T15:28:23.000Z</time>
      </trkpt>
      <trkpt lat="44.86937" lon="5.24632">
        <ele>1362.83</ele>
        <time>2017-10-31T15:28:33.000Z</time>
      </trkpt>
      <trkpt lat="44.86932" lon="5.24617">
        <ele>1363.07</ele>
        <time>2017-10-31T15:28:43.000Z</time>
      </trkpt>
      <trkpt lat="44.86926" lon="5.24603">
        <ele>1363.45</ele>
        <time>2017-10-31T15:28:53.000Z</time>
      </trkpt>
      <trkpt lat="44.8692" lon="5.24587">
        <ele>1363.71</ele>
        <time>2017-10-31T15:29:03.000Z</time>
      </trkpt>
      <trkpt lat="44.86911" lon="5.24571">
        <ele>1364.07</ele>
        <time>2017-10-31T15:29:13.000Z</time>
      </trkpt>
      <trkpt lat="44.8691" lon="5.24563">
        <ele>1363.81</ele>
        <time>2017-10-31T15:29:23.000Z</time>
      </trkpt>
      <trkpt lat="44.86911" lon="5.24563">
        <ele>1363.56</ele>
        <time>2017-10-31T15:29:33.000Z</time>
      </trkpt>
      <trkpt lat="44.8691" lon="5.24561">
        <ele>1363.71</ele>
        <time>2017-10-31T15:29:43.000Z</time>
      </trkpt>
      <trkpt lat="44.86902" lon="5.24546">
        <ele>1363.65</ele>
        <time>2017-10-31T15:29:53.000Z</time>
      </trkpt>
      <trkpt lat="44.86897" lon="5.24532">
        <ele>1363.28</ele>
        <time>2017-10-31T15:30:03.000Z</time>
      </trkpt>
      <trkpt lat="44.86892" lon="5.24517">
        <ele>1362.54</ele>
        <time>2017-10-31T15:30:13.000Z</time>
      </trkpt>
      <trkpt lat="44.86888" lon="5.24503">
        <ele>1361.62</ele>
        <time>2017-10-31T15:30:23.000Z</time>
      </trkpt>
      <trkpt lat="44.86887" lon="5.24499">
        <ele>1361.31</ele>
        <time>2017-10-31T15:30:35.000Z</time>
      </trkpt>
      <trkpt lat="44.86882" lon="5.24478">
        <ele>1359.63</ele>
        <time>2017-10-31T15:30:45.000Z</time>
      </trkpt>
      <trkpt lat="44.86883" lon="5.24462">
        <ele>1357.68</ele>
        <time>2017-10-31T15:30:55.000Z</time>
      </trkpt>
      <trkpt lat="44.86889" lon="5.24448">
        <ele>1355.21</ele>
        <time>2017-10-31T15:31:05.000Z</time>
      </trkpt>
      <trkpt lat="44.86896" lon="5.24438">
        <ele>1353</ele>
        <time>2017-10-31T15:31:15.000Z</time>
      </trkpt>
      <trkpt lat="44.86902" lon="5.24428">
        <ele>1351.07</ele>
        <time>2017-10-31T15:31:25.000Z</time>
      </trkpt>
      <trkpt lat="44.86904" lon="5.24426">
        <ele>1350.44</ele>
        <time>2017-10-31T15:31:35.000Z</time>
      </trkpt>
      <trkpt lat="44.86912" lon="5.24413">
        <ele>1348.03</ele>
        <time>2017-10-31T15:31:45.000Z</time>
      </trkpt>
      <trkpt lat="44.8692" lon="5.24397">
        <ele>1345.27</ele>
        <time>2017-10-31T15:31:55.000Z</time>
      </trkpt>
      <trkpt lat="44.86925" lon="5.24381">
        <ele>1342.68</ele>
        <time>2017-10-31T15:32:06.000Z</time>
      </trkpt>
      <trkpt lat="44.86931" lon="5.24368">
        <ele>1340.64</ele>
        <time>2017-10-31T15:32:16.000Z</time>
      </trkpt>
      <trkpt lat="44.86933" lon="5.24364">
        <ele>1340.02</ele>
        <time>2017-10-31T15:32:27.000Z</time>
      </trkpt>
      <trkpt lat="44.86933" lon="5.24358">
        <ele>1339.24</ele>
        <time>2017-10-31T15:32:49.000Z</time>
      </trkpt>
      <trkpt lat="44.86934" lon="5.2434">
        <ele>1337.5</ele>
        <time>2017-10-31T15:32:59.000Z</time>
      </trkpt>
      <trkpt lat="44.86935" lon="5.24326">
        <ele>1336.71</ele>
        <time>2017-10-31T15:33:09.000Z</time>
      </trkpt>
      <trkpt lat="44.8693" lon="5.24307">
        <ele>1337.41</ele>
        <time>2017-10-31T15:33:19.000Z</time>
      </trkpt>
      <trkpt lat="44.86932" lon="5.24292">
        <ele>1337.77</ele>
        <time>2017-10-31T15:33:29.000Z</time>
      </trkpt>
      <trkpt lat="44.86946" lon="5.24283">
        <ele>1336.6</ele>
        <time>2017-10-31T15:33:39.000Z</time>
      </trkpt>
      <trkpt lat="44.86958" lon="5.24279">
        <ele>1335.33</ele>
        <time>2017-10-31T15:33:49.000Z</time>
      </trkpt>
      <trkpt lat="44.86969" lon="5.2427">
        <ele>1334.24</ele>
        <time>2017-10-31T15:33:59.000Z</time>
      </trkpt>
      <trkpt lat="44.86978" lon="5.2426">
        <ele>1333.05</ele>
        <time>2017-10-31T15:34:09.000Z</time>
      </trkpt>
      <trkpt lat="44.86991" lon="5.24257">
        <ele>1331.38</ele>
        <time>2017-10-31T15:34:19.000Z</time>
      </trkpt>
      <trkpt lat="44.87003" lon="5.24248">
        <ele>1329.6</ele>
        <time>2017-10-31T15:34:29.000Z</time>
      </trkpt>
      <trkpt lat="44.87015" lon="5.24244">
        <ele>1327.94</ele>
        <time>2017-10-31T15:34:39.000Z</time>
      </trkpt>
      <trkpt lat="44.87025" lon="5.24236">
        <ele>1326.69</ele>
        <time>2017-10-31T15:34:49.000Z</time>
      </trkpt>
      <trkpt lat="44.87034" lon="5.24228">
        <ele>1325.7</ele>
        <time>2017-10-31T15:34:59.000Z</time>
      </trkpt>
      <trkpt lat="44.87045" lon="5.24221">
        <ele>1324.62</ele>
        <time>2017-10-31T15:35:09.000Z</time>
      </trkpt>
      <trkpt lat="44.87056" lon="5.24216">
        <ele>1323.43</ele>
        <time>2017-10-31T15:35:19.000Z</time>
      </trkpt>
      <trkpt lat="44.87085" lon="5.24202">
        <ele>1320.59</ele>
        <time>2017-10-31T15:35:46.000Z</time>
      </trkpt>
      <trkpt lat="44.87091" lon="5.242">
        <ele>1319.85</ele>
        <time>2017-10-31T15:35:56.000Z</time>
      </trkpt>
      <trkpt lat="44.87095" lon="5.24199">
        <ele>1319.49</ele>
        <time>2017-10-31T15:36:06.000Z</time>
      </trkpt>
      <trkpt lat="44.87106" lon="5.24194">
        <ele>1318.16</ele>
        <time>2017-10-31T15:36:16.000Z</time>
      </trkpt>
      <trkpt lat="44.87122" lon="5.24173">
        <ele>1314.89</ele>
        <time>2017-10-31T15:36:41.000Z</time>
      </trkpt>
      <trkpt lat="44.87125" lon="5.24162">
        <ele>1312.93</ele>
        <time>2017-10-31T15:36:51.000Z</time>
      </trkpt>
      <trkpt lat="44.87126" lon="5.24161">
        <ele>1312.61</ele>
        <time>2017-10-31T15:37:07.000Z</time>
      </trkpt>
      <trkpt lat="44.87128" lon="5.24157">
        <ele>1311.69</ele>
        <time>2017-10-31T15:37:17.000Z</time>
      </trkpt>
      <trkpt lat="44.87137" lon="5.24154">
        <ele>1310.12</ele>
        <time>2017-10-31T15:37:27.000Z</time>
      </trkpt>
      <trkpt lat="44.87142" lon="5.24152">
        <ele>1309.1</ele>
        <time>2017-10-31T15:37:37.000Z</time>
      </trkpt>
      <trkpt lat="44.87148" lon="5.24153">
        <ele>1308.8</ele>
        <time>2017-10-31T15:37:47.000Z</time>
      </trkpt>
      <trkpt lat="44.87148" lon="5.24154">
        <ele>1309.03</ele>
        <time>2017-10-31T15:37:57.000Z</time>
      </trkpt>
      <trkpt lat="44.87164" lon="5.24153">
        <ele>1307.17</ele>
        <time>2017-10-31T15:38:36.000Z</time>
      </trkpt>
      <trkpt lat="44.87174" lon="5.24144">
        <ele>1304.54</ele>
        <time>2017-10-31T15:38:46.000Z</time>
      </trkpt>
      <trkpt lat="44.87184" lon="5.24136">
        <ele>1302.35</ele>
        <time>2017-10-31T15:38:56.000Z</time>
      </trkpt>
      <trkpt lat="44.87227" lon="5.24124">
        <ele>1297.51</ele>
        <time>2017-10-31T15:39:24.000Z</time>
      </trkpt>
      <trkpt lat="44.87227" lon="5.24119">
        <ele>1296.58</ele>
        <time>2017-10-31T15:39:34.000Z</time>
      </trkpt>
      <trkpt lat="44.87228" lon="5.24117">
        <ele>1296.05</ele>
        <time>2017-10-31T15:40:00.000Z</time>
      </trkpt>
      <trkpt lat="44.87236" lon="5.24107">
        <ele>1293.79</ele>
        <time>2017-10-31T15:40:10.000Z</time>
      </trkpt>
      <trkpt lat="44.87279" lon="5.24089">
        <ele>1289.2</ele>
        <time>2017-10-31T15:40:45.000Z</time>
      </trkpt>
      <trkpt lat="44.87292" lon="5.24091">
        <ele>1290.22</ele>
        <time>2017-10-31T15:40:55.000Z</time>
      </trkpt>
      <trkpt lat="44.87304" lon="5.24091">
        <ele>1290.83</ele>
        <time>2017-10-31T15:41:05.000Z</time>
      </trkpt>
      <trkpt lat="44.87316" lon="5.24093">
        <ele>1291.93</ele>
        <time>2017-10-31T15:41:15.000Z</time>
      </trkpt>
      <trkpt lat="44.87328" lon="5.24102">
        <ele>1294.8</ele>
        <time>2017-10-31T15:41:25.000Z</time>
      </trkpt>
      <trkpt lat="44.87337" lon="5.24109">
        <ele>1296.78</ele>
        <time>2017-10-31T15:41:35.000Z</time>
      </trkpt>
      <trkpt lat="44.8735" lon="5.24111">
        <ele>1298.67</ele>
        <time>2017-10-31T15:41:45.000Z</time>
      </trkpt>
      <trkpt lat="44.8738" lon="5.2411">
        <ele>1303.47</ele>
        <time>2017-10-31T15:42:13.000Z</time>
      </trkpt>
      <trkpt lat="44.87394" lon="5.24112">
        <ele>1305.99</ele>
        <time>2017-10-31T15:42:23.000Z</time>
      </trkpt>
      <trkpt lat="44.87404" lon="5.24107">
        <ele>1307.26</ele>
        <time>2017-10-31T15:42:33.000Z</time>
      </trkpt>
      <trkpt lat="44.87413" lon="5.24102">
        <ele>1308.29</ele>
        <time>2017-10-31T15:42:43.000Z</time>
      </trkpt>
      <trkpt lat="44.87421" lon="5.24096">
        <ele>1308.72</ele>
        <time>2017-10-31T15:42:53.000Z</time>
      </trkpt>
      <trkpt lat="44.87431" lon="5.24092">
        <ele>1309.49</ele>
        <time>2017-10-31T15:43:03.000Z</time>
      </trkpt>
      <trkpt lat="44.87439" lon="5.24085">
        <ele>1309.62</ele>
        <time>2017-10-31T15:43:13.000Z</time>
      </trkpt>
      <trkpt lat="44.87448" lon="5.24078">
        <ele>1309.63</ele>
        <time>2017-10-31T15:43:23.000Z</time>
      </trkpt>
      <trkpt lat="44.87458" lon="5.24072">
        <ele>1309.79</ele>
        <time>2017-10-31T15:43:33.000Z</time>
      </trkpt>
      <trkpt lat="44.87467" lon="5.24068">
        <ele>1310.3</ele>
        <time>2017-10-31T15:43:43.000Z</time>
      </trkpt>
      <trkpt lat="44.87474" lon="5.24065">
        <ele>1310.73</ele>
        <time>2017-10-31T15:43:53.000Z</time>
      </trkpt>
      <trkpt lat="44.87481" lon="5.24058">
        <ele>1310.21</ele>
        <time>2017-10-31T15:44:03.000Z</time>
      </trkpt>
      <trkpt lat="44.8749" lon="5.24051">
        <ele>1309.73</ele>
        <time>2017-10-31T15:44:13.000Z</time>
      </trkpt>
      <trkpt lat="44.87499" lon="5.24047">
        <ele>1310.35</ele>
        <time>2017-10-31T15:44:23.000Z</time>
      </trkpt>
      <trkpt lat="44.87508" lon="5.24039">
        <ele>1309.95</ele>
        <time>2017-10-31T15:44:33.000Z</time>
      </trkpt>
      <trkpt lat="44.87517" lon="5.24033">
        <ele>1309.99</ele>
        <time>2017-10-31T15:44:43.000Z</time>
      </trkpt>
      <trkpt lat="44.87529" lon="5.2403">
        <ele>1311.79</ele>
        <time>2017-10-31T15:44:53.000Z</time>
      </trkpt>
      <trkpt lat="44.8754" lon="5.24024">
        <ele>1312.93</ele>
        <time>2017-10-31T15:45:03.000Z</time>
      </trkpt>
      <trkpt lat="44.87551" lon="5.24018">
        <ele>1314.39</ele>
        <time>2017-10-31T15:45:13.000Z</time>
      </trkpt>
      <trkpt lat="44.87563" lon="5.24013">
        <ele>1316.05</ele>
        <time>2017-10-31T15:45:23.000Z</time>
      </trkpt>
      <trkpt lat="44.87574" lon="5.24007">
        <ele>1316.97</ele>
        <time>2017-10-31T15:45:33.000Z</time>
      </trkpt>
      <trkpt lat="44.87585" lon="5.24002">
        <ele>1317.7</ele>
        <time>2017-10-31T15:45:43.000Z</time>
      </trkpt>
      <trkpt lat="44.87597" lon="5.24001">
        <ele>1318.86</ele>
        <time>2017-10-31T15:45:53.000Z</time>
      </trkpt>
      <trkpt lat="44.87611" lon="5.23997">
        <ele>1318.91</ele>
        <time>2017-10-31T15:46:03.000Z</time>
      </trkpt>
      <trkpt lat="44.87635" lon="5.24002">
        <ele>1320.78</ele>
        <time>2017-10-31T15:46:22.000Z</time>
      </trkpt>
      <trkpt lat="44.87645" lon="5.24001">
        <ele>1320.8</ele>
        <time>2017-10-31T15:46:32.000Z</time>
      </trkpt>
      <trkpt lat="44.87655" lon="5.23999">
        <ele>1320.59</ele>
        <time>2017-10-31T15:46:42.000Z</time>
      </trkpt>
      <trkpt lat="44.87682" lon="5.23997">
        <ele>1321.08</ele>
        <time>2017-10-31T15:47:10.000Z</time>
      </trkpt>
      <trkpt lat="44.87685" lon="5.23986">
        <ele>1318.5</ele>
        <time>2017-10-31T15:47:20.000Z</time>
      </trkpt>
      <trkpt lat="44.87681" lon="5.23986">
        <ele>1318.38</ele>
        <time>2017-10-31T15:47:30.000Z</time>
      </trkpt>
      <trkpt lat="44.8768" lon="5.23983">
        <ele>1317.49</ele>
        <time>2017-10-31T15:47:40.000Z</time>
      </trkpt>
      <trkpt lat="44.87685" lon="5.23981">
        <ele>1317.23</ele>
        <time>2017-10-31T15:47:50.000Z</time>
      </trkpt>
      <trkpt lat="44.87696" lon="5.23981">
        <ele>1317.79</ele>
        <time>2017-10-31T15:48:00.000Z</time>
      </trkpt>
      <trkpt lat="44.87701" lon="5.23982">
        <ele>1318.15</ele>
        <time>2017-10-31T15:48:10.000Z</time>
      </trkpt>
      <trkpt lat="44.87711" lon="5.23974">
        <ele>1316.15</ele>
        <time>2017-10-31T15:49:05.000Z</time>
      </trkpt>
      <trkpt lat="44.87731" lon="5.23981">
        <ele>1318.78</ele>
        <time>2017-10-31T15:49:15.000Z</time>
      </trkpt>
      <trkpt lat="44.8773" lon="5.23979">
        <ele>1318.36</ele>
        <time>2017-10-31T15:49:27.000Z</time>
      </trkpt>
      <trkpt lat="44.87731" lon="5.2398">
        <ele>1318.71</ele>
        <time>2017-10-31T15:49:37.000Z</time>
      </trkpt>
      <trkpt lat="44.87735" lon="5.23991">
        <ele>1321.23</ele>
        <time>2017-10-31T15:49:47.000Z</time>
      </trkpt>
      <trkpt lat="44.87747" lon="5.23997">
        <ele>1322.56</ele>
        <time>2017-10-31T15:49:57.000Z</time>
      </trkpt>
      <trkpt lat="44.87759" lon="5.23996">
        <ele>1322.33</ele>
        <time>2017-10-31T15:50:07.000Z</time>
      </trkpt>
      <trkpt lat="44.87766" lon="5.23992">
        <ele>1321.76</ele>
        <time>2017-10-31T15:50:17.000Z</time>
      </trkpt>
      <trkpt lat="44.87765" lon="5.23994">
        <ele>1322.03</ele>
        <time>2017-10-31T15:51:07.000Z</time>
      </trkpt>
      <trkpt lat="44.87774" lon="5.23993">
        <ele>1321.7</ele>
        <time>2017-10-31T15:51:17.000Z</time>
      </trkpt>
      <trkpt lat="44.87783" lon="5.23994">
        <ele>1321.73</ele>
        <time>2017-10-31T15:51:27.000Z</time>
      </trkpt>
      <trkpt lat="44.87792" lon="5.23995">
        <ele>1321.69</ele>
        <time>2017-10-31T15:51:37.000Z</time>
      </trkpt>
      <trkpt lat="44.87828" lon="5.23992">
        <ele>1321.47</ele>
        <time>2017-10-31T15:52:13.000Z</time>
      </trkpt>
      <trkpt lat="44.87832" lon="5.23988">
        <ele>1320.83</ele>
        <time>2017-10-31T15:52:23.000Z</time>
      </trkpt>
      <trkpt lat="44.8783" lon="5.23987">
        <ele>1320.55</ele>
        <time>2017-10-31T15:52:33.000Z</time>
      </trkpt>
      <trkpt lat="44.87839" lon="5.23985">
        <ele>1320.49</ele>
        <time>2017-10-31T15:52:43.000Z</time>
      </trkpt>
      <trkpt lat="44.87851" lon="5.23988">
        <ele>1322.36</ele>
        <time>2017-10-31T15:52:53.000Z</time>
      </trkpt>
      <trkpt lat="44.87863" lon="5.23995">
        <ele>1325.12</ele>
        <time>2017-10-31T15:53:03.000Z</time>
      </trkpt>
      <trkpt lat="44.87878" lon="5.23993">
        <ele>1326.58</ele>
        <time>2017-10-31T15:53:13.000Z</time>
      </trkpt>
      <trkpt lat="44.87881" lon="5.23993">
        <ele>1327.07</ele>
        <time>2017-10-31T15:53:23.000Z</time>
      </trkpt>
      <trkpt lat="44.87899" lon="5.23991">
        <ele>1328.85</ele>
        <time>2017-10-31T15:53:33.000Z</time>
      </trkpt>
      <trkpt lat="44.87914" lon="5.23991">
        <ele>1329.9</ele>
        <time>2017-10-31T15:53:43.000Z</time>
      </trkpt>
      <trkpt lat="44.87932" lon="5.23991">
        <ele>1330.25</ele>
        <time>2017-10-31T15:53:53.000Z</time>
      </trkpt>
      <trkpt lat="44.87939" lon="5.2399">
        <ele>1330.04</ele>
        <time>2017-10-31T15:54:03.000Z</time>
      </trkpt>
      <trkpt lat="44.87951" lon="5.2399">
        <ele>1329.41</ele>
        <time>2017-10-31T15:54:13.000Z</time>
      </trkpt>
      <trkpt lat="44.87964" lon="5.23987">
        <ele>1328.05</ele>
        <time>2017-10-31T15:54:23.000Z</time>
      </trkpt>
      <trkpt lat="44.87976" lon="5.2399">
        <ele>1328.3</ele>
        <time>2017-10-31T15:54:33.000Z</time>
      </trkpt>
      <trkpt lat="44.87987" lon="5.2399">
        <ele>1328.38</ele>
        <time>2017-10-31T15:54:43.000Z</time>
      </trkpt>
      <trkpt lat="44.88003" lon="5.23983">
        <ele>1327.32</ele>
        <time>2017-10-31T15:54:53.000Z</time>
      </trkpt>
      <trkpt lat="44.88022" lon="5.23974">
        <ele>1327.09</ele>
        <time>2017-10-31T15:55:03.000Z</time>
      </trkpt>
      <trkpt lat="44.88024" lon="5.23958">
        <ele>1321.49</ele>
        <time>2017-10-31T15:55:13.000Z</time>
      </trkpt>
      <trkpt lat="44.88034" lon="5.23952">
        <ele>1320.18</ele>
        <time>2017-10-31T15:55:23.000Z</time>
      </trkpt>
      <trkpt lat="44.88042" lon="5.23945">
        <ele>1317.93</ele>
        <time>2017-10-31T15:55:33.000Z</time>
      </trkpt>
      <trkpt lat="44.88054" lon="5.23937">
        <ele>1315.65</ele>
        <time>2017-10-31T15:55:43.000Z</time>
      </trkpt>
      <trkpt lat="44.88061" lon="5.23931">
        <ele>1313.56</ele>
        <time>2017-10-31T15:55:53.000Z</time>
      </trkpt>
      <trkpt lat="44.88062" lon="5.23931">
        <ele>1313.8</ele>
        <time>2017-10-31T15:56:03.000Z</time>
      </trkpt>
      <trkpt lat="44.88064" lon="5.23931">
        <ele>1313.71</ele>
        <time>2017-10-31T15:56:16.000Z</time>
      </trkpt>
      <trkpt lat="44.88077" lon="5.23925">
        <ele>1311.91</ele>
        <time>2017-10-31T15:56:26.000Z</time>
      </trkpt>
      <trkpt lat="44.8808" lon="5.23926">
        <ele>1312.82</ele>
        <time>2017-10-31T15:56:36.000Z</time>
      </trkpt>
      <trkpt lat="44.88095" lon="5.23922">
        <ele>1312.66</ele>
        <time>2017-10-31T15:56:46.000Z</time>
      </trkpt>
      <trkpt lat="44.88113" lon="5.23915">
        <ele>1311.22</ele>
        <time>2017-10-31T15:56:56.000Z</time>
      </trkpt>
      <trkpt lat="44.88126" lon="5.23912">
        <ele>1311.46</ele>
        <time>2017-10-31T15:57:06.000Z</time>
      </trkpt>
      <trkpt lat="44.88138" lon="5.2391">
        <ele>1312.05</ele>
        <time>2017-10-31T15:57:16.000Z</time>
      </trkpt>
      <trkpt lat="44.8815" lon="5.2391">
        <ele>1313.83</ele>
        <time>2017-10-31T15:57:26.000Z</time>
      </trkpt>
      <trkpt lat="44.88162" lon="5.23902">
        <ele>1311.75</ele>
        <time>2017-10-31T15:57:36.000Z</time>
      </trkpt>
      <trkpt lat="44.88175" lon="5.23897">
        <ele>1311.8</ele>
        <time>2017-10-31T15:57:46.000Z</time>
      </trkpt>
      <trkpt lat="44.88186" lon="5.23883">
        <ele>1307.65</ele>
        <time>2017-10-31T15:57:56.000Z</time>
      </trkpt>
      <trkpt lat="44.88198" lon="5.23871">
        <ele>1305.26</ele>
        <time>2017-10-31T15:58:06.000Z</time>
      </trkpt>
      <trkpt lat="44.88205" lon="5.23855">
        <ele>1300.27</ele>
        <time>2017-10-31T15:58:16.000Z</time>
      </trkpt>
      <trkpt lat="44.88218" lon="5.23844">
        <ele>1299.82</ele>
        <time>2017-10-31T15:58:26.000Z</time>
      </trkpt>
      <trkpt lat="44.88226" lon="5.23839">
        <ele>1300.77</ele>
        <time>2017-10-31T15:58:36.000Z</time>
      </trkpt>
      <trkpt lat="44.88237" lon="5.23829">
        <ele>1300.99</ele>
        <time>2017-10-31T15:58:46.000Z</time>
      </trkpt>
      <trkpt lat="44.88249" lon="5.23819">
        <ele>1301.42</ele>
        <time>2017-10-31T15:58:56.000Z</time>
      </trkpt>
      <trkpt lat="44.88259" lon="5.23807">
        <ele>1300.59</ele>
        <time>2017-10-31T15:59:06.000Z</time>
      </trkpt>
      <trkpt lat="44.8827" lon="5.238">
        <ele>1302.01</ele>
        <time>2017-10-31T15:59:16.000Z</time>
      </trkpt>
      <trkpt lat="44.8828" lon="5.23792">
        <ele>1303.46</ele>
        <time>2017-10-31T15:59:26.000Z</time>
      </trkpt>
      <trkpt lat="44.88291" lon="5.23782">
        <ele>1304.03</ele>
        <time>2017-10-31T15:59:36.000Z</time>
      </trkpt>
      <trkpt lat="44.88298" lon="5.23775">
        <ele>1303.89</ele>
        <time>2017-10-31T15:59:46.000Z</time>
      </trkpt>
      <trkpt lat="44.88311" lon="5.23759">
        <ele>1302.55</ele>
        <time>2017-10-31T15:59:56.000Z</time>
      </trkpt>
      <trkpt lat="44.88317" lon="5.23746">
        <ele>1299.63</ele>
        <time>2017-10-31T16:00:06.000Z</time>
      </trkpt>
      <trkpt lat="44.88326" lon="5.23736">
        <ele>1299.02</ele>
        <time>2017-10-31T16:00:16.000Z</time>
      </trkpt>
      <trkpt lat="44.88341" lon="5.23734">
        <ele>1302.28</ele>
        <time>2017-10-31T16:00:26.000Z</time>
      </trkpt>
      <trkpt lat="44.88353" lon="5.2373">
        <ele>1303.09</ele>
        <time>2017-10-31T16:00:36.000Z</time>
      </trkpt>
      <trkpt lat="44.88366" lon="5.23725">
        <ele>1303.26</ele>
        <time>2017-10-31T16:00:46.000Z</time>
      </trkpt>
      <trkpt lat="44.88378" lon="5.2372">
        <ele>1302.68</ele>
        <time>2017-10-31T16:00:56.000Z</time>
      </trkpt>
      <trkpt lat="44.88387" lon="5.23721">
        <ele>1304.02</ele>
        <time>2017-10-31T16:01:06.000Z</time>
      </trkpt>
      <trkpt lat="44.88395" lon="5.23726">
        <ele>1306.55</ele>
        <time>2017-10-31T16:01:16.000Z</time>
      </trkpt>
      <trkpt lat="44.88402" lon="5.2372">
        <ele>1304.93</ele>
        <time>2017-10-31T16:01:26.000Z</time>
      </trkpt>
      <trkpt lat="44.88408" lon="5.23723">
        <ele>1306.46</ele>
        <time>2017-10-31T16:01:36.000Z</time>
      </trkpt>
      <trkpt lat="44.88415" lon="5.23722">
        <ele>1306.75</ele>
        <time>2017-10-31T16:01:46.000Z</time>
      </trkpt>
      <trkpt lat="44.88419" lon="5.23724">
        <ele>1308.04</ele>
        <time>2017-10-31T16:02:00.000Z</time>
      </trkpt>
      <trkpt lat="44.88434" lon="5.23731">
        <ele>1312.07</ele>
        <time>2017-10-31T16:02:10.000Z</time>
      </trkpt>
      <trkpt lat="44.88447" lon="5.23735">
        <ele>1314.49</ele>
        <time>2017-10-31T16:02:20.000Z</time>
      </trkpt>
      <trkpt lat="44.88455" lon="5.23734">
        <ele>1314.76</ele>
        <time>2017-10-31T16:02:30.000Z</time>
      </trkpt>
      <trkpt lat="44.8846" lon="5.23737">
        <ele>1316.46</ele>
        <time>2017-10-31T16:02:40.000Z</time>
      </trkpt>
      <trkpt lat="44.88461" lon="5.23735">
        <ele>1315.62</ele>
        <time>2017-10-31T16:02:50.000Z</time>
      </trkpt>
      <trkpt lat="44.88464" lon="5.23732">
        <ele>1314.13</ele>
        <time>2017-10-31T16:03:32.000Z</time>
      </trkpt>
      <trkpt lat="44.88487" lon="5.23724">
        <ele>1312.21</ele>
        <time>2017-10-31T16:03:42.000Z</time>
      </trkpt>
      <trkpt lat="44.88507" lon="5.23719">
        <ele>1312.91</ele>
        <time>2017-10-31T16:03:52.000Z</time>
      </trkpt>
      <trkpt lat="44.88523" lon="5.23711">
        <ele>1312.84</ele>
        <time>2017-10-31T16:04:02.000Z</time>
      </trkpt>
      <trkpt lat="44.8853" lon="5.23696">
        <ele>1307.19</ele>
        <time>2017-10-31T16:04:12.000Z</time>
      </trkpt>
      <trkpt lat="44.8855" lon="5.23697">
        <ele>1314.01</ele>
        <time>2017-10-31T16:04:22.000Z</time>
      </trkpt>
      <trkpt lat="44.88559" lon="5.23686">
        <ele>1311.72</ele>
        <time>2017-10-31T16:04:32.000Z</time>
      </trkpt>
      <trkpt lat="44.88571" lon="5.2367">
        <ele>1309.19</ele>
        <time>2017-10-31T16:04:42.000Z</time>
      </trkpt>
      <trkpt lat="44.88583" lon="5.23657">
        <ele>1307.54</ele>
        <time>2017-10-31T16:04:52.000Z</time>
      </trkpt>
      <trkpt lat="44.88594" lon="5.23643">
        <ele>1305.51</ele>
        <time>2017-10-31T16:05:02.000Z</time>
      </trkpt>
      <trkpt lat="44.88605" lon="5.23633">
        <ele>1306.01</ele>
        <time>2017-10-31T16:05:12.000Z</time>
      </trkpt>
      <trkpt lat="44.88614" lon="5.23622">
        <ele>1304.82</ele>
        <time>2017-10-31T16:05:22.000Z</time>
      </trkpt>
      <trkpt lat="44.88623" lon="5.23612">
        <ele>1304.34</ele>
        <time>2017-10-31T16:05:32.000Z</time>
      </trkpt>
      <trkpt lat="44.88632" lon="5.23603">
        <ele>1304.01</ele>
        <time>2017-10-31T16:05:42.000Z</time>
      </trkpt>
      <trkpt lat="44.88643" lon="5.23592">
        <ele>1303.32</ele>
        <time>2017-10-31T16:05:52.000Z</time>
      </trkpt>
      <trkpt lat="44.88651" lon="5.23581">
        <ele>1301.34</ele>
        <time>2017-10-31T16:06:02.000Z</time>
      </trkpt>
      <trkpt lat="44.88661" lon="5.23573">
        <ele>1300.78</ele>
        <time>2017-10-31T16:06:12.000Z</time>
      </trkpt>
      <trkpt lat="44.88674" lon="5.23566">
        <ele>1301.41</ele>
        <time>2017-10-31T16:06:22.000Z</time>
      </trkpt>
      <trkpt lat="44.8869" lon="5.2356">
        <ele>1303.1</ele>
        <time>2017-10-31T16:06:32.000Z</time>
      </trkpt>
      <trkpt lat="44.88695" lon="5.23551">
        <ele>1299.85</ele>
        <time>2017-10-31T16:06:42.000Z</time>
      </trkpt>
      <trkpt lat="44.88707" lon="5.23547">
        <ele>1301.11</ele>
        <time>2017-10-31T16:06:52.000Z</time>
      </trkpt>
      <trkpt lat="44.8872" lon="5.23541">
        <ele>1301.91</ele>
        <time>2017-10-31T16:07:02.000Z</time>
      </trkpt>
      <trkpt lat="44.8873" lon="5.2353">
        <ele>1299.07</ele>
        <time>2017-10-31T16:07:12.000Z</time>
      </trkpt>
      <trkpt lat="44.88743" lon="5.23527">
        <ele>1300.96</ele>
        <time>2017-10-31T16:07:22.000Z</time>
      </trkpt>
      <trkpt lat="44.88754" lon="5.23517">
        <ele>1299.08</ele>
        <time>2017-10-31T16:07:32.000Z</time>
      </trkpt>
      <trkpt lat="44.88767" lon="5.23511">
        <ele>1298.85</ele>
        <time>2017-10-31T16:07:42.000Z</time>
      </trkpt>
      <trkpt lat="44.88778" lon="5.235">
        <ele>1295.18</ele>
        <time>2017-10-31T16:07:52.000Z</time>
      </trkpt>
      <trkpt lat="44.88789" lon="5.23499">
        <ele>1295.97</ele>
        <time>2017-10-31T16:08:02.000Z</time>
      </trkpt>
      <trkpt lat="44.88798" lon="5.23485">
        <ele>1290.34</ele>
        <time>2017-10-31T16:08:12.000Z</time>
      </trkpt>
      <trkpt lat="44.88813" lon="5.23488">
        <ele>1293.96</ele>
        <time>2017-10-31T16:08:22.000Z</time>
      </trkpt>
      <trkpt lat="44.88824" lon="5.23478">
        <ele>1290.49</ele>
        <time>2017-10-31T16:08:32.000Z</time>
      </trkpt>
      <trkpt lat="44.88839" lon="5.23474">
        <ele>1291.04</ele>
        <time>2017-10-31T16:08:42.000Z</time>
      </trkpt>
      <trkpt lat="44.88852" lon="5.2348">
        <ele>1296.49</ele>
        <time>2017-10-31T16:08:52.000Z</time>
      </trkpt>
      <trkpt lat="44.88868" lon="5.23468">
        <ele>1294.72</ele>
        <time>2017-10-31T16:09:02.000Z</time>
      </trkpt>
      <trkpt lat="44.88878" lon="5.23464">
        <ele>1294.74</ele>
        <time>2017-10-31T16:09:12.000Z</time>
      </trkpt>
      <trkpt lat="44.88888" lon="5.23459">
        <ele>1294.72</ele>
        <time>2017-10-31T16:09:22.000Z</time>
      </trkpt>
      <trkpt lat="44.88898" lon="5.23455">
        <ele>1294.55</ele>
        <time>2017-10-31T16:09:32.000Z</time>
      </trkpt>
      <trkpt lat="44.8891" lon="5.23452">
        <ele>1294.76</ele>
        <time>2017-10-31T16:09:42.000Z</time>
      </trkpt>
      <trkpt lat="44.88923" lon="5.23447">
        <ele>1293.46</ele>
        <time>2017-10-31T16:09:52.000Z</time>
      </trkpt>
      <trkpt lat="44.88938" lon="5.23444">
        <ele>1291.85</ele>
        <time>2017-10-31T16:10:02.000Z</time>
      </trkpt>
      <trkpt lat="44.88949" lon="5.23448">
        <ele>1292.74</ele>
        <time>2017-10-31T16:10:12.000Z</time>
      </trkpt>
      <trkpt lat="44.88959" lon="5.2345">
        <ele>1293.02</ele>
        <time>2017-10-31T16:10:22.000Z</time>
      </trkpt>
      <trkpt lat="44.88971" lon="5.23454">
        <ele>1293.83</ele>
        <time>2017-10-31T16:10:32.000Z</time>
      </trkpt>
      <trkpt lat="44.88983" lon="5.23463">
        <ele>1297.97</ele>
        <time>2017-10-31T16:10:42.000Z</time>
      </trkpt>
      <trkpt lat="44.88994" lon="5.23475">
        <ele>1303.9</ele>
        <time>2017-10-31T16:10:52.000Z</time>
      </trkpt>
      <trkpt lat="44.89004" lon="5.23478">
        <ele>1306.35</ele>
        <time>2017-10-31T16:11:02.000Z</time>
      </trkpt>
      <trkpt lat="44.89014" lon="5.23481">
        <ele>1309.22</ele>
        <time>2017-10-31T16:11:12.000Z</time>
      </trkpt>
      <trkpt lat="44.89028" lon="5.23477">
        <ele>1309.17</ele>
        <time>2017-10-31T16:11:22.000Z</time>
      </trkpt>
      <trkpt lat="44.89037" lon="5.23484">
        <ele>1315.33</ele>
        <time>2017-10-31T16:11:32.000Z</time>
      </trkpt>
      <trkpt lat="44.89048" lon="5.23491">
        <ele>1321.85</ele>
        <time>2017-10-31T16:11:42.000Z</time>
      </trkpt>
      <trkpt lat="44.89059" lon="5.23485">
        <ele>1320.8</ele>
        <time>2017-10-31T16:11:52.000Z</time>
      </trkpt>
      <trkpt lat="44.89074" lon="5.23482">
        <ele>1322.12</ele>
        <time>2017-10-31T16:12:02.000Z</time>
      </trkpt>
      <trkpt lat="44.89085" lon="5.2347">
        <ele>1315.28</ele>
        <time>2017-10-31T16:12:12.000Z</time>
      </trkpt>
      <trkpt lat="44.89097" lon="5.23455">
        <ele>1306.29</ele>
        <time>2017-10-31T16:12:22.000Z</time>
      </trkpt>
      <trkpt lat="44.89109" lon="5.23448">
        <ele>1303.5</ele>
        <time>2017-10-31T16:12:32.000Z</time>
      </trkpt>
      <trkpt lat="44.89115" lon="5.23438">
        <ele>1298.03</ele>
        <time>2017-10-31T16:12:42.000Z</time>
      </trkpt>
      <trkpt lat="44.8913" lon="5.23442">
        <ele>1303.12</ele>
        <time>2017-10-31T16:12:52.000Z</time>
      </trkpt>
      <trkpt lat="44.89141" lon="5.23445">
        <ele>1306.65</ele>
        <time>2017-10-31T16:13:02.000Z</time>
      </trkpt>
      <trkpt lat="44.89152" lon="5.23453">
        <ele>1311.82</ele>
        <time>2017-10-31T16:13:12.000Z</time>
      </trkpt>
      <trkpt lat="44.89164" lon="5.23451">
        <ele>1312.16</ele>
        <time>2017-10-31T16:13:22.000Z</time>
      </trkpt>
      <trkpt lat="44.89165" lon="5.23448">
        <ele>1310.57</ele>
        <time>2017-10-31T16:13:32.000Z</time>
      </trkpt>
      <trkpt lat="44.89167" lon="5.23448">
        <ele>1311.05</ele>
        <time>2017-10-31T16:14:02.000Z</time>
      </trkpt>
      <trkpt lat="44.89178" lon="5.23447">
        <ele>1311.35</ele>
        <time>2017-10-31T16:14:12.000Z</time>
      </trkpt>
      <trkpt lat="44.89181" lon="5.23448">
        <ele>1312.08</ele>
        <time>2017-10-31T16:14:22.000Z</time>
      </trkpt>
      <trkpt lat="44.89183" lon="5.23448">
        <ele>1311.8</ele>
        <time>2017-10-31T16:14:49.000Z</time>
      </trkpt>
      <trkpt lat="44.89206" lon="5.23446">
        <ele>1311.86</ele>
        <time>2017-10-31T16:14:59.000Z</time>
      </trkpt>
      <trkpt lat="44.8922" lon="5.23445">
        <ele>1311.71</ele>
        <time>2017-10-31T16:15:09.000Z</time>
      </trkpt>
      <trkpt lat="44.89235" lon="5.23455">
        <ele>1317.06</ele>
        <time>2017-10-31T16:15:19.000Z</time>
      </trkpt>
      <trkpt lat="44.89254" lon="5.2345">
        <ele>1315</ele>
        <time>2017-10-31T16:15:29.000Z</time>
      </trkpt>
      <trkpt lat="44.89267" lon="5.23448">
        <ele>1314.02</ele>
        <time>2017-10-31T16:15:39.000Z</time>
      </trkpt>
      <trkpt lat="44.89278" lon="5.23448">
        <ele>1314.32</ele>
        <time>2017-10-31T16:15:49.000Z</time>
      </trkpt>
      <trkpt lat="44.89293" lon="5.23449">
        <ele>1314.68</ele>
        <time>2017-10-31T16:15:59.000Z</time>
      </trkpt>
      <trkpt lat="44.89303" lon="5.23448">
        <ele>1314</ele>
        <time>2017-10-31T16:16:09.000Z</time>
      </trkpt>
      <trkpt lat="44.89318" lon="5.2345">
        <ele>1315.96</ele>
        <time>2017-10-31T16:16:19.000Z</time>
      </trkpt>
      <trkpt lat="44.89332" lon="5.23447">
        <ele>1314.27</ele>
        <time>2017-10-31T16:16:29.000Z</time>
      </trkpt>
      <trkpt lat="44.89345" lon="5.23445">
        <ele>1313.51</ele>
        <time>2017-10-31T16:16:39.000Z</time>
      </trkpt>
      <trkpt lat="44.89356" lon="5.23447">
        <ele>1314.72</ele>
        <time>2017-10-31T16:16:49.000Z</time>
      </trkpt>
      <trkpt lat="44.8937" lon="5.23443">
        <ele>1313.05</ele>
        <time>2017-10-31T16:16:59.000Z</time>
      </trkpt>
      <trkpt lat="44.8938" lon="5.23445">
        <ele>1315.08</ele>
        <time>2017-10-31T16:17:09.000Z</time>
      </trkpt>
      <trkpt lat="44.89398" lon="5.23442">
        <ele>1314.33</ele>
        <time>2017-10-31T16:17:19.000Z</time>
      </trkpt>
      <trkpt lat="44.89409" lon="5.23447">
        <ele>1317.9</ele>
        <time>2017-10-31T16:17:29.000Z</time>
      </trkpt>
      <trkpt lat="44.89419" lon="5.23447">
        <ele>1318.29</ele>
        <time>2017-10-31T16:17:39.000Z</time>
      </trkpt>
      <trkpt lat="44.89433" lon="5.23446">
        <ele>1318.39</ele>
        <time>2017-10-31T16:17:49.000Z</time>
      </trkpt>
      <trkpt lat="44.89443" lon="5.23443">
        <ele>1317.47</ele>
        <time>2017-10-31T16:17:59.000Z</time>
      </trkpt>
      <trkpt lat="44.89448" lon="5.23443">
        <ele>1317.82</ele>
        <time>2017-10-31T16:18:09.000Z</time>
      </trkpt>
      <trkpt lat="44.89449" lon="5.23435">
        <ele>1313.56</ele>
        <time>2017-10-31T16:18:19.000Z</time>
      </trkpt>
      <trkpt lat="44.89459" lon="5.23438">
        <ele>1315.82</ele>
        <time>2017-10-31T16:18:29.000Z</time>
      </trkpt>
      <trkpt lat="44.89466" lon="5.23439">
        <ele>1316.77</ele>
        <time>2017-10-31T16:18:39.000Z</time>
      </trkpt>
      <trkpt lat="44.89457" lon="5.23429">
        <ele>1311.1</ele>
        <time>2017-10-31T16:18:49.000Z</time>
      </trkpt>
      <trkpt lat="44.89477" lon="5.2344">
        <ele>1318.41</ele>
        <time>2017-10-31T16:18:59.000Z</time>
      </trkpt>
      <trkpt lat="44.89491" lon="5.23436">
        <ele>1317.03</ele>
        <time>2017-10-31T16:19:09.000Z</time>
      </trkpt>
      <trkpt lat="44.89505" lon="5.23435">
        <ele>1317.28</ele>
        <time>2017-10-31T16:19:19.000Z</time>
      </trkpt>
      <trkpt lat="44.89513" lon="5.2343">
        <ele>1315.53</ele>
        <time>2017-10-31T16:19:29.000Z</time>
      </trkpt>
      <trkpt lat="44.89525" lon="5.23428">
        <ele>1315.11</ele>
        <time>2017-10-31T16:19:39.000Z</time>
      </trkpt>
      <trkpt lat="44.89533" lon="5.23427">
        <ele>1314.82</ele>
        <time>2017-10-31T16:19:49.000Z</time>
      </trkpt>
      <trkpt lat="44.89541" lon="5.23419">
        <ele>1311.09</ele>
        <time>2017-10-31T16:19:59.000Z</time>
      </trkpt>
      <trkpt lat="44.89557" lon="5.23422">
        <ele>1313.58</ele>
        <time>2017-10-31T16:20:09.000Z</time>
      </trkpt>
      <trkpt lat="44.89568" lon="5.23416">
        <ele>1311.03</ele>
        <time>2017-10-31T16:20:19.000Z</time>
      </trkpt>
      <trkpt lat="44.89581" lon="5.23411">
        <ele>1309.09</ele>
        <time>2017-10-31T16:20:29.000Z</time>
      </trkpt>
      <trkpt lat="44.89594" lon="5.23412">
        <ele>1310.16</ele>
        <time>2017-10-31T16:20:39.000Z</time>
      </trkpt>
      <trkpt lat="44.89606" lon="5.23417">
        <ele>1313.04</ele>
        <time>2017-10-31T16:20:49.000Z</time>
      </trkpt>
      <trkpt lat="44.89615" lon="5.23413">
        <ele>1311.63</ele>
        <time>2017-10-31T16:20:59.000Z</time>
      </trkpt>
      <trkpt lat="44.89634" lon="5.23401">
        <ele>1307.32</ele>
        <time>2017-10-31T16:21:09.000Z</time>
      </trkpt>
      <trkpt lat="44.89644" lon="5.2341">
        <ele>1311.43</ele>
        <time>2017-10-31T16:21:19.000Z</time>
      </trkpt>
      <trkpt lat="44.89656" lon="5.23406">
        <ele>1310.4</ele>
        <time>2017-10-31T16:21:29.000Z</time>
      </trkpt>
      <trkpt lat="44.89665" lon="5.23405">
        <ele>1310.24</ele>
        <time>2017-10-31T16:21:39.000Z</time>
      </trkpt>
      <trkpt lat="44.89676" lon="5.23401">
        <ele>1309.14</ele>
        <time>2017-10-31T16:21:49.000Z</time>
      </trkpt>
      <trkpt lat="44.8969" lon="5.23395">
        <ele>1307.84</ele>
        <time>2017-10-31T16:21:59.000Z</time>
      </trkpt>
      <trkpt lat="44.89704" lon="5.23393">
        <ele>1308.31</ele>
        <time>2017-10-31T16:22:09.000Z</time>
      </trkpt>
      <trkpt lat="44.89714" lon="5.2339">
        <ele>1308.19</ele>
        <time>2017-10-31T16:22:19.000Z</time>
      </trkpt>
      <trkpt lat="44.89728" lon="5.23391">
        <ele>1309.37</ele>
        <time>2017-10-31T16:22:29.000Z</time>
      </trkpt>
      <trkpt lat="44.8974" lon="5.23383">
        <ele>1307.4</ele>
        <time>2017-10-31T16:22:39.000Z</time>
      </trkpt>
      <trkpt lat="44.89753" lon="5.23389">
        <ele>1307.89</ele>
        <time>2017-10-31T16:22:49.000Z</time>
      </trkpt>
      <trkpt lat="44.8977" lon="5.23388">
        <ele>1305.38</ele>
        <time>2017-10-31T16:22:59.000Z</time>
      </trkpt>
      <trkpt lat="44.89769" lon="5.23384">
        <ele>1305.05</ele>
        <time>2017-10-31T16:23:09.000Z</time>
      </trkpt>
      <trkpt lat="44.89764" lon="5.23386">
        <ele>1306.16</ele>
        <time>2017-10-31T16:23:19.000Z</time>
      </trkpt>
      <trkpt lat="44.89765" lon="5.23387">
        <ele>1306.06</ele>
        <time>2017-10-31T16:23:31.000Z</time>
      </trkpt>
      <trkpt lat="44.89763" lon="5.23392">
        <ele>1307.19</ele>
        <time>2017-10-31T16:23:41.000Z</time>
      </trkpt>
      <trkpt lat="44.89765" lon="5.23394">
        <ele>1307.13</ele>
        <time>2017-10-31T16:23:51.000Z</time>
      </trkpt>
      <trkpt lat="44.89774" lon="5.23385">
        <ele>1304.52</ele>
        <time>2017-10-31T16:24:01.000Z</time>
      </trkpt>
      <trkpt lat="44.89783" lon="5.23371">
        <ele>1301.78</ele>
        <time>2017-10-31T16:24:11.000Z</time>
      </trkpt>
      <trkpt lat="44.89793" lon="5.2336">
        <ele>1300.13</ele>
        <time>2017-10-31T16:24:21.000Z</time>
      </trkpt>
      <trkpt lat="44.89803" lon="5.23349">
        <ele>1299.13</ele>
        <time>2017-10-31T16:24:31.000Z</time>
      </trkpt>
      <trkpt lat="44.89804" lon="5.23345">
        <ele>1299.09</ele>
        <time>2017-10-31T16:24:41.000Z</time>
      </trkpt>
      <trkpt lat="44.89803" lon="5.23345">
        <ele>1299.15</ele>
        <time>2017-10-31T16:24:51.000Z</time>
      </trkpt>
      <trkpt lat="44.898" lon="5.23342">
        <ele>1299.26</ele>
        <time>2017-10-31T16:25:22.000Z</time>
      </trkpt>
      <trkpt lat="44.898" lon="5.23344">
        <ele>1299.27</ele>
        <time>2017-10-31T16:25:32.000Z</time>
      </trkpt>
      <trkpt lat="44.89803" lon="5.23348">
        <ele>1299.16</ele>
        <time>2017-10-31T16:25:59.000Z</time>
      </trkpt>
      <trkpt lat="44.89805" lon="5.23349">
        <ele>1298.93</ele>
        <time>2017-10-31T16:26:09.000Z</time>
      </trkpt>
      <trkpt lat="44.89805" lon="5.23352">
        <ele>1298.88</ele>
        <time>2017-10-31T16:26:17.000Z</time>
      </trkpt>
    </trkseg>
  </trk>
</gpx>